<?xml version='1.0' encoding='UTF-8'?><gpx version="1.1" creator="JPX - https://github.com/jenetics/jpx" xmlns="http://www.topografix.com/GPX/1/1"><trk><trkseg><trkpt lat="42.9381539" lon="11.8724053"><ele>999.0</ele><time>2026-04-04T10:43:03.006Z</time></trkpt><trkpt lat="42.9381659" lon="11.872303"><ele>999.0000000000001</ele><time>2026-04-04T10:43:04.997Z</time></trkpt><trkpt lat="42.938183" lon="11.8721741"><ele>999.0000000000001</ele><time>2026-04-04T10:43:06.996Z</time></trkpt><trkpt lat="42.938201" lon="11.8720911"><ele>999.0</ele><time>2026-04-04T10:43:08.036Z</time></trkpt><trkpt lat="42.9382387" lon="11.8719363"><ele>999.0</ele><time>2026-04-04T10:43:10.037Z</time></trkpt><trkpt lat="42.9382912" lon="11.8717849"><ele>997.4000000000001</ele><time>2026-04-04T10:43:12.029Z</time></trkpt><trkpt lat="42.9383337" lon="11.8716397"><ele>995.8000000000001</ele><time>2026-04-04T10:43:14.017Z</time></trkpt><trkpt lat="42.9383515" lon="11.8714765"><ele>994.1999999999999</ele><time>2026-04-04T10:43:16.011Z</time></trkpt><trkpt lat="42.9383742" lon="11.871396"><ele>992.5999999999999</ele><time>2026-04-04T10:43:17.01Z</time></trkpt><trkpt lat="42.9383918" lon="11.8713105"><ele>991.0</ele><time>2026-04-04T10:43:18.03Z</time></trkpt><trkpt lat="42.9384339" lon="11.8711584"><ele>992.8333333333333</ele><time>2026-04-04T10:43:20.023Z</time></trkpt><trkpt lat="42.9384676" lon="11.8710555"><ele>994.6666666666666</ele><time>2026-04-04T10:43:22.016Z</time></trkpt><trkpt lat="42.9384805" lon="11.8709385"><ele>996.5</ele><time>2026-04-04T10:43:24.037Z</time></trkpt><trkpt lat="42.9385066" lon="11.8708363"><ele>998.3333333333333</ele><time>2026-04-04T10:43:26.013Z</time></trkpt><trkpt lat="42.9385472" lon="11.8707526"><ele>1000.1666666666666</ele><time>2026-04-04T10:43:28.002Z</time></trkpt><trkpt lat="42.9386203" lon="11.8707139"><ele>1002.0</ele><time>2026-04-04T10:43:31.009Z</time></trkpt><trkpt lat="42.9386974" lon="11.870653"><ele>1002.0</ele><time>2026-04-04T10:43:32.989Z</time></trkpt><trkpt lat="42.9387726" lon="11.8706034"><ele>1002.0</ele><time>2026-04-04T10:43:34.998Z</time></trkpt><trkpt lat="42.9388112" lon="11.8705053"><ele>1002.0</ele><time>2026-04-04T10:43:36.992Z</time></trkpt><trkpt lat="42.9388065" lon="11.8703865"><ele>1002.0</ele><time>2026-04-04T10:43:39.029Z</time></trkpt><trkpt lat="42.9387913" lon="11.8702853"><ele>1002.0</ele><time>2026-04-04T10:43:41.004Z</time></trkpt><trkpt lat="42.9387786" lon="11.8701731"><ele>1002.0</ele><time>2026-04-04T10:43:42.945Z</time></trkpt><trkpt lat="42.9387607" lon="11.870043"><ele>1000.8</ele><time>2026-04-04T10:43:44.994Z</time></trkpt><trkpt lat="42.9387485" lon="11.8699076"><ele>999.6</ele><time>2026-04-04T10:43:47.019Z</time></trkpt><trkpt lat="42.938718" lon="11.8697779"><ele>998.3999999999999</ele><time>2026-04-04T10:43:49.027Z</time></trkpt><trkpt lat="42.9386751" lon="11.8696698"><ele>997.1999999999999</ele><time>2026-04-04T10:43:51.015Z</time></trkpt><trkpt lat="42.9386317" lon="11.8695656"><ele>996.0</ele><time>2026-04-04T10:43:53.01Z</time></trkpt><trkpt lat="42.9385884" lon="11.8694826"><ele>996.0</ele><time>2026-04-04T10:43:55.001Z</time></trkpt><trkpt lat="42.9385531" lon="11.8693924"><ele>996.0</ele><time>2026-04-04T10:43:57.002Z</time></trkpt><trkpt lat="42.9385107" lon="11.8692844"><ele>996.0</ele><time>2026-04-04T10:43:58.992Z</time></trkpt><trkpt lat="42.9384692" lon="11.8691492"><ele>996.0</ele><time>2026-04-04T10:44:01.011Z</time></trkpt><trkpt lat="42.9384414" lon="11.8690681"><ele>996.0</ele><time>2026-04-04T10:44:02.018Z</time></trkpt><trkpt lat="42.9384117" lon="11.8689881"><ele>996.0</ele><time>2026-04-04T10:44:03.022Z</time></trkpt><trkpt lat="42.9383589" lon="11.8688589"><ele>994.8333333333334</ele><time>2026-04-04T10:44:05.013Z</time></trkpt><trkpt lat="42.9383203" lon="11.8687658"><ele>993.6666666666667</ele><time>2026-04-04T10:44:06.99Z</time></trkpt><trkpt lat="42.938275" lon="11.8686762"><ele>992.5</ele><time>2026-04-04T10:44:08.995Z</time></trkpt><trkpt lat="42.9382206" lon="11.868585"><ele>991.3333333333334</ele><time>2026-04-04T10:44:11.008Z</time></trkpt><trkpt lat="42.9381565" lon="11.8684619"><ele>990.1666666666667</ele><time>2026-04-04T10:44:13.014Z</time></trkpt><trkpt lat="42.9381041" lon="11.8684019"><ele>989.0</ele><time>2026-04-04T10:44:14.008Z</time></trkpt><trkpt lat="42.9380362" lon="11.8683425"><ele>987.4000000000001</ele><time>2026-04-04T10:44:15.016Z</time></trkpt><trkpt lat="42.9379556" lon="11.8682816"><ele>985.8000000000001</ele><time>2026-04-04T10:44:16.029Z</time></trkpt><trkpt lat="42.9378774" lon="11.8682281"><ele>984.1999999999999</ele><time>2026-04-04T10:44:17.014Z</time></trkpt><trkpt lat="42.9377934" lon="11.8681678"><ele>982.5999999999999</ele><time>2026-04-04T10:44:18.012Z</time></trkpt><trkpt lat="42.9377075" lon="11.8680878"><ele>981.0</ele><time>2026-04-04T10:44:19.018Z</time></trkpt><trkpt lat="42.9376297" lon="11.8680116"><ele>981.5999999999999</ele><time>2026-04-04T10:44:20.003Z</time></trkpt><trkpt lat="42.9375486" lon="11.867931"><ele>982.1999999999999</ele><time>2026-04-04T10:44:21.035Z</time></trkpt><trkpt lat="42.9374605" lon="11.867866"><ele>982.8000000000001</ele><time>2026-04-04T10:44:22.04Z</time></trkpt><trkpt lat="42.9373773" lon="11.8678334"><ele>983.4000000000001</ele><time>2026-04-04T10:44:22.995Z</time></trkpt><trkpt lat="42.9372879" lon="11.8678102"><ele>984.0</ele><time>2026-04-04T10:44:24.003Z</time></trkpt><trkpt lat="42.9372085" lon="11.8677846"><ele>984.0</ele><time>2026-04-04T10:44:24.982Z</time></trkpt><trkpt lat="42.9371295" lon="11.8677566"><ele>984.0</ele><time>2026-04-04T10:44:26.031Z</time></trkpt><trkpt lat="42.9370254" lon="11.8676924"><ele>984.0</ele><time>2026-04-04T10:44:28.006Z</time></trkpt><trkpt lat="42.9369669" lon="11.8676565"><ele>984.0</ele><time>2026-04-04T10:44:29.025Z</time></trkpt><trkpt lat="42.9368955" lon="11.8676327"><ele>984.0</ele><time>2026-04-04T10:44:29.999Z</time></trkpt><trkpt lat="42.9368152" lon="11.8676245"><ele>984.0</ele><time>2026-04-04T10:44:31.029Z</time></trkpt><trkpt lat="42.9367529" lon="11.867652"><ele>982.3333333333334</ele><time>2026-04-04T10:44:31.985Z</time></trkpt><trkpt lat="42.9366837" lon="11.8676912"><ele>980.6666666666667</ele><time>2026-04-04T10:44:33.017Z</time></trkpt><trkpt lat="42.9366187" lon="11.8677508"><ele>979.0</ele><time>2026-04-04T10:44:34.007Z</time></trkpt><trkpt lat="42.936552" lon="11.8678336"><ele>977.3333333333334</ele><time>2026-04-04T10:44:34.992Z</time></trkpt><trkpt lat="42.9364878" lon="11.8679194"><ele>975.6666666666667</ele><time>2026-04-04T10:44:36.007Z</time></trkpt><trkpt lat="42.9364199" lon="11.8679842"><ele>974.0</ele><time>2026-04-04T10:44:37.025Z</time></trkpt><trkpt lat="42.9363422" lon="11.8680371"><ele>974.0</ele><time>2026-04-04T10:44:38.03Z</time></trkpt><trkpt lat="42.9362954" lon="11.868192"><ele>974.0000000000001</ele><time>2026-04-04T10:44:40.001Z</time></trkpt><trkpt lat="42.9362142" lon="11.8682421"><ele>974.0000000000001</ele><time>2026-04-04T10:44:41.052Z</time></trkpt><trkpt lat="42.9361271" lon="11.8682734"><ele>974.0</ele><time>2026-04-04T10:44:42.003Z</time></trkpt><trkpt lat="42.9360858" lon="11.8683411"><ele>974.0</ele><time>2026-04-04T10:44:42.992Z</time></trkpt><trkpt lat="42.9360131" lon="11.8684287"><ele>974.0</ele><time>2026-04-04T10:44:44.99Z</time></trkpt><trkpt lat="42.9359719" lon="11.8683398"><ele>974.0000000000001</ele><time>2026-04-04T10:44:47.035Z</time></trkpt><trkpt lat="42.9359877" lon="11.8682227"><ele>974.0000000000001</ele><time>2026-04-04T10:44:49.009Z</time></trkpt><trkpt lat="42.9360394" lon="11.8680911"><ele>974.0</ele><time>2026-04-04T10:44:50.972Z</time></trkpt><trkpt lat="42.9360866" lon="11.8679582"><ele>974.0</ele><time>2026-04-04T10:44:53.012Z</time></trkpt><trkpt lat="42.9361277" lon="11.8678347"><ele>974.0</ele><time>2026-04-04T10:44:55.003Z</time></trkpt><trkpt lat="42.9361767" lon="11.8676962"><ele>974.0000000000001</ele><time>2026-04-04T10:44:57.013Z</time></trkpt><trkpt lat="42.9361033" lon="11.867652"><ele>974.0000000000001</ele><time>2026-04-04T10:45:03Z</time></trkpt><trkpt lat="42.9360252" lon="11.8677444"><ele>974.0</ele><time>2026-04-04T10:45:04.992Z</time></trkpt><trkpt lat="42.935957" lon="11.8678528"><ele>974.0</ele><time>2026-04-04T10:45:07.005Z</time></trkpt><trkpt lat="42.9358336" lon="11.8678685"><ele>969.4000000000001</ele><time>2026-04-04T10:45:08.992Z</time></trkpt><trkpt lat="42.9357251" lon="11.8678866"><ele>964.8000000000001</ele><time>2026-04-04T10:45:11.002Z</time></trkpt><trkpt lat="42.9356377" lon="11.8678835"><ele>960.1999999999999</ele><time>2026-04-04T10:45:12.993Z</time></trkpt><trkpt lat="42.9355442" lon="11.8678952"><ele>955.5999999999999</ele><time>2026-04-04T10:45:14.994Z</time></trkpt><trkpt lat="42.9354608" lon="11.867917"><ele>951.0</ele><time>2026-04-04T10:45:16.991Z</time></trkpt><trkpt lat="42.9352201" lon="11.8682505"><ele>951.0</ele><time>2026-04-04T10:45:18.004Z</time></trkpt><trkpt lat="42.9351598" lon="11.8683735"><ele>951.0</ele><time>2026-04-04T10:45:19.028Z</time></trkpt><trkpt lat="42.9351273" lon="11.8684635"><ele>951.0</ele><time>2026-04-04T10:45:19.994Z</time></trkpt><trkpt lat="42.9351181" lon="11.868579"><ele>951.0</ele><time>2026-04-04T10:45:22.003Z</time></trkpt><trkpt lat="42.9350778" lon="11.8686645"><ele>951.0</ele><time>2026-04-04T10:45:24Z</time></trkpt><trkpt lat="42.9349859" lon="11.8686804"><ele>951.0</ele><time>2026-04-04T10:45:25.995Z</time></trkpt><trkpt lat="42.9348675" lon="11.8686134"><ele>947.0</ele><time>2026-04-04T10:45:28.016Z</time></trkpt><trkpt lat="42.9347918" lon="11.8685665"><ele>943.0</ele><time>2026-04-04T10:45:29.006Z</time></trkpt><trkpt lat="42.9347188" lon="11.8685161"><ele>939.0</ele><time>2026-04-04T10:45:30.015Z</time></trkpt><trkpt lat="42.9346626" lon="11.868469"><ele>935.0</ele><time>2026-04-04T10:45:31.014Z</time></trkpt><trkpt lat="42.9345675" lon="11.868391"><ele>931.0</ele><time>2026-04-04T10:45:32.998Z</time></trkpt><trkpt lat="42.9344755" lon="11.8683196"><ele>927.0</ele><time>2026-04-04T10:45:35.004Z</time></trkpt><trkpt lat="42.9343698" lon="11.8682471"><ele>927.0</ele><time>2026-04-04T10:45:37.022Z</time></trkpt><trkpt lat="42.9342693" lon="11.868196"><ele>927.0</ele><time>2026-04-04T10:45:39.014Z</time></trkpt><trkpt lat="42.9341599" lon="11.8681383"><ele>927.0</ele><time>2026-04-04T10:45:41.025Z</time></trkpt><trkpt lat="42.934046" lon="11.8680653"><ele>927.0</ele><time>2026-04-04T10:45:43.023Z</time></trkpt><trkpt lat="42.933989" lon="11.8680257"><ele>927.0</ele><time>2026-04-04T10:45:44.016Z</time></trkpt><trkpt lat="42.9338748" lon="11.8679583"><ele>923.5</ele><time>2026-04-04T10:45:45.998Z</time></trkpt><trkpt lat="42.9338069" lon="11.8679274"><ele>920.0</ele><time>2026-04-04T10:45:47.005Z</time></trkpt><trkpt lat="42.9337169" lon="11.8678595"><ele>916.5</ele><time>2026-04-04T10:45:49.006Z</time></trkpt><trkpt lat="42.9336108" lon="11.8678829"><ele>913.0</ele><time>2026-04-04T10:45:51.027Z</time></trkpt><trkpt lat="42.9335432" lon="11.8678962"><ele>909.5</ele><time>2026-04-04T10:45:52.033Z</time></trkpt><trkpt lat="42.9334807" lon="11.8679223"><ele>906.0</ele><time>2026-04-04T10:45:53.034Z</time></trkpt><trkpt lat="42.9333693" lon="11.8678763"><ele>902.25</ele><time>2026-04-04T10:45:55.015Z</time></trkpt><trkpt lat="42.933335" lon="11.8677106"><ele>898.5</ele><time>2026-04-04T10:45:56.997Z</time></trkpt><trkpt lat="42.9333221" lon="11.8675672"><ele>894.75</ele><time>2026-04-04T10:45:59.005Z</time></trkpt><trkpt lat="42.9333737" lon="11.8674056"><ele>891.0</ele><time>2026-04-04T10:46:02.996Z</time></trkpt><trkpt lat="42.9333181" lon="11.8671876"><ele>890.5999999999999</ele><time>2026-04-04T10:46:05.008Z</time></trkpt><trkpt lat="42.9333615" lon="11.8670564"><ele>890.1999999999999</ele><time>2026-04-04T10:46:07.007Z</time></trkpt><trkpt lat="42.9333984" lon="11.8669523"><ele>889.8000000000001</ele><time>2026-04-04T10:46:09.009Z</time></trkpt><trkpt lat="42.9334579" lon="11.866864"><ele>889.4000000000001</ele><time>2026-04-04T10:46:10.995Z</time></trkpt><trkpt lat="42.9335392" lon="11.8668214"><ele>889.0</ele><time>2026-04-04T10:46:12.995Z</time></trkpt><trkpt lat="42.9336587" lon="11.8668123"><ele>891.0</ele><time>2026-04-04T10:46:14.997Z</time></trkpt><trkpt lat="42.9337623" lon="11.8667928"><ele>893.0</ele><time>2026-04-04T10:46:17.013Z</time></trkpt><trkpt lat="42.9338382" lon="11.8667317"><ele>895.0</ele><time>2026-04-04T10:46:19.016Z</time></trkpt><trkpt lat="42.9338703" lon="11.8666369"><ele>897.0</ele><time>2026-04-04T10:46:20.997Z</time></trkpt><trkpt lat="42.9341057" lon="11.8665553"><ele>897.6</ele><time>2026-04-04T10:46:21.983Z</time></trkpt><trkpt lat="42.9341757" lon="11.8664786"><ele>898.2</ele><time>2026-04-04T10:46:23.013Z</time></trkpt><trkpt lat="42.9342026" lon="11.8663954"><ele>898.8</ele><time>2026-04-04T10:46:24.017Z</time></trkpt><trkpt lat="42.9342268" lon="11.8662403"><ele>899.4</ele><time>2026-04-04T10:46:26.014Z</time></trkpt><trkpt lat="42.9342289" lon="11.8661039"><ele>900.0</ele><time>2026-04-04T10:46:28.016Z</time></trkpt><trkpt lat="42.9342022" lon="11.8659755"><ele>894.0</ele><time>2026-04-04T10:46:30Z</time></trkpt><trkpt lat="42.9341496" lon="11.8658465"><ele>888.0</ele><time>2026-04-04T10:46:31.999Z</time></trkpt><trkpt lat="42.9340973" lon="11.865715"><ele>882.0</ele><time>2026-04-04T10:46:34.009Z</time></trkpt><trkpt lat="42.93405" lon="11.865643"><ele>876.0</ele><time>2026-04-04T10:46:35.011Z</time></trkpt><trkpt lat="42.9340026" lon="11.865562"><ele>870.0</ele><time>2026-04-04T10:46:36.004Z</time></trkpt><trkpt lat="42.9339558" lon="11.8654786"><ele>864.0</ele><time>2026-04-04T10:46:37.012Z</time></trkpt><trkpt lat="42.9339154" lon="11.8653941"><ele>864.0</ele><time>2026-04-04T10:46:38.02Z</time></trkpt><trkpt lat="42.933852" lon="11.8652628"><ele>864.0000000000001</ele><time>2026-04-04T10:46:40.012Z</time></trkpt><trkpt lat="42.9338033" lon="11.865129"><ele>864.0000000000001</ele><time>2026-04-04T10:46:42.015Z</time></trkpt><trkpt lat="42.9337864" lon="11.8650397"><ele>864.0</ele><time>2026-04-04T10:46:43.043Z</time></trkpt><trkpt lat="42.9337461" lon="11.8648957"><ele>864.0</ele><time>2026-04-04T10:46:45.027Z</time></trkpt><trkpt lat="42.9337326" lon="11.8647875"><ele>863.4285714285714</ele><time>2026-04-04T10:46:47.023Z</time></trkpt><trkpt lat="42.9337225" lon="11.8646889"><ele>862.8571428571429</ele><time>2026-04-04T10:46:49.002Z</time></trkpt><trkpt lat="42.9336958" lon="11.8645986"><ele>862.2857142857142</ele><time>2026-04-04T10:46:50.993Z</time></trkpt><trkpt lat="42.9336526" lon="11.8645216"><ele>861.7142857142858</ele><time>2026-04-04T10:46:53.997Z</time></trkpt><trkpt lat="42.9336229" lon="11.8644408"><ele>861.1428571428572</ele><time>2026-04-04T10:46:55.995Z</time></trkpt><trkpt lat="42.9335763" lon="11.8643643"><ele>860.5714285714286</ele><time>2026-04-04T10:46:57.987Z</time></trkpt><trkpt lat="42.9335166" lon="11.8643163"><ele>860.0</ele><time>2026-04-04T10:47:00.084Z</time></trkpt><trkpt lat="42.933404" lon="11.8643527"><ele>856.0</ele><time>2026-04-04T10:47:01.998Z</time></trkpt><trkpt lat="42.9333079" lon="11.8642846"><ele>852.0</ele><time>2026-04-04T10:47:03.993Z</time></trkpt><trkpt lat="42.9332444" lon="11.8641596"><ele>848.0</ele><time>2026-04-04T10:47:05.998Z</time></trkpt><trkpt lat="42.9331824" lon="11.8640444"><ele>844.0</ele><time>2026-04-04T10:47:08.015Z</time></trkpt><trkpt lat="42.9331268" lon="11.8639309"><ele>840.0</ele><time>2026-04-04T10:47:10.02Z</time></trkpt><trkpt lat="42.9330724" lon="11.8638438"><ele>840.0</ele><time>2026-04-04T10:47:12.038Z</time></trkpt><trkpt lat="42.9330046" lon="11.8639052"><ele>840.0</ele><time>2026-04-04T10:47:16.015Z</time></trkpt><trkpt lat="42.9330098" lon="11.8640204"><ele>840.0</ele><time>2026-04-04T10:47:18.999Z</time></trkpt><trkpt lat="42.9330198" lon="11.8641474"><ele>840.0</ele><time>2026-04-04T10:47:22.008Z</time></trkpt><trkpt lat="42.9330126" lon="11.8642544"><ele>840.0</ele><time>2026-04-04T10:47:23.998Z</time></trkpt><trkpt lat="42.933" lon="11.8643744"><ele>840.0</ele><time>2026-04-04T10:47:25.994Z</time></trkpt><trkpt lat="42.9329958" lon="11.8644832"><ele>840.0</ele><time>2026-04-04T10:47:28.008Z</time></trkpt><trkpt lat="42.9329979" lon="11.86459"><ele>840.0</ele><time>2026-04-04T10:47:30.012Z</time></trkpt><trkpt lat="42.9329959" lon="11.8646895"><ele>840.0</ele><time>2026-04-04T10:47:31.997Z</time></trkpt><trkpt lat="42.9329795" lon="11.8647879"><ele>840.0</ele><time>2026-04-04T10:47:33.995Z</time></trkpt><trkpt lat="42.9329732" lon="11.8648851"><ele>840.0</ele><time>2026-04-04T10:47:36.002Z</time></trkpt><trkpt lat="42.932957" lon="11.8649784"><ele>840.0</ele><time>2026-04-04T10:47:38.001Z</time></trkpt><trkpt lat="42.9329104" lon="11.8650802"><ele>841.0</ele><time>2026-04-04T10:47:41.039Z</time></trkpt><trkpt lat="42.9328544" lon="11.8651522"><ele>842.0</ele><time>2026-04-04T10:47:45.023Z</time></trkpt><trkpt lat="42.932775" lon="11.8652006"><ele>843.0</ele><time>2026-04-04T10:47:48.002Z</time></trkpt><trkpt lat="42.9326839" lon="11.8652324"><ele>844.0</ele><time>2026-04-04T10:47:50.992Z</time></trkpt><trkpt lat="42.9326217" lon="11.8652613"><ele>845.0</ele><time>2026-04-04T10:47:53.003Z</time></trkpt><trkpt lat="42.9325485" lon="11.865305"><ele>846.0</ele><time>2026-04-04T10:47:54.996Z</time></trkpt><trkpt lat="42.9324814" lon="11.865355"><ele>846.0</ele><time>2026-04-04T10:47:57.033Z</time></trkpt><trkpt lat="42.9324248" lon="11.8654032"><ele>846.0</ele><time>2026-04-04T10:47:59.024Z</time></trkpt><trkpt lat="42.9323688" lon="11.8654881"><ele>846.0</ele><time>2026-04-04T10:48:02.039Z</time></trkpt><trkpt lat="42.932334" lon="11.8655828"><ele>846.0</ele><time>2026-04-04T10:48:06.986Z</time></trkpt><trkpt lat="42.932261" lon="11.8656001"><ele>846.0</ele><time>2026-04-04T10:48:10.008Z</time></trkpt><trkpt lat="42.9321907" lon="11.8656214"><ele>846.0</ele><time>2026-04-04T10:48:14.004Z</time></trkpt><trkpt lat="42.9321255" lon="11.8656653"><ele>846.0</ele><time>2026-04-04T10:48:16.007Z</time></trkpt><trkpt lat="42.9320165" lon="11.8657069"><ele>846.0</ele><time>2026-04-04T10:48:18.015Z</time></trkpt><trkpt lat="42.9318932" lon="11.8657613"><ele>846.0</ele><time>2026-04-04T10:48:20.021Z</time></trkpt><trkpt lat="42.9318216" lon="11.8658023"><ele>846.0</ele><time>2026-04-04T10:48:22.041Z</time></trkpt><trkpt lat="42.9317717" lon="11.8658801"><ele>846.0</ele><time>2026-04-04T10:48:23.997Z</time></trkpt><trkpt lat="42.9317116" lon="11.8659485"><ele>846.0</ele><time>2026-04-04T10:48:27.013Z</time></trkpt><trkpt lat="42.9316316" lon="11.866025"><ele>844.1666666666666</ele><time>2026-04-04T10:48:30.042Z</time></trkpt><trkpt lat="42.9315498" lon="11.8660737"><ele>842.3333333333333</ele><time>2026-04-04T10:48:32.015Z</time></trkpt><trkpt lat="42.9314849" lon="11.8661491"><ele>840.5</ele><time>2026-04-04T10:48:34.002Z</time></trkpt><trkpt lat="42.931457" lon="11.8662844"><ele>838.6666666666666</ele><time>2026-04-04T10:48:36.038Z</time></trkpt><trkpt lat="42.9314074" lon="11.8663539"><ele>836.8333333333333</ele><time>2026-04-04T10:48:37.012Z</time></trkpt><trkpt lat="42.9313672" lon="11.8664355"><ele>835.0</ele><time>2026-04-04T10:48:38.019Z</time></trkpt><trkpt lat="42.9312641" lon="11.8665332"><ele>834.9999999999999</ele><time>2026-04-04T10:48:40.028Z</time></trkpt><trkpt lat="42.931183" lon="11.8665515"><ele>835.0</ele><time>2026-04-04T10:48:41.022Z</time></trkpt><trkpt lat="42.9311216" lon="11.8665719"><ele>835.0</ele><time>2026-04-04T10:48:42.02Z</time></trkpt><trkpt lat="42.9310413" lon="11.866584"><ele>835.0</ele><time>2026-04-04T10:48:43.034Z</time></trkpt><trkpt lat="42.9309329" lon="11.866578"><ele>834.9999999999999</ele><time>2026-04-04T10:48:44.007Z</time></trkpt><trkpt lat="42.930854" lon="11.8665545"><ele>835.0</ele><time>2026-04-04T10:48:46.015Z</time></trkpt><trkpt lat="42.9308035" lon="11.8664942"><ele>833.3333333333333</ele><time>2026-04-04T10:48:49.035Z</time></trkpt><trkpt lat="42.930733" lon="11.8664577"><ele>831.6666666666666</ele><time>2026-04-04T10:48:51.037Z</time></trkpt><trkpt lat="42.9306452" lon="11.8664295"><ele>830.0</ele><time>2026-04-04T10:48:53.002Z</time></trkpt><trkpt lat="42.9305813" lon="11.8664008"><ele>828.3333333333333</ele><time>2026-04-04T10:48:54.026Z</time></trkpt><trkpt lat="42.9304891" lon="11.8663755"><ele>826.6666666666666</ele><time>2026-04-04T10:48:56.024Z</time></trkpt><trkpt lat="42.9304191" lon="11.8663564"><ele>825.0</ele><time>2026-04-04T10:48:57.018Z</time></trkpt><trkpt lat="42.9303499" lon="11.8663292"><ele>825.0</ele><time>2026-04-04T10:48:58.022Z</time></trkpt><trkpt lat="42.9302657" lon="11.8662965"><ele>825.0</ele><time>2026-04-04T10:48:59.038Z</time></trkpt><trkpt lat="42.9301629" lon="11.866269"><ele>825.0</ele><time>2026-04-04T10:49:00.029Z</time></trkpt><trkpt lat="42.9300641" lon="11.8662313"><ele>825.0</ele><time>2026-04-04T10:49:01.024Z</time></trkpt><trkpt lat="42.929977" lon="11.8661929"><ele>825.0</ele><time>2026-04-04T10:49:02.025Z</time></trkpt><trkpt lat="42.9298929" lon="11.866155"><ele>825.2</ele><time>2026-04-04T10:49:03.026Z</time></trkpt><trkpt lat="42.9298054" lon="11.8661433"><ele>825.4</ele><time>2026-04-04T10:49:04.027Z</time></trkpt><trkpt lat="42.9297294" lon="11.8661411"><ele>825.5999999999999</ele><time>2026-04-04T10:49:05.011Z</time></trkpt><trkpt lat="42.9296608" lon="11.8661326"><ele>825.8</ele><time>2026-04-04T10:49:06.019Z</time></trkpt><trkpt lat="42.9295313" lon="11.8661424"><ele>826.0</ele><time>2026-04-04T10:49:08.007Z</time></trkpt><trkpt lat="42.9294175" lon="11.8661552"><ele>825.9999999999999</ele><time>2026-04-04T10:49:10.009Z</time></trkpt><trkpt lat="42.9293132" lon="11.8661107"><ele>826.0</ele><time>2026-04-04T10:49:12.009Z</time></trkpt><trkpt lat="42.9292232" lon="11.8660992"><ele>826.0</ele><time>2026-04-04T10:49:14.031Z</time></trkpt><trkpt lat="42.9291399" lon="11.8660721"><ele>826.0</ele><time>2026-04-04T10:49:16.025Z</time></trkpt><trkpt lat="42.9290663" lon="11.8660793"><ele>825.9999999999999</ele><time>2026-04-04T10:49:18.04Z</time></trkpt><trkpt lat="42.9289968" lon="11.8660471"><ele>826.0</ele><time>2026-04-04T10:49:21.006Z</time></trkpt><trkpt lat="42.9289236" lon="11.8660175"><ele>825.1428571428571</ele><time>2026-04-04T10:49:24.012Z</time></trkpt><trkpt lat="42.9288445" lon="11.8659848"><ele>824.2857142857142</ele><time>2026-04-04T10:49:27.017Z</time></trkpt><trkpt lat="42.9287958" lon="11.8659284"><ele>823.4285714285714</ele><time>2026-04-04T10:49:30.015Z</time></trkpt><trkpt lat="42.9287369" lon="11.8658945"><ele>822.5714285714286</ele><time>2026-04-04T10:49:33.003Z</time></trkpt><trkpt lat="42.9286688" lon="11.8658676"><ele>821.7142857142857</ele><time>2026-04-04T10:49:36.986Z</time></trkpt><trkpt lat="42.9285906" lon="11.8658497"><ele>820.8571428571429</ele><time>2026-04-04T10:49:40.026Z</time></trkpt><trkpt lat="42.9285117" lon="11.8658432"><ele>820.0</ele><time>2026-04-04T10:49:43.013Z</time></trkpt><trkpt lat="42.9284499" lon="11.8658732"><ele>821.6666666666666</ele><time>2026-04-04T10:49:45.005Z</time></trkpt><trkpt lat="42.9283722" lon="11.8659115"><ele>823.3333333333333</ele><time>2026-04-04T10:49:47.009Z</time></trkpt><trkpt lat="42.9282872" lon="11.8659548"><ele>825.0</ele><time>2026-04-04T10:49:49.016Z</time></trkpt><trkpt lat="42.9282054" lon="11.8659726"><ele>826.6666666666667</ele><time>2026-04-04T10:49:51.013Z</time></trkpt><trkpt lat="42.9281235" lon="11.8659696"><ele>828.3333333333334</ele><time>2026-04-04T10:49:53.03Z</time></trkpt><trkpt lat="42.9280419" lon="11.8659586"><ele>830.0</ele><time>2026-04-04T10:49:55.026Z</time></trkpt><trkpt lat="42.9279441" lon="11.8659753"><ele>831.3333333333334</ele><time>2026-04-04T10:49:57.001Z</time></trkpt><trkpt lat="42.9278629" lon="11.8660036"><ele>832.6666666666667</ele><time>2026-04-04T10:49:59.025Z</time></trkpt><trkpt lat="42.9278129" lon="11.8660567"><ele>834.0</ele><time>2026-04-04T10:50:00.008Z</time></trkpt><trkpt lat="42.9277503" lon="11.8661056"><ele>835.3333333333333</ele><time>2026-04-04T10:50:01.029Z</time></trkpt><trkpt lat="42.9276867" lon="11.8661771"><ele>836.6666666666666</ele><time>2026-04-04T10:50:02.023Z</time></trkpt><trkpt lat="42.9275769" lon="11.8662573"><ele>838.0</ele><time>2026-04-04T10:50:04.002Z</time></trkpt><trkpt lat="42.9275072" lon="11.8662847"><ele>837.9999999999999</ele><time>2026-04-04T10:50:05.01Z</time></trkpt><trkpt lat="42.9274335" lon="11.8663004"><ele>838.0</ele><time>2026-04-04T10:50:06.015Z</time></trkpt><trkpt lat="42.9273561" lon="11.8663239"><ele>838.0</ele><time>2026-04-04T10:50:07.007Z</time></trkpt><trkpt lat="42.927287" lon="11.8663337"><ele>838.0</ele><time>2026-04-04T10:50:08.003Z</time></trkpt><trkpt lat="42.9272265" lon="11.86636"><ele>837.9999999999999</ele><time>2026-04-04T10:50:09.009Z</time></trkpt><trkpt lat="42.9271074" lon="11.866369"><ele>838.0</ele><time>2026-04-04T10:50:10.996Z</time></trkpt><trkpt lat="42.9269917" lon="11.8663777"><ele>837.9999999999999</ele><time>2026-04-04T10:50:13.029Z</time></trkpt><trkpt lat="42.9268932" lon="11.8664063"><ele>838.0</ele><time>2026-04-04T10:50:15.051Z</time></trkpt><trkpt lat="42.9268345" lon="11.8664647"><ele>838.0</ele><time>2026-04-04T10:50:17.052Z</time></trkpt><trkpt lat="42.9267805" lon="11.8665127"><ele>838.0</ele><time>2026-04-04T10:50:19.032Z</time></trkpt><trkpt lat="42.9267274" lon="11.8665675"><ele>837.9999999999999</ele><time>2026-04-04T10:50:20.998Z</time></trkpt><trkpt lat="42.9266666" lon="11.8666026"><ele>838.0</ele><time>2026-04-04T10:50:23.024Z</time></trkpt><trkpt lat="42.9266158" lon="11.8666895"><ele>839.8</ele><time>2026-04-04T10:50:26.015Z</time></trkpt><trkpt lat="42.9265467" lon="11.8667765"><ele>841.5999999999999</ele><time>2026-04-04T10:50:29.031Z</time></trkpt><trkpt lat="42.9264476" lon="11.8668285"><ele>843.4000000000001</ele><time>2026-04-04T10:50:31.049Z</time></trkpt><trkpt lat="42.9263393" lon="11.8668773"><ele>845.2</ele><time>2026-04-04T10:50:33.021Z</time></trkpt><trkpt lat="42.9262711" lon="11.866919"><ele>847.0</ele><time>2026-04-04T10:50:34.021Z</time></trkpt><trkpt lat="42.9262087" lon="11.866938"><ele>847.0</ele><time>2026-04-04T10:50:35.028Z</time></trkpt><trkpt lat="42.9260976" lon="11.8669526"><ele>847.0</ele><time>2026-04-04T10:50:37.032Z</time></trkpt><trkpt lat="42.9259791" lon="11.8669541"><ele>847.0</ele><time>2026-04-04T10:50:39.036Z</time></trkpt><trkpt lat="42.9259143" lon="11.8669493"><ele>847.0</ele><time>2026-04-04T10:50:40.044Z</time></trkpt><trkpt lat="42.9258482" lon="11.8669469"><ele>847.0</ele><time>2026-04-04T10:50:41.037Z</time></trkpt><trkpt lat="42.9257195" lon="11.8669681"><ele>845.5714285714286</ele><time>2026-04-04T10:50:43.038Z</time></trkpt><trkpt lat="42.9256432" lon="11.866992"><ele>844.1428571428571</ele><time>2026-04-04T10:50:44.014Z</time></trkpt><trkpt lat="42.9255698" lon="11.8670008"><ele>842.7142857142858</ele><time>2026-04-04T10:50:45.029Z</time></trkpt><trkpt lat="42.9254952" lon="11.8670105"><ele>841.2857142857142</ele><time>2026-04-04T10:50:46.033Z</time></trkpt><trkpt lat="42.9254224" lon="11.8670256"><ele>839.8571428571429</ele><time>2026-04-04T10:50:47.016Z</time></trkpt><trkpt lat="42.9253495" lon="11.8670481"><ele>838.4285714285714</ele><time>2026-04-04T10:50:48.032Z</time></trkpt><trkpt lat="42.9252807" lon="11.8670683"><ele>837.0</ele><time>2026-04-04T10:50:49.038Z</time></trkpt><trkpt lat="42.9252249" lon="11.8671333"><ele>837.0</ele><time>2026-04-04T10:50:50.041Z</time></trkpt><trkpt lat="42.9251391" lon="11.8672342"><ele>837.0</ele><time>2026-04-04T10:50:52.018Z</time></trkpt><trkpt lat="42.9251163" lon="11.8673532"><ele>837.0</ele><time>2026-04-04T10:50:54.031Z</time></trkpt><trkpt lat="42.9250632" lon="11.8674228"><ele>837.0</ele><time>2026-04-04T10:50:57.037Z</time></trkpt><trkpt lat="42.925011" lon="11.8674817"><ele>837.0</ele><time>2026-04-04T10:51:00.028Z</time></trkpt><trkpt lat="42.9249564" lon="11.8675521"><ele>837.0</ele><time>2026-04-04T10:51:04.007Z</time></trkpt><trkpt lat="42.9249331" lon="11.867639"><ele>837.5714285714286</ele><time>2026-04-04T10:51:07.002Z</time></trkpt><trkpt lat="42.9248841" lon="11.8677102"><ele>838.1428571428571</ele><time>2026-04-04T10:51:10.006Z</time></trkpt><trkpt lat="42.9248425" lon="11.867795"><ele>838.7142857142858</ele><time>2026-04-04T10:51:14.015Z</time></trkpt><trkpt lat="42.9248167" lon="11.8678931"><ele>839.2857142857142</ele><time>2026-04-04T10:51:18.028Z</time></trkpt><trkpt lat="42.9247888" lon="11.8679811"><ele>839.8571428571428</ele><time>2026-04-04T10:51:22.021Z</time></trkpt><trkpt lat="42.9247569" lon="11.8680622"><ele>840.4285714285714</ele><time>2026-04-04T10:51:26.009Z</time></trkpt><trkpt lat="42.9247011" lon="11.8681322"><ele>841.0</ele><time>2026-04-04T10:51:29.002Z</time></trkpt><trkpt lat="42.9246446" lon="11.8682137"><ele>841.0</ele><time>2026-04-04T10:51:33.016Z</time></trkpt><trkpt lat="42.9245981" lon="11.8682906"><ele>841.0</ele><time>2026-04-04T10:51:37.011Z</time></trkpt><trkpt lat="42.9245461" lon="11.8683532"><ele>841.0</ele><time>2026-04-04T10:51:41.003Z</time></trkpt><trkpt lat="42.9245147" lon="11.868431"><ele>841.0</ele><time>2026-04-04T10:51:45.01Z</time></trkpt><trkpt lat="42.9245109" lon="11.8685259"><ele>841.0</ele><time>2026-04-04T10:51:49.021Z</time></trkpt><trkpt lat="42.924513" lon="11.8686206"><ele>841.0</ele><time>2026-04-04T10:51:53.011Z</time></trkpt><trkpt lat="42.924492" lon="11.868723"><ele>841.0</ele><time>2026-04-04T10:51:57.008Z</time></trkpt><trkpt lat="42.9244607" lon="11.8688209"><ele>843.1428571428572</ele><time>2026-04-04T10:52:01.015Z</time></trkpt><trkpt lat="42.9244393" lon="11.8689285"><ele>845.2857142857142</ele><time>2026-04-04T10:52:04.011Z</time></trkpt><trkpt lat="42.9243946" lon="11.8690159"><ele>847.4285714285714</ele><time>2026-04-04T10:52:06.014Z</time></trkpt><trkpt lat="42.9243405" lon="11.8690683"><ele>849.5714285714287</ele><time>2026-04-04T10:52:08.997Z</time></trkpt><trkpt lat="42.9243046" lon="11.8691747"><ele>851.7142857142858</ele><time>2026-04-04T10:52:13.993Z</time></trkpt><trkpt lat="42.924255" lon="11.8692279"><ele>853.8571428571429</ele><time>2026-04-04T10:52:18.02Z</time></trkpt><trkpt lat="42.9242054" lon="11.8692882"><ele>856.0</ele><time>2026-04-04T10:52:21.028Z</time></trkpt><trkpt lat="42.9241688" lon="11.8693628"><ele>856.0000000000001</ele><time>2026-04-04T10:52:23.998Z</time></trkpt><trkpt lat="42.9241031" lon="11.869414"><ele>856.0</ele><time>2026-04-04T10:52:27.999Z</time></trkpt><trkpt lat="42.9240357" lon="11.8694773"><ele>856.0</ele><time>2026-04-04T10:52:32.013Z</time></trkpt><trkpt lat="42.9239904" lon="11.8695508"><ele>856.0</ele><time>2026-04-04T10:52:35.009Z</time></trkpt><trkpt lat="42.9239438" lon="11.8696105"><ele>856.0</ele><time>2026-04-04T10:52:37.996Z</time></trkpt><trkpt lat="42.9238823" lon="11.8696709"><ele>856.0000000000001</ele><time>2026-04-04T10:52:41.999Z</time></trkpt><trkpt lat="42.9238088" lon="11.8696789"><ele>856.0</ele><time>2026-04-04T10:52:44.011Z</time></trkpt><trkpt lat="42.9237618" lon="11.8697498"><ele>855.9999999999999</ele><time>2026-04-04T10:52:46.039Z</time></trkpt><trkpt lat="42.9236816" lon="11.8698181"><ele>856.0</ele><time>2026-04-04T10:52:48.996Z</time></trkpt><trkpt lat="42.9236065" lon="11.8698612"><ele>856.0</ele><time>2026-04-04T10:52:51.999Z</time></trkpt><trkpt lat="42.9235577" lon="11.8699433"><ele>856.0</ele><time>2026-04-04T10:52:55.021Z</time></trkpt><trkpt lat="42.9235027" lon="11.8700141"><ele>855.9999999999999</ele><time>2026-04-04T10:52:58.032Z</time></trkpt><trkpt lat="42.9234439" lon="11.8700549"><ele>856.0</ele><time>2026-04-04T10:53:01.038Z</time></trkpt><trkpt lat="42.9233782" lon="11.8701151"><ele>854.7142857142858</ele><time>2026-04-04T10:53:04.006Z</time></trkpt><trkpt lat="42.9233223" lon="11.8701722"><ele>853.4285714285714</ele><time>2026-04-04T10:53:07.006Z</time></trkpt><trkpt lat="42.9232758" lon="11.8702617"><ele>852.1428571428571</ele><time>2026-04-04T10:53:11.005Z</time></trkpt><trkpt lat="42.923253" lon="11.8703553"><ele>850.8571428571429</ele><time>2026-04-04T10:53:13.992Z</time></trkpt><trkpt lat="42.9232565" lon="11.8704644"><ele>849.5714285714286</ele><time>2026-04-04T10:53:18.012Z</time></trkpt><trkpt lat="42.9232831" lon="11.8705612"><ele>848.2857142857143</ele><time>2026-04-04T10:53:21.051Z</time></trkpt><trkpt lat="42.9233" lon="11.8706501"><ele>847.0</ele><time>2026-04-04T10:53:24.012Z</time></trkpt><trkpt lat="42.9233363" lon="11.8707225"><ele>850.3333333333333</ele><time>2026-04-04T10:53:27.015Z</time></trkpt><trkpt lat="42.9234136" lon="11.8707736"><ele>853.6666666666666</ele><time>2026-04-04T10:53:30.027Z</time></trkpt><trkpt lat="42.9234531" lon="11.8708548"><ele>857.0</ele><time>2026-04-04T10:53:32.998Z</time></trkpt><trkpt lat="42.923446" lon="11.8709897"><ele>860.3333333333333</ele><time>2026-04-04T10:53:37.035Z</time></trkpt><trkpt lat="42.9234536" lon="11.8710852"><ele>863.6666666666666</ele><time>2026-04-04T10:53:40.005Z</time></trkpt><trkpt lat="42.9234499" lon="11.871182"><ele>867.0</ele><time>2026-04-04T10:53:43.001Z</time></trkpt><trkpt lat="42.9234475" lon="11.8712727"><ele>867.6</ele><time>2026-04-04T10:53:46.02Z</time></trkpt><trkpt lat="42.9234611" lon="11.8713633"><ele>868.2</ele><time>2026-04-04T10:56:09.996Z</time></trkpt><trkpt lat="42.9235035" lon="11.871463"><ele>868.8</ele><time>2026-04-04T10:56:13.02Z</time></trkpt><trkpt lat="42.9235451" lon="11.8715814"><ele>869.4</ele><time>2026-04-04T10:56:15.015Z</time></trkpt><trkpt lat="42.9235794" lon="11.8717358"><ele>870.0</ele><time>2026-04-04T10:56:17.037Z</time></trkpt><trkpt lat="42.9235312" lon="11.871881"><ele>870.3333333333334</ele><time>2026-04-04T10:56:19.028Z</time></trkpt><trkpt lat="42.9234529" lon="11.8719719"><ele>870.6666666666667</ele><time>2026-04-04T10:56:21.015Z</time></trkpt><trkpt lat="42.9233689" lon="11.87202"><ele>871.0</ele><time>2026-04-04T10:56:23.003Z</time></trkpt><trkpt lat="42.9232984" lon="11.872042"><ele>871.3333333333334</ele><time>2026-04-04T10:56:26.013Z</time></trkpt><trkpt lat="42.9232305" lon="11.8720707"><ele>871.6666666666667</ele><time>2026-04-04T10:56:29.006Z</time></trkpt><trkpt lat="42.9231754" lon="11.8721203"><ele>872.0</ele><time>2026-04-04T10:56:31.999Z</time></trkpt><trkpt lat="42.9231208" lon="11.8721699"><ele>870.4285714285714</ele><time>2026-04-04T10:56:35.024Z</time></trkpt><trkpt lat="42.9230563" lon="11.8721956"><ele>868.8571428571429</ele><time>2026-04-04T10:56:38.019Z</time></trkpt><trkpt lat="42.9229825" lon="11.8722253"><ele>867.2857142857142</ele><time>2026-04-04T10:56:42.009Z</time></trkpt><trkpt lat="42.9229084" lon="11.872269"><ele>865.7142857142858</ele><time>2026-04-04T10:56:45.999Z</time></trkpt><trkpt lat="42.9228472" lon="11.8722941"><ele>864.1428571428571</ele><time>2026-04-04T10:56:49.01Z</time></trkpt><trkpt lat="42.9227656" lon="11.872332"><ele>862.5714285714286</ele><time>2026-04-04T10:56:52.023Z</time></trkpt><trkpt lat="42.9226974" lon="11.8723627"><ele>861.0</ele><time>2026-04-04T10:56:54.011Z</time></trkpt><trkpt lat="42.9226206" lon="11.8724054"><ele>861.8333333333334</ele><time>2026-04-04T10:56:56.009Z</time></trkpt><trkpt lat="42.9225471" lon="11.8724578"><ele>862.6666666666667</ele><time>2026-04-04T10:56:58.011Z</time></trkpt><trkpt lat="42.9224808" lon="11.8725207"><ele>863.5</ele><time>2026-04-04T10:57:00.048Z</time></trkpt><trkpt lat="42.9224202" lon="11.8725966"><ele>864.3333333333334</ele><time>2026-04-04T10:57:02.01Z</time></trkpt><trkpt lat="42.9223512" lon="11.8726737"><ele>865.1666666666667</ele><time>2026-04-04T10:57:04.036Z</time></trkpt><trkpt lat="42.9222789" lon="11.8727296"><ele>866.0</ele><time>2026-04-04T10:57:06.013Z</time></trkpt><trkpt lat="42.9221902" lon="11.872758"><ele>866.0</ele><time>2026-04-04T10:57:08.021Z</time></trkpt><trkpt lat="42.9220931" lon="11.8727795"><ele>865.9999999999999</ele><time>2026-04-04T10:57:10.021Z</time></trkpt><trkpt lat="42.9219913" lon="11.8728102"><ele>865.9999999999999</ele><time>2026-04-04T10:57:12.033Z</time></trkpt><trkpt lat="42.9218919" lon="11.8728804"><ele>866.0</ele><time>2026-04-04T10:57:14.015Z</time></trkpt><trkpt lat="42.9217905" lon="11.8729959"><ele>866.0</ele><time>2026-04-04T10:57:16.039Z</time></trkpt><trkpt lat="42.9217531" lon="11.8730829"><ele>863.5000000000001</ele><time>2026-04-04T10:57:17.041Z</time></trkpt><trkpt lat="42.9216879" lon="11.8731491"><ele>861.0</ele><time>2026-04-04T10:57:18.041Z</time></trkpt><trkpt lat="42.921619" lon="11.8731975"><ele>858.5</ele><time>2026-04-04T10:57:19.028Z</time></trkpt><trkpt lat="42.9215286" lon="11.8732079"><ele>856.0</ele><time>2026-04-04T10:57:21.018Z</time></trkpt><trkpt lat="42.9214631" lon="11.8732325"><ele>853.5000000000001</ele><time>2026-04-04T10:57:22.998Z</time></trkpt><trkpt lat="42.9214109" lon="11.8732821"><ele>851.0</ele><time>2026-04-04T10:57:25.025Z</time></trkpt><trkpt lat="42.921353" lon="11.8733485"><ele>852.5000000000001</ele><time>2026-04-04T10:57:28.007Z</time></trkpt><trkpt lat="42.9212839" lon="11.8734417"><ele>854.0</ele><time>2026-04-04T10:57:31.059Z</time></trkpt><trkpt lat="42.9212386" lon="11.873502"><ele>855.5</ele><time>2026-04-04T10:57:33.008Z</time></trkpt><trkpt lat="42.921181" lon="11.873553"><ele>857.0</ele><time>2026-04-04T10:57:35.033Z</time></trkpt><trkpt lat="42.9211035" lon="11.8735663"><ele>858.5000000000001</ele><time>2026-04-04T10:57:37.002Z</time></trkpt><trkpt lat="42.920995" lon="11.8736044"><ele>860.0</ele><time>2026-04-04T10:57:39.004Z</time></trkpt><trkpt lat="42.9208882" lon="11.8736232"><ele>860.0000000000001</ele><time>2026-04-04T10:57:41.005Z</time></trkpt><trkpt lat="42.9207902" lon="11.873617"><ele>860.0</ele><time>2026-04-04T10:57:43.044Z</time></trkpt><trkpt lat="42.9207108" lon="11.8735959"><ele>860.0</ele><time>2026-04-04T10:57:45.031Z</time></trkpt><trkpt lat="42.9206321" lon="11.873625"><ele>860.0</ele><time>2026-04-04T10:57:48.024Z</time></trkpt><trkpt lat="42.9205412" lon="11.8736002"><ele>860.0000000000001</ele><time>2026-04-04T10:57:51.005Z</time></trkpt><trkpt lat="42.9204558" lon="11.8735636"><ele>860.0</ele><time>2026-04-04T10:57:53.032Z</time></trkpt><trkpt lat="42.9203682" lon="11.8735563"><ele>860.0</ele><time>2026-04-04T10:57:55.042Z</time></trkpt><trkpt lat="42.9202674" lon="11.8735391"><ele>860.0</ele><time>2026-04-04T10:57:57.043Z</time></trkpt><trkpt lat="42.9201382" lon="11.8735248"><ele>860.0</ele><time>2026-04-04T10:57:59.024Z</time></trkpt><trkpt lat="42.9200567" lon="11.8735168"><ele>860.0</ele><time>2026-04-04T10:58:00.017Z</time></trkpt><trkpt lat="42.9199763" lon="11.8734909"><ele>860.0</ele><time>2026-04-04T10:58:01.013Z</time></trkpt><trkpt lat="42.9199024" lon="11.8734959"><ele>859.8333333333334</ele><time>2026-04-04T10:58:02.027Z</time></trkpt><trkpt lat="42.9197873" lon="11.8734931"><ele>859.6666666666667</ele><time>2026-04-04T10:58:04.032Z</time></trkpt><trkpt lat="42.9197275" lon="11.8734579"><ele>859.5</ele><time>2026-04-04T10:58:05.026Z</time></trkpt><trkpt lat="42.919655" lon="11.8734317"><ele>859.3333333333333</ele><time>2026-04-04T10:58:06.019Z</time></trkpt><trkpt lat="42.9195778" lon="11.8734024"><ele>859.1666666666666</ele><time>2026-04-04T10:58:07.016Z</time></trkpt><trkpt lat="42.9194959" lon="11.8733662"><ele>859.0</ele><time>2026-04-04T10:58:08.027Z</time></trkpt><trkpt lat="42.919417" lon="11.8733196"><ele>856.4999999999999</ele><time>2026-04-04T10:58:09.022Z</time></trkpt><trkpt lat="42.9193343" lon="11.8732706"><ele>854.0</ele><time>2026-04-04T10:58:10.027Z</time></trkpt><trkpt lat="42.9192606" lon="11.8732079"><ele>851.5</ele><time>2026-04-04T10:58:11.027Z</time></trkpt><trkpt lat="42.9191795" lon="11.8731387"><ele>849.0</ele><time>2026-04-04T10:58:12.026Z</time></trkpt><trkpt lat="42.9190924" lon="11.873104"><ele>846.4999999999999</ele><time>2026-04-04T10:58:13.033Z</time></trkpt><trkpt lat="42.9190257" lon="11.8730399"><ele>844.0</ele><time>2026-04-04T10:58:14.036Z</time></trkpt><trkpt lat="42.9189563" lon="11.8729955"><ele>843.4000000000001</ele><time>2026-04-04T10:58:15.014Z</time></trkpt><trkpt lat="42.9188716" lon="11.8729831"><ele>842.8</ele><time>2026-04-04T10:58:16.039Z</time></trkpt><trkpt lat="42.9187857" lon="11.8729897"><ele>842.2</ele><time>2026-04-04T10:58:17.02Z</time></trkpt><trkpt lat="42.9186961" lon="11.8729969"><ele>841.5999999999999</ele><time>2026-04-04T10:58:18.019Z</time></trkpt><trkpt lat="42.9186001" lon="11.8730025"><ele>841.0</ele><time>2026-04-04T10:58:19.023Z</time></trkpt><trkpt lat="42.9185037" lon="11.8730083"><ele>841.0</ele><time>2026-04-04T10:58:20.032Z</time></trkpt><trkpt lat="42.918409" lon="11.8729912"><ele>841.0</ele><time>2026-04-04T10:58:21.041Z</time></trkpt><trkpt lat="42.9183122" lon="11.8729922"><ele>841.0</ele><time>2026-04-04T10:58:22.039Z</time></trkpt><trkpt lat="42.9182181" lon="11.8730113"><ele>841.0</ele><time>2026-04-04T10:58:23.012Z</time></trkpt><trkpt lat="42.918118" lon="11.8730242"><ele>841.0</ele><time>2026-04-04T10:58:24.03Z</time></trkpt><trkpt lat="42.9180211" lon="11.8730106"><ele>840.1999999999999</ele><time>2026-04-04T10:58:25.033Z</time></trkpt><trkpt lat="42.9179317" lon="11.8729776"><ele>839.4</ele><time>2026-04-04T10:58:26.008Z</time></trkpt><trkpt lat="42.9178433" lon="11.8729403"><ele>838.6</ele><time>2026-04-04T10:58:27.027Z</time></trkpt><trkpt lat="42.9177727" lon="11.872933"><ele>837.8</ele><time>2026-04-04T10:58:28.013Z</time></trkpt><trkpt lat="42.9176604" lon="11.8728861"><ele>837.0</ele><time>2026-04-04T10:58:30.025Z</time></trkpt><trkpt lat="42.9175235" lon="11.8728514"><ele>836.8333333333334</ele><time>2026-04-04T10:58:32.029Z</time></trkpt><trkpt lat="42.917444" lon="11.8728285"><ele>836.6666666666667</ele><time>2026-04-04T10:58:33.029Z</time></trkpt><trkpt lat="42.9173682" lon="11.8727964"><ele>836.5</ele><time>2026-04-04T10:58:34.025Z</time></trkpt><trkpt lat="42.9173062" lon="11.8727486"><ele>836.3333333333334</ele><time>2026-04-04T10:58:35.032Z</time></trkpt><trkpt lat="42.917253" lon="11.8726994"><ele>836.1666666666667</ele><time>2026-04-04T10:58:36.045Z</time></trkpt><trkpt lat="42.9171613" lon="11.8726571"><ele>836.0</ele><time>2026-04-04T10:58:38.041Z</time></trkpt><trkpt lat="42.9170624" lon="11.8726024"><ele>833.1666666666667</ele><time>2026-04-04T10:58:40.045Z</time></trkpt><trkpt lat="42.9169872" lon="11.8725563"><ele>830.3333333333334</ele><time>2026-04-04T10:58:42.02Z</time></trkpt><trkpt lat="42.9169233" lon="11.8725176"><ele>827.5</ele><time>2026-04-04T10:58:44.023Z</time></trkpt><trkpt lat="42.9168571" lon="11.87247"><ele>824.6666666666667</ele><time>2026-04-04T10:58:46.044Z</time></trkpt><trkpt lat="42.9167833" lon="11.8724371"><ele>821.8333333333334</ele><time>2026-04-04T10:58:48.016Z</time></trkpt><trkpt lat="42.9166887" lon="11.872396"><ele>819.0</ele><time>2026-04-04T10:58:50.053Z</time></trkpt><trkpt lat="42.9166068" lon="11.8723773"><ele>818.5</ele><time>2026-04-04T10:58:52.019Z</time></trkpt><trkpt lat="42.9165241" lon="11.8723714"><ele>818.0</ele><time>2026-04-04T10:58:55.018Z</time></trkpt><trkpt lat="42.9164502" lon="11.8723963"><ele>817.5</ele><time>2026-04-04T10:58:58.003Z</time></trkpt><trkpt lat="42.9163987" lon="11.8724869"><ele>817.0</ele><time>2026-04-04T10:59:01.007Z</time></trkpt><trkpt lat="42.9163419" lon="11.8725843"><ele>816.5</ele><time>2026-04-04T10:59:04.007Z</time></trkpt><trkpt lat="42.9163148" lon="11.872668"><ele>816.0</ele><time>2026-04-04T10:59:06.018Z</time></trkpt><trkpt lat="42.9162511" lon="11.8727634"><ele>817.0</ele><time>2026-04-04T10:59:09.026Z</time></trkpt><trkpt lat="42.9162011" lon="11.8728287"><ele>818.0</ele><time>2026-04-04T10:59:11.012Z</time></trkpt><trkpt lat="42.9161498" lon="11.8728915"><ele>819.0</ele><time>2026-04-04T10:59:13.029Z</time></trkpt><trkpt lat="42.9160905" lon="11.8729423"><ele>820.0</ele><time>2026-04-04T10:59:15.005Z</time></trkpt><trkpt lat="42.9160412" lon="11.8729967"><ele>821.0</ele><time>2026-04-04T10:59:17.003Z</time></trkpt><trkpt lat="42.9159565" lon="11.8730463"><ele>822.0</ele><time>2026-04-04T10:59:20.007Z</time></trkpt><trkpt lat="42.9158844" lon="11.8730871"><ele>823.0</ele><time>2026-04-04T10:59:21.997Z</time></trkpt><trkpt lat="42.9158152" lon="11.8731397"><ele>823.0</ele><time>2026-04-04T10:59:24.007Z</time></trkpt><trkpt lat="42.9157397" lon="11.8731899"><ele>823.0</ele><time>2026-04-04T10:59:26.034Z</time></trkpt><trkpt lat="42.9156591" lon="11.8732693"><ele>823.0</ele><time>2026-04-04T10:59:27.999Z</time></trkpt><trkpt lat="42.9155405" lon="11.8733572"><ele>823.0</ele><time>2026-04-04T10:59:30.005Z</time></trkpt><trkpt lat="42.9154739" lon="11.8733872"><ele>823.0</ele><time>2026-04-04T10:59:31.028Z</time></trkpt><trkpt lat="42.9153529" lon="11.8734096"><ele>823.0</ele><time>2026-04-04T10:59:33.008Z</time></trkpt><trkpt lat="42.9152764" lon="11.873416"><ele>823.0</ele><time>2026-04-04T10:59:34.014Z</time></trkpt><trkpt lat="42.915165" lon="11.8734672"><ele>823.0</ele><time>2026-04-04T10:59:36.023Z</time></trkpt><trkpt lat="42.915085" lon="11.8734856"><ele>823.0</ele><time>2026-04-04T10:59:37.029Z</time></trkpt><trkpt lat="42.9149601" lon="11.8734895"><ele>823.0</ele><time>2026-04-04T10:59:39.012Z</time></trkpt><trkpt lat="42.9148972" lon="11.8735173"><ele>821.5999999999999</ele><time>2026-04-04T10:59:40.035Z</time></trkpt><trkpt lat="42.9147831" lon="11.8735931"><ele>820.1999999999999</ele><time>2026-04-04T10:59:42.029Z</time></trkpt><trkpt lat="42.9147244" lon="11.8736799"><ele>818.8</ele><time>2026-04-04T10:59:43.01Z</time></trkpt><trkpt lat="42.9146604" lon="11.8737652"><ele>817.4</ele><time>2026-04-04T10:59:44.035Z</time></trkpt><trkpt lat="42.9146138" lon="11.8738595"><ele>816.0</ele><time>2026-04-04T10:59:45.025Z</time></trkpt><trkpt lat="42.9145471" lon="11.8739493"><ele>816.0</ele><time>2026-04-04T10:59:46.035Z</time></trkpt><trkpt lat="42.9144748" lon="11.8740281"><ele>816.0</ele><time>2026-04-04T10:59:47.01Z</time></trkpt><trkpt lat="42.9144008" lon="11.8741067"><ele>816.0</ele><time>2026-04-04T10:59:48.026Z</time></trkpt><trkpt lat="42.9143275" lon="11.8741753"><ele>816.0</ele><time>2026-04-04T10:59:49.027Z</time></trkpt><trkpt lat="42.914224" lon="11.8742661"><ele>816.0</ele><time>2026-04-04T10:59:51.017Z</time></trkpt><trkpt lat="42.9141273" lon="11.8743719"><ele>813.8333333333334</ele><time>2026-04-04T10:59:53.021Z</time></trkpt><trkpt lat="42.9140662" lon="11.8744471"><ele>811.6666666666667</ele><time>2026-04-04T10:59:54.023Z</time></trkpt><trkpt lat="42.9139889" lon="11.8745293"><ele>809.5</ele><time>2026-04-04T10:59:55.083Z</time></trkpt><trkpt lat="42.9139311" lon="11.8746262"><ele>807.3333333333334</ele><time>2026-04-04T10:59:56.021Z</time></trkpt><trkpt lat="42.9138861" lon="11.8747298"><ele>805.1666666666667</ele><time>2026-04-04T10:59:57.028Z</time></trkpt><trkpt lat="42.9138597" lon="11.8748285"><ele>803.0</ele><time>2026-04-04T10:59:58.02Z</time></trkpt><trkpt lat="42.9138345" lon="11.8749154"><ele>803.0000000000001</ele><time>2026-04-04T10:59:59.032Z</time></trkpt><trkpt lat="42.9138017" lon="11.875079"><ele>803.0</ele><time>2026-04-04T11:00:01.01Z</time></trkpt><trkpt lat="42.9138002" lon="11.8751894"><ele>803.0</ele><time>2026-04-04T11:00:02.044Z</time></trkpt><trkpt lat="42.9138009" lon="11.8752882"><ele>803.0</ele><time>2026-04-04T11:00:03.046Z</time></trkpt><trkpt lat="42.9138124" lon="11.8753907"><ele>803.0000000000001</ele><time>2026-04-04T11:00:04.033Z</time></trkpt><trkpt lat="42.9138176" lon="11.8755024"><ele>803.0</ele><time>2026-04-04T11:00:05.009Z</time></trkpt><trkpt lat="42.9138159" lon="11.8756134"><ele>803.0000000000001</ele><time>2026-04-04T11:00:06.029Z</time></trkpt><trkpt lat="42.9138142" lon="11.8757186"><ele>803.0</ele><time>2026-04-04T11:00:07.035Z</time></trkpt><trkpt lat="42.9138133" lon="11.8758182"><ele>803.0</ele><time>2026-04-04T11:00:08.023Z</time></trkpt><trkpt lat="42.9138161" lon="11.8759224"><ele>803.0</ele><time>2026-04-04T11:00:09.055Z</time></trkpt><trkpt lat="42.9138198" lon="11.8760172"><ele>803.0000000000001</ele><time>2026-04-04T11:00:10.043Z</time></trkpt><trkpt lat="42.9138226" lon="11.87611"><ele>803.0</ele><time>2026-04-04T11:00:11.048Z</time></trkpt><trkpt lat="42.9138422" lon="11.8762831"><ele>802.8</ele><time>2026-04-04T11:00:13.04Z</time></trkpt><trkpt lat="42.9138543" lon="11.8764515"><ele>802.5999999999999</ele><time>2026-04-04T11:00:15.046Z</time></trkpt><trkpt lat="42.9138474" lon="11.8766044"><ele>802.4000000000001</ele><time>2026-04-04T11:00:17.066Z</time></trkpt><trkpt lat="42.9138475" lon="11.8767495"><ele>802.2</ele><time>2026-04-04T11:00:19.043Z</time></trkpt><trkpt lat="42.9138385" lon="11.8768666"><ele>802.0</ele><time>2026-04-04T11:00:21.036Z</time></trkpt><trkpt lat="42.9138344" lon="11.8769567"><ele>801.3333333333333</ele><time>2026-04-04T11:00:23.031Z</time></trkpt><trkpt lat="42.9138233" lon="11.8770561"><ele>800.6666666666666</ele><time>2026-04-04T11:00:25.011Z</time></trkpt><trkpt lat="42.9137988" lon="11.8771667"><ele>800.0</ele><time>2026-04-04T11:00:27.01Z</time></trkpt><trkpt lat="42.9137607" lon="11.8772649"><ele>799.3333333333333</ele><time>2026-04-04T11:00:29.004Z</time></trkpt><trkpt lat="42.9137316" lon="11.8773745"><ele>798.6666666666666</ele><time>2026-04-04T11:00:32.019Z</time></trkpt><trkpt lat="42.9137514" lon="11.8774886"><ele>798.0</ele><time>2026-04-04T11:00:34.014Z</time></trkpt><trkpt lat="42.9137751" lon="11.8776056"><ele>797.5</ele><time>2026-04-04T11:00:36.015Z</time></trkpt><trkpt lat="42.9138153" lon="11.8777056"><ele>797.0</ele><time>2026-04-04T11:00:38.008Z</time></trkpt><trkpt lat="42.913876" lon="11.8777807"><ele>796.5</ele><time>2026-04-04T11:00:40.019Z</time></trkpt><trkpt lat="42.9139147" lon="11.8778751"><ele>796.0</ele><time>2026-04-04T11:00:43.01Z</time></trkpt><trkpt lat="42.9139361" lon="11.8779636"><ele>795.5</ele><time>2026-04-04T11:00:49.004Z</time></trkpt><trkpt lat="42.9140248" lon="11.878054"><ele>795.0</ele><time>2026-04-04T11:02:00.032Z</time></trkpt><trkpt lat="42.914084" lon="11.87814"><ele>795.0</ele><time>2026-04-04T11:02:01.027Z</time></trkpt><trkpt lat="42.91413" lon="11.8782159"><ele>795.0</ele><time>2026-04-04T11:02:02.005Z</time></trkpt><trkpt lat="42.9141719" lon="11.8782868"><ele>795.0</ele><time>2026-04-04T11:02:03.039Z</time></trkpt><trkpt lat="42.9142086" lon="11.8783577"><ele>795.0</ele><time>2026-04-04T11:02:04.05Z</time></trkpt><trkpt lat="42.9142455" lon="11.8784295"><ele>795.0</ele><time>2026-04-04T11:02:05.055Z</time></trkpt><trkpt lat="42.9142851" lon="11.8785008"><ele>795.0</ele><time>2026-04-04T11:02:06.044Z</time></trkpt><trkpt lat="42.9143266" lon="11.878575"><ele>795.0</ele><time>2026-04-04T11:02:07.024Z</time></trkpt><trkpt lat="42.9143719" lon="11.8786548"><ele>794.3333333333334</ele><time>2026-04-04T11:02:08.035Z</time></trkpt><trkpt lat="42.9144171" lon="11.8787383"><ele>793.6666666666667</ele><time>2026-04-04T11:02:09.027Z</time></trkpt><trkpt lat="42.914462" lon="11.8788275"><ele>793.0</ele><time>2026-04-04T11:02:10.001Z</time></trkpt><trkpt lat="42.9145143" lon="11.8789214"><ele>792.3333333333334</ele><time>2026-04-04T11:02:11.045Z</time></trkpt><trkpt lat="42.9145711" lon="11.8790045"><ele>791.6666666666667</ele><time>2026-04-04T11:02:12.031Z</time></trkpt><trkpt lat="42.9146395" lon="11.8790793"><ele>791.0</ele><time>2026-04-04T11:02:13.043Z</time></trkpt><trkpt lat="42.9147126" lon="11.8791375"><ele>791.0</ele><time>2026-04-04T11:02:14.027Z</time></trkpt><trkpt lat="42.9148" lon="11.8791783"><ele>791.0</ele><time>2026-04-04T11:02:15.018Z</time></trkpt><trkpt lat="42.9148965" lon="11.8792274"><ele>791.0</ele><time>2026-04-04T11:02:16.019Z</time></trkpt><trkpt lat="42.9149753" lon="11.8793071"><ele>791.0</ele><time>2026-04-04T11:02:17.026Z</time></trkpt><trkpt lat="42.9150263" lon="11.879423"><ele>791.0</ele><time>2026-04-04T11:02:18.05Z</time></trkpt><trkpt lat="42.915054" lon="11.879544"><ele>790.5999999999999</ele><time>2026-04-04T11:02:19.026Z</time></trkpt><trkpt lat="42.915039" lon="11.8796704"><ele>790.2</ele><time>2026-04-04T11:02:20.014Z</time></trkpt><trkpt lat="42.9149799" lon="11.8798014"><ele>789.8</ele><time>2026-04-04T11:02:21.018Z</time></trkpt><trkpt lat="42.9148882" lon="11.8799078"><ele>789.4000000000001</ele><time>2026-04-04T11:02:22.027Z</time></trkpt><trkpt lat="42.9147914" lon="11.8799756"><ele>789.0</ele><time>2026-04-04T11:02:23.036Z</time></trkpt><trkpt lat="42.9146994" lon="11.8800357"><ele>789.0</ele><time>2026-04-04T11:02:24.027Z</time></trkpt><trkpt lat="42.9146134" lon="11.8800893"><ele>789.0</ele><time>2026-04-04T11:02:25.049Z</time></trkpt><trkpt lat="42.9145394" lon="11.8801438"><ele>789.0</ele><time>2026-04-04T11:02:26.021Z</time></trkpt><trkpt lat="42.9144804" lon="11.8802341"><ele>789.0</ele><time>2026-04-04T11:02:27.032Z</time></trkpt><trkpt lat="42.9144397" lon="11.880329"><ele>789.0</ele><time>2026-04-04T11:02:28.019Z</time></trkpt><trkpt lat="42.9144152" lon="11.8804459"><ele>789.0</ele><time>2026-04-04T11:02:29.039Z</time></trkpt><trkpt lat="42.9144058" lon="11.8805633"><ele>789.6</ele><time>2026-04-04T11:02:30.019Z</time></trkpt><trkpt lat="42.9143985" lon="11.8806887"><ele>790.2</ele><time>2026-04-04T11:02:31.027Z</time></trkpt><trkpt lat="42.9143917" lon="11.8808135"><ele>790.8000000000001</ele><time>2026-04-04T11:02:32.029Z</time></trkpt><trkpt lat="42.91438" lon="11.8809381"><ele>791.4000000000001</ele><time>2026-04-04T11:02:33.028Z</time></trkpt><trkpt lat="42.9143675" lon="11.8810744"><ele>792.0</ele><time>2026-04-04T11:02:34.042Z</time></trkpt><trkpt lat="42.9143567" lon="11.8812209"><ele>789.4000000000001</ele><time>2026-04-04T11:02:35.031Z</time></trkpt><trkpt lat="42.9143447" lon="11.881368"><ele>786.8000000000001</ele><time>2026-04-04T11:02:36.042Z</time></trkpt><trkpt lat="42.9143363" lon="11.8815099"><ele>784.2</ele><time>2026-04-04T11:02:37.036Z</time></trkpt><trkpt lat="42.9143262" lon="11.8816544"><ele>781.6</ele><time>2026-04-04T11:02:38.042Z</time></trkpt><trkpt lat="42.9143156" lon="11.8817953"><ele>779.0</ele><time>2026-04-04T11:02:39.03Z</time></trkpt><trkpt lat="42.9143041" lon="11.8819365"><ele>775.0</ele><time>2026-04-04T11:02:40.054Z</time></trkpt><trkpt lat="42.9142931" lon="11.8820696"><ele>771.0</ele><time>2026-04-04T11:02:41.035Z</time></trkpt><trkpt lat="42.9142944" lon="11.8822073"><ele>767.0</ele><time>2026-04-04T11:02:42.046Z</time></trkpt><trkpt lat="42.914309" lon="11.8823315"><ele>763.0</ele><time>2026-04-04T11:02:43.049Z</time></trkpt><trkpt lat="42.9143412" lon="11.8824443"><ele>759.0</ele><time>2026-04-04T11:02:44.019Z</time></trkpt><trkpt lat="42.9143954" lon="11.8825496"><ele>759.0</ele><time>2026-04-04T11:02:45.017Z</time></trkpt><trkpt lat="42.9144739" lon="11.8826354"><ele>759.0</ele><time>2026-04-04T11:02:46.038Z</time></trkpt><trkpt lat="42.914562" lon="11.8826829"><ele>759.0</ele><time>2026-04-04T11:02:47.04Z</time></trkpt><trkpt lat="42.9146686" lon="11.8826811"><ele>759.0</ele><time>2026-04-04T11:02:48.045Z</time></trkpt><trkpt lat="42.9147723" lon="11.8826369"><ele>759.0</ele><time>2026-04-04T11:02:49.035Z</time></trkpt><trkpt lat="42.9148636" lon="11.8825695"><ele>759.0</ele><time>2026-04-04T11:02:50.036Z</time></trkpt><trkpt lat="42.914951" lon="11.8825256"><ele>759.0</ele><time>2026-04-04T11:02:51.01Z</time></trkpt><trkpt lat="42.9150362" lon="11.8825163"><ele>759.0</ele><time>2026-04-04T11:02:51.997Z</time></trkpt><trkpt lat="42.9151172" lon="11.8825576"><ele>759.0</ele><time>2026-04-04T11:02:53.029Z</time></trkpt><trkpt lat="42.915173" lon="11.8826532"><ele>759.0</ele><time>2026-04-04T11:02:54.052Z</time></trkpt><trkpt lat="42.9151954" lon="11.8827767"><ele>759.0</ele><time>2026-04-04T11:02:55.007Z</time></trkpt><trkpt lat="42.9151995" lon="11.8829157"><ele>758.75</ele><time>2026-04-04T11:02:56.024Z</time></trkpt><trkpt lat="42.9151959" lon="11.8830613"><ele>758.5</ele><time>2026-04-04T11:02:57.023Z</time></trkpt><trkpt lat="42.915191" lon="11.8832156"><ele>758.25</ele><time>2026-04-04T11:02:58.039Z</time></trkpt><trkpt lat="42.9151848" lon="11.8833725"><ele>758.0</ele><time>2026-04-04T11:02:59.037Z</time></trkpt><trkpt lat="42.9151843" lon="11.8835357"><ele>754.25</ele><time>2026-04-04T11:03:00.033Z</time></trkpt><trkpt lat="42.9151893" lon="11.8837033"><ele>750.5</ele><time>2026-04-04T11:03:01.027Z</time></trkpt><trkpt lat="42.9152057" lon="11.8838696"><ele>746.75</ele><time>2026-04-04T11:03:02.013Z</time></trkpt><trkpt lat="42.915237" lon="11.8840363"><ele>743.0</ele><time>2026-04-04T11:03:03.017Z</time></trkpt><trkpt lat="42.9152808" lon="11.8842031"><ele>738.25</ele><time>2026-04-04T11:03:04.037Z</time></trkpt><trkpt lat="42.9153293" lon="11.88436"><ele>733.5</ele><time>2026-04-04T11:03:05.053Z</time></trkpt><trkpt lat="42.9153754" lon="11.8844959"><ele>728.75</ele><time>2026-04-04T11:03:06.02Z</time></trkpt><trkpt lat="42.9154359" lon="11.8846227"><ele>724.0</ele><time>2026-04-04T11:03:07.016Z</time></trkpt><trkpt lat="42.9155185" lon="11.8847166"><ele>724.0</ele><time>2026-04-04T11:03:08.014Z</time></trkpt><trkpt lat="42.9156237" lon="11.8847782"><ele>724.0</ele><time>2026-04-04T11:03:09.019Z</time></trkpt><trkpt lat="42.9157351" lon="11.884798"><ele>724.0</ele><time>2026-04-04T11:03:10.02Z</time></trkpt><trkpt lat="42.9158486" lon="11.8847884"><ele>724.0</ele><time>2026-04-04T11:03:11.029Z</time></trkpt><trkpt lat="42.9159689" lon="11.8847463"><ele>725.25</ele><time>2026-04-04T11:03:12.023Z</time></trkpt><trkpt lat="42.9160926" lon="11.8847126"><ele>726.5</ele><time>2026-04-04T11:03:13.041Z</time></trkpt><trkpt lat="42.916209" lon="11.8847033"><ele>727.75</ele><time>2026-04-04T11:03:14.051Z</time></trkpt><trkpt lat="42.9163316" lon="11.8847793"><ele>729.0</ele><time>2026-04-04T11:03:15.031Z</time></trkpt><trkpt lat="42.916436" lon="11.8848975"><ele>729.0</ele><time>2026-04-04T11:03:16.008Z</time></trkpt><trkpt lat="42.9165248" lon="11.8850544"><ele>729.0</ele><time>2026-04-04T11:03:17.016Z</time></trkpt><trkpt lat="42.9166054" lon="11.8852223"><ele>729.0</ele><time>2026-04-04T11:03:18.037Z</time></trkpt><trkpt lat="42.9166779" lon="11.8853908"><ele>729.0</ele><time>2026-04-04T11:03:19.042Z</time></trkpt><trkpt lat="42.9167495" lon="11.8855517"><ele>725.75</ele><time>2026-04-04T11:03:20.026Z</time></trkpt><trkpt lat="42.9168287" lon="11.8857085"><ele>722.5</ele><time>2026-04-04T11:03:21.049Z</time></trkpt><trkpt lat="42.9169211" lon="11.8858486"><ele>719.25</ele><time>2026-04-04T11:03:22.033Z</time></trkpt><trkpt lat="42.9170295" lon="11.8859717"><ele>716.0</ele><time>2026-04-04T11:03:23.053Z</time></trkpt><trkpt lat="42.9171439" lon="11.8860769"><ele>711.75</ele><time>2026-04-04T11:03:24.038Z</time></trkpt><trkpt lat="42.9172668" lon="11.8861781"><ele>707.5</ele><time>2026-04-04T11:03:25.05Z</time></trkpt><trkpt lat="42.9173823" lon="11.8862734"><ele>703.25</ele><time>2026-04-04T11:03:26.022Z</time></trkpt><trkpt lat="42.9175023" lon="11.886366"><ele>699.0</ele><time>2026-04-04T11:03:27.018Z</time></trkpt><trkpt lat="42.9176311" lon="11.8864424"><ele>698.25</ele><time>2026-04-04T11:03:28.02Z</time></trkpt><trkpt lat="42.9177676" lon="11.8865017"><ele>697.5</ele><time>2026-04-04T11:03:29.051Z</time></trkpt><trkpt lat="42.9179032" lon="11.88653"><ele>696.75</ele><time>2026-04-04T11:03:30.044Z</time></trkpt><trkpt lat="42.9180393" lon="11.8865598"><ele>696.0</ele><time>2026-04-04T11:03:31.041Z</time></trkpt><trkpt lat="42.918178" lon="11.8865972"><ele>696.0</ele><time>2026-04-04T11:03:32.036Z</time></trkpt><trkpt lat="42.9183219" lon="11.8866281"><ele>696.0</ele><time>2026-04-04T11:03:33.042Z</time></trkpt><trkpt lat="42.9184691" lon="11.8866567"><ele>696.0</ele><time>2026-04-04T11:03:34.04Z</time></trkpt><trkpt lat="42.9186164" lon="11.8866855"><ele>696.0</ele><time>2026-04-04T11:03:35.036Z</time></trkpt><trkpt lat="42.9187664" lon="11.8867261"><ele>691.3333333333334</ele><time>2026-04-04T11:03:36.026Z</time></trkpt><trkpt lat="42.9189199" lon="11.8867669"><ele>686.6666666666667</ele><time>2026-04-04T11:03:37.045Z</time></trkpt><trkpt lat="42.9190686" lon="11.8868123"><ele>682.0</ele><time>2026-04-04T11:03:38.048Z</time></trkpt><trkpt lat="42.9192145" lon="11.8868637"><ele>680.5</ele><time>2026-04-04T11:03:39.044Z</time></trkpt><trkpt lat="42.9193583" lon="11.8869017"><ele>679.0</ele><time>2026-04-04T11:03:40.032Z</time></trkpt><trkpt lat="42.9195056" lon="11.8869212"><ele>677.5</ele><time>2026-04-04T11:03:41.035Z</time></trkpt><trkpt lat="42.9196513" lon="11.8869482"><ele>676.0</ele><time>2026-04-04T11:03:42.041Z</time></trkpt><trkpt lat="42.9197913" lon="11.8869816"><ele>676.0</ele><time>2026-04-04T11:03:43.027Z</time></trkpt><trkpt lat="42.9199314" lon="11.8870156"><ele>676.0</ele><time>2026-04-04T11:03:44.022Z</time></trkpt><trkpt lat="42.9200801" lon="11.8870502"><ele>676.0</ele><time>2026-04-04T11:03:45.061Z</time></trkpt><trkpt lat="42.920222" lon="11.887088"><ele>676.0</ele><time>2026-04-04T11:03:46.034Z</time></trkpt><trkpt lat="42.9203702" lon="11.8871214"><ele>673.0</ele><time>2026-04-04T11:03:47.046Z</time></trkpt><trkpt lat="42.9205191" lon="11.8871521"><ele>670.0</ele><time>2026-04-04T11:03:48.036Z</time></trkpt><trkpt lat="42.9206752" lon="11.8871915"><ele>667.0</ele><time>2026-04-04T11:03:49.041Z</time></trkpt><trkpt lat="42.9208279" lon="11.8872239"><ele>665.3333333333334</ele><time>2026-04-04T11:03:50.016Z</time></trkpt><trkpt lat="42.9209836" lon="11.8872629"><ele>663.6666666666666</ele><time>2026-04-04T11:03:51.031Z</time></trkpt><trkpt lat="42.9211344" lon="11.8873106"><ele>662.0</ele><time>2026-04-04T11:03:52.016Z</time></trkpt><trkpt lat="42.9212865" lon="11.887353"><ele>662.0</ele><time>2026-04-04T11:03:53.025Z</time></trkpt><trkpt lat="42.9214348" lon="11.8873943"><ele>662.0</ele><time>2026-04-04T11:03:54.033Z</time></trkpt><trkpt lat="42.9215748" lon="11.8874315"><ele>662.0</ele><time>2026-04-04T11:03:55.021Z</time></trkpt><trkpt lat="42.9217155" lon="11.8874741"><ele>662.0</ele><time>2026-04-04T11:03:56.02Z</time></trkpt><trkpt lat="42.9218563" lon="11.8875293"><ele>662.0</ele><time>2026-04-04T11:03:57.048Z</time></trkpt><trkpt lat="42.9219848" lon="11.8875893"><ele>662.0</ele><time>2026-04-04T11:03:58.029Z</time></trkpt><trkpt lat="42.922111" lon="11.887663"><ele>662.0</ele><time>2026-04-04T11:03:59.037Z</time></trkpt><trkpt lat="42.9222255" lon="11.8877412"><ele>662.0</ele><time>2026-04-04T11:04:00.02Z</time></trkpt><trkpt lat="42.9223383" lon="11.8878277"><ele>660.2</ele><time>2026-04-04T11:04:01.046Z</time></trkpt><trkpt lat="42.9224378" lon="11.887912"><ele>658.4000000000001</ele><time>2026-04-04T11:04:02.027Z</time></trkpt><trkpt lat="42.9225361" lon="11.8879957"><ele>656.5999999999999</ele><time>2026-04-04T11:04:03.038Z</time></trkpt><trkpt lat="42.922631" lon="11.8880733"><ele>654.8</ele><time>2026-04-04T11:04:04.06Z</time></trkpt><trkpt lat="42.9227131" lon="11.8881454"><ele>653.0</ele><time>2026-04-04T11:04:05.043Z</time></trkpt><trkpt lat="42.922786" lon="11.8882205"><ele>652.8571428571429</ele><time>2026-04-04T11:04:06.039Z</time></trkpt><trkpt lat="42.9228463" lon="11.8882955"><ele>652.7142857142858</ele><time>2026-04-04T11:04:07.018Z</time></trkpt><trkpt lat="42.9228993" lon="11.8883668"><ele>652.5714285714287</ele><time>2026-04-04T11:04:08.026Z</time></trkpt><trkpt lat="42.9229488" lon="11.8884287"><ele>652.4285714285714</ele><time>2026-04-04T11:04:09.008Z</time></trkpt><trkpt lat="42.9230005" lon="11.8884879"><ele>652.2857142857142</ele><time>2026-04-04T11:04:10.016Z</time></trkpt><trkpt lat="42.9230536" lon="11.8885432"><ele>652.1428571428572</ele><time>2026-04-04T11:04:11.022Z</time></trkpt><trkpt lat="42.9231095" lon="11.8885971"><ele>652.0</ele><time>2026-04-04T11:04:12.018Z</time></trkpt><trkpt lat="42.9231856" lon="11.8887113"><ele>650.6</ele><time>2026-04-04T11:04:14.026Z</time></trkpt><trkpt lat="42.9232148" lon="11.8888507"><ele>649.2</ele><time>2026-04-04T11:04:16.043Z</time></trkpt><trkpt lat="42.9231765" lon="11.8890209"><ele>647.8</ele><time>2026-04-04T11:04:18.02Z</time></trkpt><trkpt lat="42.9231398" lon="11.889118"><ele>646.4</ele><time>2026-04-04T11:04:19.044Z</time></trkpt><trkpt lat="42.9230947" lon="11.8892136"><ele>645.0</ele><time>2026-04-04T11:04:20.041Z</time></trkpt><trkpt lat="42.923027" lon="11.8892985"><ele>645.0</ele><time>2026-04-04T11:04:21.031Z</time></trkpt><trkpt lat="42.9229451" lon="11.8893747"><ele>645.0</ele><time>2026-04-04T11:04:22.043Z</time></trkpt><trkpt lat="42.9228416" lon="11.8894049"><ele>645.0</ele><time>2026-04-04T11:04:23.037Z</time></trkpt><trkpt lat="42.9227336" lon="11.8893748"><ele>645.0</ele><time>2026-04-04T11:04:24.053Z</time></trkpt><trkpt lat="42.9226497" lon="11.88929"><ele>645.0</ele><time>2026-04-04T11:04:25.051Z</time></trkpt><trkpt lat="42.922581" lon="11.8891678"><ele>643.3333333333334</ele><time>2026-04-04T11:04:26.043Z</time></trkpt><trkpt lat="42.9224988" lon="11.8890716"><ele>641.6666666666667</ele><time>2026-04-04T11:04:27.039Z</time></trkpt><trkpt lat="42.9223971" lon="11.8890341"><ele>640.0</ele><time>2026-04-04T11:04:28.023Z</time></trkpt><trkpt lat="42.9211344" lon="11.8873106"><ele>645.5</ele><time>2026-04-04T11:03:52.016Z</time></trkpt><trkpt lat="42.9212865" lon="11.887353"><ele>651.0</ele><time>2026-04-04T11:03:53.025Z</time></trkpt><trkpt lat="42.9214348" lon="11.8873943"><ele>656.5</ele><time>2026-04-04T11:03:54.033Z</time></trkpt><trkpt lat="42.9215748" lon="11.8874315"><ele>662.0</ele><time>2026-04-04T11:03:55.021Z</time></trkpt><trkpt lat="42.9217155" lon="11.8874741"><ele>662.0</ele><time>2026-04-04T11:03:56.02Z</time></trkpt><trkpt lat="42.9218563" lon="11.8875293"><ele>662.0</ele><time>2026-04-04T11:03:57.048Z</time></trkpt><trkpt lat="42.9219848" lon="11.8875893"><ele>662.0</ele><time>2026-04-04T11:03:58.029Z</time></trkpt><trkpt lat="42.922111" lon="11.887663"><ele>662.0</ele><time>2026-04-04T11:03:59.037Z</time></trkpt><trkpt lat="42.9222255" lon="11.8877412"><ele>659.75</ele><time>2026-04-04T11:04:00.02Z</time></trkpt><trkpt lat="42.9223383" lon="11.8878277"><ele>657.5</ele><time>2026-04-04T11:04:01.046Z</time></trkpt><trkpt lat="42.9224378" lon="11.887912"><ele>655.25</ele><time>2026-04-04T11:04:02.027Z</time></trkpt><trkpt lat="42.9225361" lon="11.8879957"><ele>653.0</ele><time>2026-04-04T11:04:03.038Z</time></trkpt><trkpt lat="42.922631" lon="11.8880733"><ele>652.8333333333333</ele><time>2026-04-04T11:04:04.06Z</time></trkpt><trkpt lat="42.9227131" lon="11.8881454"><ele>652.6666666666666</ele><time>2026-04-04T11:04:05.043Z</time></trkpt><trkpt lat="42.922786" lon="11.8882205"><ele>652.5</ele><time>2026-04-04T11:04:06.039Z</time></trkpt><trkpt lat="42.9228463" lon="11.8882955"><ele>652.3333333333334</ele><time>2026-04-04T11:04:07.018Z</time></trkpt><trkpt lat="42.9228993" lon="11.8883668"><ele>652.1666666666667</ele><time>2026-04-04T11:04:08.026Z</time></trkpt><trkpt lat="42.9229488" lon="11.8884287"><ele>652.0</ele><time>2026-04-04T11:04:09.008Z</time></trkpt><trkpt lat="42.9230005" lon="11.8884879"><ele>650.6</ele><time>2026-04-04T11:04:10.016Z</time></trkpt><trkpt lat="42.9230536" lon="11.8885432"><ele>649.2</ele><time>2026-04-04T11:04:11.022Z</time></trkpt><trkpt lat="42.9231095" lon="11.8885971"><ele>647.8</ele><time>2026-04-04T11:04:12.018Z</time></trkpt><trkpt lat="42.9231856" lon="11.8887113"><ele>646.4</ele><time>2026-04-04T11:04:14.026Z</time></trkpt><trkpt lat="42.9232148" lon="11.8888507"><ele>645.0</ele><time>2026-04-04T11:04:16.043Z</time></trkpt><trkpt lat="42.9231765" lon="11.8890209"><ele>645.0</ele><time>2026-04-04T11:04:18.02Z</time></trkpt><trkpt lat="42.9231398" lon="11.889118"><ele>645.0</ele><time>2026-04-04T11:04:19.044Z</time></trkpt><trkpt lat="42.9230947" lon="11.8892136"><ele>645.0</ele><time>2026-04-04T11:04:20.041Z</time></trkpt><trkpt lat="42.923027" lon="11.8892985"><ele>645.0</ele><time>2026-04-04T11:04:21.031Z</time></trkpt><trkpt lat="42.9229451" lon="11.8893747"><ele>645.0</ele><time>2026-04-04T11:04:22.043Z</time></trkpt><trkpt lat="42.9228416" lon="11.8894049"><ele>645.0</ele><time>2026-04-04T11:04:23.037Z</time></trkpt><trkpt lat="42.9227336" lon="11.8893748"><ele>645.0</ele><time>2026-04-04T11:04:24.053Z</time></trkpt><trkpt lat="42.9226497" lon="11.88929"><ele>645.0</ele><time>2026-04-04T11:04:25.051Z</time></trkpt><trkpt lat="42.922581" lon="11.8891678"><ele>645.0</ele><time>2026-04-04T11:04:26.043Z</time></trkpt><trkpt lat="42.9224988" lon="11.8890716"><ele>645.0</ele><time>2026-04-04T11:04:27.039Z</time></trkpt><trkpt lat="42.9223971" lon="11.8890341"><ele>643.75</ele><time>2026-04-04T11:04:28.023Z</time></trkpt><trkpt lat="42.9222879" lon="11.8890467"><ele>642.5</ele><time>2026-04-04T11:04:29.039Z</time></trkpt><trkpt lat="42.922176" lon="11.889066"><ele>641.25</ele><time>2026-04-04T11:04:30.032Z</time></trkpt><trkpt lat="42.9220643" lon="11.8890991"><ele>640.0</ele><time>2026-04-04T11:04:31.014Z</time></trkpt><trkpt lat="42.921958" lon="11.8891537"><ele>640.0</ele><time>2026-04-04T11:04:32.034Z</time></trkpt><trkpt lat="42.9218769" lon="11.8892521"><ele>640.0</ele><time>2026-04-04T11:04:33.021Z</time></trkpt><trkpt lat="42.92182" lon="11.8893986"><ele>640.0</ele><time>2026-04-04T11:04:34.046Z</time></trkpt><trkpt lat="42.9217815" lon="11.8895508"><ele>640.0</ele><time>2026-04-04T11:04:35.021Z</time></trkpt><trkpt lat="42.9217387" lon="11.8897042"><ele>636.25</ele><time>2026-04-04T11:04:36.044Z</time></trkpt><trkpt lat="42.9216745" lon="11.8898614"><ele>632.5</ele><time>2026-04-04T11:04:37.051Z</time></trkpt><trkpt lat="42.9215901" lon="11.8899922"><ele>628.75</ele><time>2026-04-04T11:04:38.039Z</time></trkpt><trkpt lat="42.9214922" lon="11.8901049"><ele>625.0</ele><time>2026-04-04T11:04:39.046Z</time></trkpt><trkpt lat="42.9213999" lon="11.8902313"><ele>622.25</ele><time>2026-04-04T11:04:40.05Z</time></trkpt><trkpt lat="42.9213207" lon="11.8903771"><ele>619.5</ele><time>2026-04-04T11:04:41.037Z</time></trkpt><trkpt lat="42.9212442" lon="11.8905315"><ele>616.75</ele><time>2026-04-04T11:04:42.053Z</time></trkpt><trkpt lat="42.9211504" lon="11.8906578"><ele>614.0</ele><time>2026-04-04T11:04:43.04Z</time></trkpt><trkpt lat="42.9210387" lon="11.8907432"><ele>614.0</ele><time>2026-04-04T11:04:44.021Z</time></trkpt><trkpt lat="42.9209225" lon="11.8908015"><ele>614.0</ele><time>2026-04-04T11:04:45.042Z</time></trkpt><trkpt lat="42.9208128" lon="11.8908475"><ele>614.0</ele><time>2026-04-04T11:04:46.039Z</time></trkpt><trkpt lat="42.9207107" lon="11.890893"><ele>614.0</ele><time>2026-04-04T11:04:47.031Z</time></trkpt><trkpt lat="42.920611" lon="11.8909317"><ele>613.2</ele><time>2026-04-04T11:04:48.039Z</time></trkpt><trkpt lat="42.920516" lon="11.890963"><ele>612.4</ele><time>2026-04-04T11:04:49.029Z</time></trkpt><trkpt lat="42.9204186" lon="11.890996"><ele>611.6</ele><time>2026-04-04T11:04:50.033Z</time></trkpt><trkpt lat="42.9203215" lon="11.8910338"><ele>610.8</ele><time>2026-04-04T11:04:51.059Z</time></trkpt><trkpt lat="42.9202309" lon="11.8910619"><ele>610.0</ele><time>2026-04-04T11:04:52.036Z</time></trkpt><trkpt lat="42.9201389" lon="11.8910823"><ele>610.3333333333334</ele><time>2026-04-04T11:04:53.024Z</time></trkpt><trkpt lat="42.920044" lon="11.8910956"><ele>610.6666666666667</ele><time>2026-04-04T11:04:54.039Z</time></trkpt><trkpt lat="42.9199506" lon="11.8910984"><ele>611.0</ele><time>2026-04-04T11:04:55.05Z</time></trkpt><trkpt lat="42.919862" lon="11.8910988"><ele>611.3333333333334</ele><time>2026-04-04T11:04:56.04Z</time></trkpt><trkpt lat="42.9197783" lon="11.8911181"><ele>611.6666666666666</ele><time>2026-04-04T11:04:57.042Z</time></trkpt><trkpt lat="42.9196986" lon="11.8911496"><ele>612.0</ele><time>2026-04-04T11:04:58.038Z</time></trkpt><trkpt lat="42.9196329" lon="11.8912093"><ele>612.0</ele><time>2026-04-04T11:04:59.041Z</time></trkpt><trkpt lat="42.9195782" lon="11.8912892"><ele>612.0</ele><time>2026-04-04T11:05:00.055Z</time></trkpt><trkpt lat="42.9195271" lon="11.8913555"><ele>612.0</ele><time>2026-04-04T11:05:01.045Z</time></trkpt><trkpt lat="42.919477" lon="11.8914176"><ele>612.0</ele><time>2026-04-04T11:05:02.027Z</time></trkpt><trkpt lat="42.9194272" lon="11.8914823"><ele>612.0</ele><time>2026-04-04T11:05:03.031Z</time></trkpt><trkpt lat="42.9193816" lon="11.8915483"><ele>612.0</ele><time>2026-04-04T11:05:04.045Z</time></trkpt><trkpt lat="42.9193397" lon="11.8916138"><ele>612.0</ele><time>2026-04-04T11:05:05.032Z</time></trkpt><trkpt lat="42.9192736" lon="11.8917337"><ele>611.5</ele><time>2026-04-04T11:05:07.039Z</time></trkpt><trkpt lat="42.9192389" lon="11.8918694"><ele>611.0</ele><time>2026-04-04T11:05:09.04Z</time></trkpt><trkpt lat="42.9192498" lon="11.8920151"><ele>610.5</ele><time>2026-04-04T11:05:11.041Z</time></trkpt><trkpt lat="42.9192718" lon="11.8921006"><ele>610.0</ele><time>2026-04-04T11:05:12.04Z</time></trkpt><trkpt lat="42.9192911" lon="11.8921873"><ele>609.5</ele><time>2026-04-04T11:05:13.036Z</time></trkpt><trkpt lat="42.9193071" lon="11.8922817"><ele>609.0</ele><time>2026-04-04T11:05:14.031Z</time></trkpt><trkpt lat="42.9193281" lon="11.8923825"><ele>609.0</ele><time>2026-04-04T11:05:15.027Z</time></trkpt><trkpt lat="42.9193518" lon="11.8924881"><ele>609.0</ele><time>2026-04-04T11:05:16.048Z</time></trkpt><trkpt lat="42.9193732" lon="11.892593"><ele>609.0</ele><time>2026-04-04T11:05:17.022Z</time></trkpt><trkpt lat="42.9193943" lon="11.8927078"><ele>609.0</ele><time>2026-04-04T11:05:18.046Z</time></trkpt><trkpt lat="42.9194158" lon="11.8928212"><ele>609.0</ele><time>2026-04-04T11:05:19.039Z</time></trkpt><trkpt lat="42.9194379" lon="11.8929398"><ele>609.0</ele><time>2026-04-04T11:05:20.03Z</time></trkpt><trkpt lat="42.9194673" lon="11.8930648"><ele>608.1666666666666</ele><time>2026-04-04T11:05:21.054Z</time></trkpt><trkpt lat="42.9194926" lon="11.8931798"><ele>607.3333333333334</ele><time>2026-04-04T11:05:22.035Z</time></trkpt><trkpt lat="42.9195154" lon="11.8932921"><ele>606.5</ele><time>2026-04-04T11:05:23.051Z</time></trkpt><trkpt lat="42.9195472" lon="11.8933995"><ele>605.6666666666667</ele><time>2026-04-04T11:05:24.047Z</time></trkpt><trkpt lat="42.9195872" lon="11.8935041"><ele>604.8333333333334</ele><time>2026-04-04T11:05:25.049Z</time></trkpt><trkpt lat="42.919634" lon="11.8935856"><ele>604.0</ele><time>2026-04-04T11:05:26.019Z</time></trkpt><trkpt lat="42.9197023" lon="11.8936518"><ele>603.2</ele><time>2026-04-04T11:05:27.036Z</time></trkpt><trkpt lat="42.919796" lon="11.8936693"><ele>602.4</ele><time>2026-04-04T11:05:28.014Z</time></trkpt><trkpt lat="42.9199002" lon="11.8936752"><ele>601.6</ele><time>2026-04-04T11:05:29.009Z</time></trkpt><trkpt lat="42.9200082" lon="11.8936845"><ele>600.8</ele><time>2026-04-04T11:05:30.026Z</time></trkpt><trkpt lat="42.9201184" lon="11.8936901"><ele>600.0</ele><time>2026-04-04T11:05:31.023Z</time></trkpt><trkpt lat="42.9202296" lon="11.8937012"><ele>597.6666666666666</ele><time>2026-04-04T11:05:32.049Z</time></trkpt><trkpt lat="42.9203306" lon="11.8937259"><ele>595.3333333333334</ele><time>2026-04-04T11:05:33.048Z</time></trkpt><trkpt lat="42.9204127" lon="11.8937728"><ele>593.0</ele><time>2026-04-04T11:05:34.036Z</time></trkpt><trkpt lat="42.9204715" lon="11.8938515"><ele>590.6666666666667</ele><time>2026-04-04T11:05:35.034Z</time></trkpt><trkpt lat="42.9204899" lon="11.8939634"><ele>588.3333333333334</ele><time>2026-04-04T11:05:36.049Z</time></trkpt><trkpt lat="42.9204613" lon="11.8940762"><ele>586.0</ele><time>2026-04-04T11:05:37.031Z</time></trkpt><trkpt lat="42.9203964" lon="11.8941756"><ele>586.4</ele><time>2026-04-04T11:05:38.039Z</time></trkpt><trkpt lat="42.9203157" lon="11.8942663"><ele>586.8</ele><time>2026-04-04T11:05:39.052Z</time></trkpt><trkpt lat="42.9202347" lon="11.8943562"><ele>587.1999999999999</ele><time>2026-04-04T11:05:40.04Z</time></trkpt><trkpt lat="42.9201601" lon="11.894459"><ele>587.6</ele><time>2026-04-04T11:05:41.057Z</time></trkpt><trkpt lat="42.9201051" lon="11.894578"><ele>588.0</ele><time>2026-04-04T11:05:42.025Z</time></trkpt><trkpt lat="42.9200578" lon="11.8947372"><ele>588.0</ele><time>2026-04-04T11:05:43.045Z</time></trkpt><trkpt lat="42.9200033" lon="11.8948983"><ele>588.0</ele><time>2026-04-04T11:05:44.05Z</time></trkpt><trkpt lat="42.9199403" lon="11.8950436"><ele>588.0</ele><time>2026-04-04T11:05:45.048Z</time></trkpt><trkpt lat="42.9198768" lon="11.8951863"><ele>588.0</ele><time>2026-04-04T11:05:46.055Z</time></trkpt><trkpt lat="42.9198212" lon="11.8953418"><ele>586.25</ele><time>2026-04-04T11:05:47.02Z</time></trkpt><trkpt lat="42.9197936" lon="11.8955193"><ele>584.5</ele><time>2026-04-04T11:05:48.037Z</time></trkpt><trkpt lat="42.9197954" lon="11.8956893"><ele>582.75</ele><time>2026-04-04T11:05:49.036Z</time></trkpt><trkpt lat="42.9198185" lon="11.8958395"><ele>581.0</ele><time>2026-04-04T11:05:50.03Z</time></trkpt><trkpt lat="42.9198498" lon="11.8959794"><ele>578.8</ele><time>2026-04-04T11:05:51.024Z</time></trkpt><trkpt lat="42.9198938" lon="11.8961062"><ele>576.6</ele><time>2026-04-04T11:05:52.02Z</time></trkpt><trkpt lat="42.9199444" lon="11.8962182"><ele>574.4</ele><time>2026-04-04T11:05:53.038Z</time></trkpt><trkpt lat="42.9199643" lon="11.8963293"><ele>572.2</ele><time>2026-04-04T11:05:54.041Z</time></trkpt><trkpt lat="42.9199533" lon="11.8964356"><ele>570.0</ele><time>2026-04-04T11:05:55.026Z</time></trkpt><trkpt lat="42.9198899" lon="11.8965321"><ele>570.0</ele><time>2026-04-04T11:05:56.045Z</time></trkpt><trkpt lat="42.9198132" lon="11.8966279"><ele>570.0</ele><time>2026-04-04T11:05:57.041Z</time></trkpt><trkpt lat="42.9197449" lon="11.8967457"><ele>570.0</ele><time>2026-04-04T11:05:58.013Z</time></trkpt><trkpt lat="42.9196877" lon="11.8968849"><ele>570.0</ele><time>2026-04-04T11:05:59.044Z</time></trkpt><trkpt lat="42.9196575" lon="11.8970355"><ele>570.0</ele><time>2026-04-04T11:06:00.034Z</time></trkpt><trkpt lat="42.9196347" lon="11.8971931"><ele>566.75</ele><time>2026-04-04T11:06:01.044Z</time></trkpt><trkpt lat="42.919604" lon="11.8973509"><ele>563.5</ele><time>2026-04-04T11:06:02.047Z</time></trkpt><trkpt lat="42.9195781" lon="11.8975098"><ele>560.25</ele><time>2026-04-04T11:06:03.027Z</time></trkpt><trkpt lat="42.9195509" lon="11.8976744"><ele>557.0</ele><time>2026-04-04T11:06:04.042Z</time></trkpt><trkpt lat="42.9195255" lon="11.8978242"><ele>556.2</ele><time>2026-04-04T11:06:05.031Z</time></trkpt><trkpt lat="42.919501" lon="11.8979583"><ele>555.4000000000001</ele><time>2026-04-04T11:06:06.06Z</time></trkpt><trkpt lat="42.9194841" lon="11.8980732"><ele>554.5999999999999</ele><time>2026-04-04T11:06:07.043Z</time></trkpt><trkpt lat="42.9194903" lon="11.8981907"><ele>553.8</ele><time>2026-04-04T11:06:08.06Z</time></trkpt><trkpt lat="42.9195311" lon="11.8982974"><ele>553.0</ele><time>2026-04-04T11:06:09.04Z</time></trkpt><trkpt lat="42.919599" lon="11.8983827"><ele>552.1999999999999</ele><time>2026-04-04T11:06:10.019Z</time></trkpt><trkpt lat="42.9196899" lon="11.8984501"><ele>551.4</ele><time>2026-04-04T11:06:11.041Z</time></trkpt><trkpt lat="42.9197762" lon="11.898516"><ele>550.5999999999999</ele><time>2026-04-04T11:06:12.033Z</time></trkpt><trkpt lat="42.9198566" lon="11.8985979"><ele>549.8</ele><time>2026-04-04T11:06:13.038Z</time></trkpt><trkpt lat="42.9199288" lon="11.8986897"><ele>549.0</ele><time>2026-04-04T11:06:14.04Z</time></trkpt><trkpt lat="42.9199821" lon="11.8987906"><ele>549.0</ele><time>2026-04-04T11:06:15.032Z</time></trkpt><trkpt lat="42.9200195" lon="11.8989007"><ele>549.0</ele><time>2026-04-04T11:06:16.045Z</time></trkpt><trkpt lat="42.9200388" lon="11.899013"><ele>549.0</ele><time>2026-04-04T11:06:17.019Z</time></trkpt><trkpt lat="42.9200202" lon="11.8991271"><ele>549.0</ele><time>2026-04-04T11:06:18.051Z</time></trkpt><trkpt lat="42.919937" lon="11.8992009"><ele>549.0</ele><time>2026-04-04T11:06:19.032Z</time></trkpt><trkpt lat="42.9198346" lon="11.8992552"><ele>549.0</ele><time>2026-04-04T11:06:20.044Z</time></trkpt><trkpt lat="42.91973" lon="11.8992801"><ele>549.0</ele><time>2026-04-04T11:06:21.041Z</time></trkpt><trkpt lat="42.9196244" lon="11.8992677"><ele>549.0</ele><time>2026-04-04T11:06:22.036Z</time></trkpt><trkpt lat="42.9195204" lon="11.8992142"><ele>549.0</ele><time>2026-04-04T11:06:23.035Z</time></trkpt><trkpt lat="42.9194398" lon="11.8990998"><ele>549.0</ele><time>2026-04-04T11:06:24.05Z</time></trkpt><trkpt lat="42.9193778" lon="11.8989671"><ele>549.0</ele><time>2026-04-04T11:06:25.033Z</time></trkpt><trkpt lat="42.919312" lon="11.8988393"><ele>549.0</ele><time>2026-04-04T11:06:26.037Z</time></trkpt><trkpt lat="42.9192352" lon="11.8987324"><ele>549.0</ele><time>2026-04-04T11:06:27.049Z</time></trkpt><trkpt lat="42.9191509" lon="11.8986538"><ele>549.0</ele><time>2026-04-04T11:06:28.034Z</time></trkpt><trkpt lat="42.9190603" lon="11.8985882"><ele>549.0</ele><time>2026-04-04T11:06:29.055Z</time></trkpt><trkpt lat="42.9189675" lon="11.8985525"><ele>548.0</ele><time>2026-04-04T11:06:30.046Z</time></trkpt><trkpt lat="42.9188729" lon="11.8985491"><ele>547.0</ele><time>2026-04-04T11:06:31.016Z</time></trkpt><trkpt lat="42.9187733" lon="11.8985488"><ele>546.0</ele><time>2026-04-04T11:06:32.045Z</time></trkpt><trkpt lat="42.9186782" lon="11.898534"><ele>545.0</ele><time>2026-04-04T11:06:33.048Z</time></trkpt><trkpt lat="42.9185817" lon="11.8985322"><ele>544.0</ele><time>2026-04-04T11:06:34.055Z</time></trkpt><trkpt lat="42.9184893" lon="11.8985535"><ele>542.0</ele><time>2026-04-04T11:06:35.035Z</time></trkpt><trkpt lat="42.918395" lon="11.8986216"><ele>540.0</ele><time>2026-04-04T11:06:36.028Z</time></trkpt><trkpt lat="42.9183059" lon="11.898722"><ele>538.0</ele><time>2026-04-04T11:06:37.032Z</time></trkpt><trkpt lat="42.9182217" lon="11.8988341"><ele>536.0</ele><time>2026-04-04T11:06:38.031Z</time></trkpt><trkpt lat="42.9181408" lon="11.8989428"><ele>536.0</ele><time>2026-04-04T11:06:39.026Z</time></trkpt><trkpt lat="42.918057" lon="11.8990573"><ele>536.0</ele><time>2026-04-04T11:06:40.053Z</time></trkpt><trkpt lat="42.917973" lon="11.8991656"><ele>536.0</ele><time>2026-04-04T11:06:41.043Z</time></trkpt><trkpt lat="42.917888" lon="11.8992722"><ele>536.0</ele><time>2026-04-04T11:06:42.04Z</time></trkpt><trkpt lat="42.9177968" lon="11.8993726"><ele>531.75</ele><time>2026-04-04T11:06:43.048Z</time></trkpt><trkpt lat="42.9176948" lon="11.8994458"><ele>527.5</ele><time>2026-04-04T11:06:44.04Z</time></trkpt><trkpt lat="42.9175771" lon="11.8994736"><ele>523.25</ele><time>2026-04-04T11:06:45.047Z</time></trkpt><trkpt lat="42.917458" lon="11.8994596"><ele>519.0</ele><time>2026-04-04T11:06:46.047Z</time></trkpt><trkpt lat="42.9173331" lon="11.8994119"><ele>519.0</ele><time>2026-04-04T11:06:47.054Z</time></trkpt><trkpt lat="42.9172208" lon="11.8993258"><ele>519.0</ele><time>2026-04-04T11:06:48.053Z</time></trkpt><trkpt lat="42.9171225" lon="11.8992183"><ele>519.0</ele><time>2026-04-04T11:06:49.051Z</time></trkpt><trkpt lat="42.9170224" lon="11.8991163"><ele>519.0</ele><time>2026-04-04T11:06:50.044Z</time></trkpt><trkpt lat="42.916919" lon="11.8990188"><ele>519.0</ele><time>2026-04-04T11:06:51.044Z</time></trkpt><trkpt lat="42.9168124" lon="11.8989265"><ele>519.0</ele><time>2026-04-04T11:06:52.05Z</time></trkpt><trkpt lat="42.9167107" lon="11.8988259"><ele>519.0</ele><time>2026-04-04T11:06:53.04Z</time></trkpt><trkpt lat="42.916604" lon="11.8987318"><ele>519.0</ele><time>2026-04-04T11:06:54.042Z</time></trkpt><trkpt lat="42.9164951" lon="11.8986373"><ele>519.0</ele><time>2026-04-04T11:06:55.045Z</time></trkpt><trkpt lat="42.916387" lon="11.898537"><ele>519.0</ele><time>2026-04-04T11:06:56.058Z</time></trkpt><trkpt lat="42.9162877" lon="11.898453"><ele>519.0</ele><time>2026-04-04T11:06:57.027Z</time></trkpt><trkpt lat="42.9161824" lon="11.8984062"><ele>519.0</ele><time>2026-04-04T11:06:58.044Z</time></trkpt><trkpt lat="42.9160896" lon="11.8983873"><ele>519.0</ele><time>2026-04-04T11:06:59.043Z</time></trkpt><trkpt lat="42.9160115" lon="11.8984072"><ele>519.0</ele><time>2026-04-04T11:07:00.032Z</time></trkpt><trkpt lat="42.9159395" lon="11.8984666"><ele>519.0</ele><time>2026-04-04T11:07:01.049Z</time></trkpt><trkpt lat="42.9158912" lon="11.8985562"><ele>519.0</ele><time>2026-04-04T11:07:02.023Z</time></trkpt><trkpt lat="42.9158704" lon="11.8986705"><ele>519.0</ele><time>2026-04-04T11:07:03.026Z</time></trkpt><trkpt lat="42.9158701" lon="11.8987964"><ele>519.0</ele><time>2026-04-04T11:07:04.029Z</time></trkpt><trkpt lat="42.9158745" lon="11.8989231"><ele>519.2</ele><time>2026-04-04T11:07:05.014Z</time></trkpt><trkpt lat="42.9158735" lon="11.8990521"><ele>519.4</ele><time>2026-04-04T11:07:06.036Z</time></trkpt><trkpt lat="42.9158379" lon="11.8991586"><ele>519.6</ele><time>2026-04-04T11:07:07.032Z</time></trkpt><trkpt lat="42.9157751" lon="11.8992598"><ele>519.8</ele><time>2026-04-04T11:07:08.04Z</time></trkpt><trkpt lat="42.9157085" lon="11.8993638"><ele>520.0</ele><time>2026-04-04T11:07:09.043Z</time></trkpt><trkpt lat="42.9156516" lon="11.8994904"><ele>515.75</ele><time>2026-04-04T11:07:10.057Z</time></trkpt><trkpt lat="42.9156024" lon="11.8996241"><ele>511.5</ele><time>2026-04-04T11:07:11.051Z</time></trkpt><trkpt lat="42.9155521" lon="11.8997618"><ele>507.25</ele><time>2026-04-04T11:07:12.052Z</time></trkpt><trkpt lat="42.9155024" lon="11.8999015"><ele>503.0</ele><time>2026-04-04T11:07:13.033Z</time></trkpt><trkpt lat="42.9154474" lon="11.9000475"><ele>499.0</ele><time>2026-04-04T11:07:14.044Z</time></trkpt><trkpt lat="42.9153954" lon="11.9002054"><ele>495.0</ele><time>2026-04-04T11:07:15.077Z</time></trkpt><trkpt lat="42.9153482" lon="11.9003567"><ele>491.0</ele><time>2026-04-04T11:07:16.034Z</time></trkpt><trkpt lat="42.9153014" lon="11.9005098"><ele>487.0</ele><time>2026-04-04T11:07:17.053Z</time></trkpt><trkpt lat="42.9152443" lon="11.9006493"><ele>487.0</ele><time>2026-04-04T11:07:18.038Z</time></trkpt><trkpt lat="42.9151665" lon="11.900775"><ele>487.0</ele><time>2026-04-04T11:07:19.038Z</time></trkpt><trkpt lat="42.9150777" lon="11.9008931"><ele>487.0</ele><time>2026-04-04T11:07:20.031Z</time></trkpt><trkpt lat="42.9149803" lon="11.9010119"><ele>487.0</ele><time>2026-04-04T11:07:21.056Z</time></trkpt><trkpt lat="42.9148886" lon="11.9011271"><ele>486.5</ele><time>2026-04-04T11:07:22.027Z</time></trkpt><trkpt lat="42.9148049" lon="11.9012659"><ele>486.0</ele><time>2026-04-04T11:07:23.055Z</time></trkpt><trkpt lat="42.9147378" lon="11.9014094"><ele>485.5</ele><time>2026-04-04T11:07:24.035Z</time></trkpt><trkpt lat="42.9146668" lon="11.9015597"><ele>485.0</ele><time>2026-04-04T11:07:25.036Z</time></trkpt><trkpt lat="42.9145956" lon="11.9017227"><ele>482.25</ele><time>2026-04-04T11:07:26.057Z</time></trkpt><trkpt lat="42.9145284" lon="11.9018785"><ele>479.5</ele><time>2026-04-04T11:07:27.055Z</time></trkpt><trkpt lat="42.9144715" lon="11.902019"><ele>476.75</ele><time>2026-04-04T11:07:28.044Z</time></trkpt><trkpt lat="42.9144228" lon="11.902173"><ele>474.0</ele><time>2026-04-04T11:07:29.049Z</time></trkpt><trkpt lat="42.9143895" lon="11.9023272"><ele>474.0</ele><time>2026-04-04T11:07:30.025Z</time></trkpt><trkpt lat="42.914371" lon="11.9024917"><ele>474.0</ele><time>2026-04-04T11:07:31.053Z</time></trkpt><trkpt lat="42.914358" lon="11.9026364"><ele>474.0</ele><time>2026-04-04T11:07:32.023Z</time></trkpt><trkpt lat="42.9143366" lon="11.9027694"><ele>474.0</ele><time>2026-04-04T11:07:33.036Z</time></trkpt><trkpt lat="42.9143039" lon="11.9028792"><ele>474.0</ele><time>2026-04-04T11:07:34.046Z</time></trkpt><trkpt lat="42.9142579" lon="11.9029774"><ele>474.8333333333333</ele><time>2026-04-04T11:07:35.021Z</time></trkpt><trkpt lat="42.9141803" lon="11.9030609"><ele>475.66666666666663</ele><time>2026-04-04T11:07:36.015Z</time></trkpt><trkpt lat="42.914099" lon="11.9031197"><ele>476.5</ele><time>2026-04-04T11:07:37.019Z</time></trkpt><trkpt lat="42.9140259" lon="11.9031632"><ele>477.3333333333333</ele><time>2026-04-04T11:07:38.025Z</time></trkpt><trkpt lat="42.9139611" lon="11.9032038"><ele>478.16666666666663</ele><time>2026-04-04T11:07:39.036Z</time></trkpt><trkpt lat="42.9139063" lon="11.9032527"><ele>479.0</ele><time>2026-04-04T11:07:40.021Z</time></trkpt><trkpt lat="42.9138569" lon="11.9033085"><ele>476.79999999999995</ele><time>2026-04-04T11:07:41.054Z</time></trkpt><trkpt lat="42.91378" lon="11.9034149"><ele>474.59999999999997</ele><time>2026-04-04T11:07:43.044Z</time></trkpt><trkpt lat="42.9137249" lon="11.903505"><ele>472.4</ele><time>2026-04-04T11:07:45.052Z</time></trkpt><trkpt lat="42.9136728" lon="11.903574"><ele>470.2</ele><time>2026-04-04T11:07:47.011Z</time></trkpt><trkpt lat="42.9135908" lon="11.9036262"><ele>468.0</ele><time>2026-04-04T11:07:50.019Z</time></trkpt><trkpt lat="42.913499" lon="11.9036686"><ele>468.0</ele><time>2026-04-04T11:07:53.014Z</time></trkpt><trkpt lat="42.9134313" lon="11.9036939"><ele>468.00000000000006</ele><time>2026-04-04T11:07:55.009Z</time></trkpt><trkpt lat="42.9133594" lon="11.903708"><ele>468.0</ele><time>2026-04-04T11:07:57.02Z</time></trkpt><trkpt lat="42.9132893" lon="11.9037208"><ele>468.0</ele><time>2026-04-04T11:07:59.02Z</time></trkpt><trkpt lat="42.9132242" lon="11.9037415"><ele>468.00000000000006</ele><time>2026-04-04T11:08:01.017Z</time></trkpt><trkpt lat="42.9131681" lon="11.9037926"><ele>468.0</ele><time>2026-04-04T11:08:03.014Z</time></trkpt><trkpt lat="42.9131176" lon="11.9038625"><ele>468.0</ele><time>2026-04-04T11:08:05.021Z</time></trkpt><trkpt lat="42.9130659" lon="11.9039339"><ele>469.3333333333333</ele><time>2026-04-04T11:08:07.04Z</time></trkpt><trkpt lat="42.9130242" lon="11.9040116"><ele>470.66666666666663</ele><time>2026-04-04T11:08:09.011Z</time></trkpt><trkpt lat="42.912991" lon="11.9040881"><ele>472.0</ele><time>2026-04-04T11:08:11.028Z</time></trkpt><trkpt lat="42.9129393" lon="11.9041969"><ele>473.3333333333333</ele><time>2026-04-04T11:08:14.02Z</time></trkpt><trkpt lat="42.912902" lon="11.9042728"><ele>474.66666666666663</ele><time>2026-04-04T11:08:16.036Z</time></trkpt><trkpt lat="42.9128599" lon="11.9043539"><ele>476.0</ele><time>2026-04-04T11:08:18.042Z</time></trkpt><trkpt lat="42.9128039" lon="11.9044404"><ele>476.0</ele><time>2026-04-04T11:08:20.014Z</time></trkpt><trkpt lat="42.9127561" lon="11.9044965"><ele>476.0</ele><time>2026-04-04T11:08:21.032Z</time></trkpt><trkpt lat="42.9126987" lon="11.9045371"><ele>476.0</ele><time>2026-04-04T11:08:22.043Z</time></trkpt><trkpt lat="42.9126365" lon="11.9045533"><ele>476.0</ele><time>2026-04-04T11:08:23.036Z</time></trkpt><trkpt lat="42.9125722" lon="11.9045516"><ele>476.0</ele><time>2026-04-04T11:08:24.008Z</time></trkpt><trkpt lat="42.9125016" lon="11.9045465"><ele>476.0</ele><time>2026-04-04T11:08:25.024Z</time></trkpt><trkpt lat="42.9124197" lon="11.9045578"><ele>476.0</ele><time>2026-04-04T11:08:26.035Z</time></trkpt><trkpt lat="42.9123435" lon="11.9045904"><ele>477.3333333333333</ele><time>2026-04-04T11:08:27.029Z</time></trkpt><trkpt lat="42.9122706" lon="11.9046387"><ele>478.66666666666663</ele><time>2026-04-04T11:08:28.032Z</time></trkpt><trkpt lat="42.9122034" lon="11.9046965"><ele>480.0</ele><time>2026-04-04T11:08:29.013Z</time></trkpt><trkpt lat="42.9121364" lon="11.9047583"><ele>481.33333333333337</ele><time>2026-04-04T11:08:30.055Z</time></trkpt><trkpt lat="42.9120734" lon="11.9048084"><ele>482.6666666666667</ele><time>2026-04-04T11:08:31.054Z</time></trkpt><trkpt lat="42.912016" lon="11.9048622"><ele>484.0</ele><time>2026-04-04T11:08:32.03Z</time></trkpt><trkpt lat="42.9119599" lon="11.9049149"><ele>484.00000000000006</ele><time>2026-04-04T11:08:33.022Z</time></trkpt><trkpt lat="42.9119036" lon="11.9049655"><ele>484.0</ele><time>2026-04-04T11:08:34.035Z</time></trkpt><trkpt lat="42.9118074" lon="11.9050278"><ele>484.0</ele><time>2026-04-04T11:08:36.019Z</time></trkpt><trkpt lat="42.9117349" lon="11.9050879"><ele>484.0</ele><time>2026-04-04T11:08:38.016Z</time></trkpt><trkpt lat="42.9116636" lon="11.9051577"><ele>484.00000000000006</ele><time>2026-04-04T11:08:41.031Z</time></trkpt><trkpt lat="42.9116092" lon="11.9052556"><ele>484.0</ele><time>2026-04-04T11:08:44.022Z</time></trkpt><trkpt lat="42.9115278" lon="11.9053329"><ele>483.00000000000006</ele><time>2026-04-04T11:08:46.053Z</time></trkpt><trkpt lat="42.9114076" lon="11.905378"><ele>482.0</ele><time>2026-04-04T11:08:48.046Z</time></trkpt><trkpt lat="42.9113439" lon="11.9054053"><ele>481.0</ele><time>2026-04-04T11:08:49.041Z</time></trkpt><trkpt lat="42.911276" lon="11.9054365"><ele>480.0</ele><time>2026-04-04T11:08:50.025Z</time></trkpt><trkpt lat="42.9112042" lon="11.9054828"><ele>479.00000000000006</ele><time>2026-04-04T11:08:51.059Z</time></trkpt><trkpt lat="42.911132" lon="11.9055307"><ele>478.0</ele><time>2026-04-04T11:08:52.033Z</time></trkpt><trkpt lat="42.9110593" lon="11.9055961"><ele>478.0</ele><time>2026-04-04T11:08:53.066Z</time></trkpt><trkpt lat="42.910985" lon="11.9056662"><ele>477.99999999999994</ele><time>2026-04-04T11:08:54.044Z</time></trkpt><trkpt lat="42.9109103" lon="11.905747"><ele>477.99999999999994</ele><time>2026-04-04T11:08:55.057Z</time></trkpt><trkpt lat="42.9108333" lon="11.9058277"><ele>478.0</ele><time>2026-04-04T11:08:56.047Z</time></trkpt><trkpt lat="42.9107554" lon="11.905913"><ele>478.0</ele><time>2026-04-04T11:08:57.024Z</time></trkpt><trkpt lat="42.9106719" lon="11.9060145"><ele>475.5</ele><time>2026-04-04T11:08:58.061Z</time></trkpt><trkpt lat="42.9105837" lon="11.9061038"><ele>473.0</ele><time>2026-04-04T11:08:59.059Z</time></trkpt><trkpt lat="42.9104939" lon="11.9061796"><ele>470.5</ele><time>2026-04-04T11:09:00.008Z</time></trkpt><trkpt lat="42.9103943" lon="11.9062636"><ele>468.0</ele><time>2026-04-04T11:09:01.038Z</time></trkpt><trkpt lat="42.9102887" lon="11.9063424"><ele>468.0</ele><time>2026-04-04T11:09:02.025Z</time></trkpt><trkpt lat="42.910197" lon="11.906421"><ele>467.99999999999994</ele><time>2026-04-04T11:09:03.029Z</time></trkpt><trkpt lat="42.9101002" lon="11.9065025"><ele>467.99999999999994</ele><time>2026-04-04T11:09:04.035Z</time></trkpt><trkpt lat="42.9100172" lon="11.9065991"><ele>468.0</ele><time>2026-04-04T11:09:05.069Z</time></trkpt><trkpt lat="42.9099508" lon="11.9067143"><ele>468.0</ele><time>2026-04-04T11:09:06.035Z</time></trkpt><trkpt lat="42.9098944" lon="11.9068387"><ele>466.0</ele><time>2026-04-04T11:09:07.042Z</time></trkpt><trkpt lat="42.9098326" lon="11.9069617"><ele>464.0</ele><time>2026-04-04T11:09:08.046Z</time></trkpt><trkpt lat="42.909763" lon="11.9070844"><ele>462.0</ele><time>2026-04-04T11:09:09.063Z</time></trkpt><trkpt lat="42.9096891" lon="11.9072006"><ele>460.0</ele><time>2026-04-04T11:09:10.041Z</time></trkpt><trkpt lat="42.9096228" lon="11.9073297"><ele>460.0</ele><time>2026-04-04T11:09:11.053Z</time></trkpt><trkpt lat="42.9095703" lon="11.9074682"><ele>460.0</ele><time>2026-04-04T11:09:12.04Z</time></trkpt><trkpt lat="42.9095222" lon="11.9076142"><ele>460.0</ele><time>2026-04-04T11:09:13.031Z</time></trkpt><trkpt lat="42.9094717" lon="11.9077629"><ele>460.0</ele><time>2026-04-04T11:09:14.046Z</time></trkpt><trkpt lat="42.9094218" lon="11.9079088"><ele>458.0</ele><time>2026-04-04T11:09:15.035Z</time></trkpt><trkpt lat="42.9093703" lon="11.908059"><ele>456.0</ele><time>2026-04-04T11:09:16.031Z</time></trkpt><trkpt lat="42.9093167" lon="11.908211"><ele>454.0</ele><time>2026-04-04T11:09:17.031Z</time></trkpt><trkpt lat="42.9092605" lon="11.9083637"><ele>452.0</ele><time>2026-04-04T11:09:18.036Z</time></trkpt><trkpt lat="42.9092013" lon="11.9085166"><ele>452.0</ele><time>2026-04-04T11:09:19.03Z</time></trkpt><trkpt lat="42.9091385" lon="11.9086717"><ele>452.0</ele><time>2026-04-04T11:09:20.04Z</time></trkpt><trkpt lat="42.9090745" lon="11.9088338"><ele>452.0</ele><time>2026-04-04T11:09:21.06Z</time></trkpt><trkpt lat="42.9090171" lon="11.9089963"><ele>452.0</ele><time>2026-04-04T11:09:22.042Z</time></trkpt><trkpt lat="42.9089586" lon="11.9091685"><ele>449.5</ele><time>2026-04-04T11:09:23.06Z</time></trkpt><trkpt lat="42.9089089" lon="11.909344"><ele>447.0</ele><time>2026-04-04T11:09:24.043Z</time></trkpt><trkpt lat="42.9088562" lon="11.909528"><ele>444.5</ele><time>2026-04-04T11:09:25.059Z</time></trkpt><trkpt lat="42.9088075" lon="11.9097049"><ele>442.0</ele><time>2026-04-04T11:09:26.034Z</time></trkpt><trkpt lat="42.9087619" lon="11.9098823"><ele>442.0</ele><time>2026-04-04T11:09:27.024Z</time></trkpt><trkpt lat="42.9087208" lon="11.9100409"><ele>442.0</ele><time>2026-04-04T11:09:28.016Z</time></trkpt><trkpt lat="42.9086801" lon="11.9101857"><ele>442.0</ele><time>2026-04-04T11:09:29.025Z</time></trkpt><trkpt lat="42.9086325" lon="11.9103154"><ele>442.0</ele><time>2026-04-04T11:09:30.027Z</time></trkpt><trkpt lat="42.9085694" lon="11.9104361"><ele>441.0</ele><time>2026-04-04T11:09:31.042Z</time></trkpt><trkpt lat="42.9084953" lon="11.9105446"><ele>440.0</ele><time>2026-04-04T11:09:32.027Z</time></trkpt><trkpt lat="42.9084092" lon="11.9106523"><ele>439.0</ele><time>2026-04-04T11:09:33.029Z</time></trkpt><trkpt lat="42.9083219" lon="11.9107582"><ele>438.0</ele><time>2026-04-04T11:09:34.016Z</time></trkpt><trkpt lat="42.9082303" lon="11.9108696"><ele>436.59999999999997</ele><time>2026-04-04T11:09:35.029Z</time></trkpt><trkpt lat="42.9081363" lon="11.9109726"><ele>435.19999999999993</ele><time>2026-04-04T11:09:36.027Z</time></trkpt><trkpt lat="42.9080483" lon="11.9110657"><ele>433.8</ele><time>2026-04-04T11:09:37.049Z</time></trkpt><trkpt lat="42.9079771" lon="11.9111546"><ele>432.4</ele><time>2026-04-04T11:09:38.056Z</time></trkpt><trkpt lat="42.9079176" lon="11.9112296"><ele>431.0</ele><time>2026-04-04T11:09:39.039Z</time></trkpt><trkpt lat="42.907863" lon="11.911295"><ele>430.99999999999994</ele><time>2026-04-04T11:09:40.057Z</time></trkpt><trkpt lat="42.9078083" lon="11.9113493"><ele>431.0</ele><time>2026-04-04T11:09:41.05Z</time></trkpt><trkpt lat="42.9077438" lon="11.9113564"><ele>431.0</ele><time>2026-04-04T11:09:42.05Z</time></trkpt><trkpt lat="42.9076658" lon="11.9113242"><ele>431.0</ele><time>2026-04-04T11:09:43.029Z</time></trkpt><trkpt lat="42.9076211" lon="11.9112502"><ele>430.99999999999994</ele><time>2026-04-04T11:09:44.033Z</time></trkpt><trkpt lat="42.9075195" lon="11.9112275"><ele>431.0</ele><time>2026-04-04T11:09:46.045Z</time></trkpt><trkpt lat="42.9074769" lon="11.9113742"><ele>429.66666666666663</ele><time>2026-04-04T11:09:48.048Z</time></trkpt><trkpt lat="42.9074964" lon="11.9114953"><ele>428.3333333333333</ele><time>2026-04-04T11:09:49.07Z</time></trkpt><trkpt lat="42.9075142" lon="11.9116081"><ele>427.0</ele><time>2026-04-04T11:09:50.038Z</time></trkpt><trkpt lat="42.9075386" lon="11.9117312"><ele>425.66666666666663</ele><time>2026-04-04T11:09:51.047Z</time></trkpt><trkpt lat="42.9075552" lon="11.911851"><ele>424.3333333333333</ele><time>2026-04-04T11:09:52.062Z</time></trkpt><trkpt lat="42.9075635" lon="11.9119528"><ele>423.0</ele><time>2026-04-04T11:09:53.022Z</time></trkpt><trkpt lat="42.907574" lon="11.9120397"><ele>421.79999999999995</ele><time>2026-04-04T11:09:54.032Z</time></trkpt><trkpt lat="42.9075818" lon="11.9121981"><ele>420.6</ele><time>2026-04-04T11:09:56.027Z</time></trkpt><trkpt lat="42.9075052" lon="11.9123298"><ele>419.4</ele><time>2026-04-04T11:09:58.02Z</time></trkpt><trkpt lat="42.9074429" lon="11.9123892"><ele>418.20000000000005</ele><time>2026-04-04T11:09:59.034Z</time></trkpt><trkpt lat="42.9073756" lon="11.9124303"><ele>417.0</ele><time>2026-04-04T11:10:00.057Z</time></trkpt><trkpt lat="42.9072616" lon="11.912465"><ele>416.8333333333333</ele><time>2026-04-04T11:10:02.021Z</time></trkpt><trkpt lat="42.9072309" lon="11.9123729"><ele>416.66666666666663</ele><time>2026-04-04T11:10:09.034Z</time></trkpt><trkpt lat="42.9072195" lon="11.9122878"><ele>416.5</ele><time>2026-04-04T11:10:11.032Z</time></trkpt><trkpt lat="42.9071839" lon="11.9121905"><ele>416.3333333333333</ele><time>2026-04-04T11:10:13.029Z</time></trkpt><trkpt lat="42.9071377" lon="11.9120699"><ele>416.16666666666663</ele><time>2026-04-04T11:10:15.03Z</time></trkpt><trkpt lat="42.9070864" lon="11.9119373"><ele>416.0</ele><time>2026-04-04T11:10:17.027Z</time></trkpt><trkpt lat="42.9070399" lon="11.9117923"><ele>417.75</ele><time>2026-04-04T11:10:19.053Z</time></trkpt><trkpt lat="42.9070029" lon="11.9116408"><ele>419.5</ele><time>2026-04-04T11:10:21.039Z</time></trkpt><trkpt lat="42.9069618" lon="11.911487"><ele>421.25</ele><time>2026-04-04T11:10:23.057Z</time></trkpt><trkpt lat="42.906893" lon="11.9113559"><ele>423.0</ele><time>2026-04-04T11:10:25.049Z</time></trkpt><trkpt lat="42.9068024" lon="11.9112452"><ele>421.0</ele><time>2026-04-04T11:10:27.039Z</time></trkpt><trkpt lat="42.9067026" lon="11.9111759"><ele>419.0</ele><time>2026-04-04T11:10:29.057Z</time></trkpt><trkpt lat="42.9066068" lon="11.9111477"><ele>417.0</ele><time>2026-04-04T11:10:31.039Z</time></trkpt><trkpt lat="42.9065278" lon="11.9111424"><ele>415.0</ele><time>2026-04-04T11:10:32.997Z</time></trkpt><trkpt lat="42.9064506" lon="11.9111708"><ele>413.0</ele><time>2026-04-04T11:10:36.045Z</time></trkpt><trkpt lat="42.906409" lon="11.9113016"><ele>413.0</ele><time>2026-04-04T11:10:39.048Z</time></trkpt><trkpt lat="42.906441" lon="11.9114483"><ele>413.0</ele><time>2026-04-04T11:10:41.036Z</time></trkpt><trkpt lat="42.9064802" lon="11.9116047"><ele>413.0</ele><time>2026-04-04T11:10:43.03Z</time></trkpt><trkpt lat="42.9064951" lon="11.9116887"><ele>413.0</ele><time>2026-04-04T11:10:44.054Z</time></trkpt><trkpt lat="42.9065202" lon="11.9118563"><ele>413.0</ele><time>2026-04-04T11:10:46.034Z</time></trkpt><trkpt lat="42.9065351" lon="11.9119456"><ele>412.3333333333333</ele><time>2026-04-04T11:10:47.075Z</time></trkpt><trkpt lat="42.9065619" lon="11.9121189"><ele>411.66666666666663</ele><time>2026-04-04T11:10:49.025Z</time></trkpt><trkpt lat="42.9065765" lon="11.9122102"><ele>411.0</ele><time>2026-04-04T11:10:50.039Z</time></trkpt><trkpt lat="42.9065924" lon="11.9122988"><ele>410.33333333333337</ele><time>2026-04-04T11:10:51.051Z</time></trkpt><trkpt lat="42.9066056" lon="11.9123849"><ele>409.6666666666667</ele><time>2026-04-04T11:10:52.021Z</time></trkpt><trkpt lat="42.9066167" lon="11.9124749"><ele>409.0</ele><time>2026-04-04T11:10:53.033Z</time></trkpt><trkpt lat="42.9066289" lon="11.9125604"><ele>409.00000000000006</ele><time>2026-04-04T11:10:54.022Z</time></trkpt><trkpt lat="42.9066403" lon="11.9126498"><ele>409.0</ele><time>2026-04-04T11:10:55.039Z</time></trkpt><trkpt lat="42.9066537" lon="11.9127346"><ele>409.0</ele><time>2026-04-04T11:10:56.031Z</time></trkpt><trkpt lat="42.9066879" lon="11.9128998"><ele>409.0</ele><time>2026-04-04T11:10:58.045Z</time></trkpt><trkpt lat="42.9067041" lon="11.9129832"><ele>409.00000000000006</ele><time>2026-04-04T11:10:59.054Z</time></trkpt><trkpt lat="42.9067398" lon="11.9131471"><ele>409.0</ele><time>2026-04-04T11:11:01.031Z</time></trkpt><trkpt lat="42.9067598" lon="11.9132335"><ele>409.0</ele><time>2026-04-04T11:11:02.032Z</time></trkpt><trkpt lat="42.9067821" lon="11.9133229"><ele>409.0</ele><time>2026-04-04T11:11:03.053Z</time></trkpt><trkpt lat="42.906802" lon="11.9134106"><ele>409.0</ele><time>2026-04-04T11:11:04.043Z</time></trkpt><trkpt lat="42.9068245" lon="11.9134989"><ele>409.0</ele><time>2026-04-04T11:11:05.037Z</time></trkpt><trkpt lat="42.9068537" lon="11.9135887"><ele>409.0</ele><time>2026-04-04T11:11:06.053Z</time></trkpt><trkpt lat="42.9068907" lon="11.9136659"><ele>409.0</ele><time>2026-04-04T11:11:07.035Z</time></trkpt><trkpt lat="42.9069404" lon="11.9137342"><ele>409.0</ele><time>2026-04-04T11:11:08.031Z</time></trkpt><trkpt lat="42.9069976" lon="11.9137945"><ele>408.4285714285714</ele><time>2026-04-04T11:11:09.035Z</time></trkpt><trkpt lat="42.9070597" lon="11.9138427"><ele>407.8571428571429</ele><time>2026-04-04T11:11:10.028Z</time></trkpt><trkpt lat="42.9071234" lon="11.9138889"><ele>407.2857142857143</ele><time>2026-04-04T11:11:11.028Z</time></trkpt><trkpt lat="42.9071863" lon="11.9139366"><ele>406.71428571428567</ele><time>2026-04-04T11:11:12.033Z</time></trkpt><trkpt lat="42.9072518" lon="11.9139846"><ele>406.1428571428571</ele><time>2026-04-04T11:11:13.048Z</time></trkpt><trkpt lat="42.9073131" lon="11.9140298"><ele>405.57142857142856</ele><time>2026-04-04T11:11:14.032Z</time></trkpt><trkpt lat="42.9073775" lon="11.9140732"><ele>405.0</ele><time>2026-04-04T11:11:15.057Z</time></trkpt><trkpt lat="42.9074379" lon="11.9141192"><ele>404.99999999999994</ele><time>2026-04-04T11:11:16.05Z</time></trkpt><trkpt lat="42.9074891" lon="11.9141831"><ele>405.0</ele><time>2026-04-04T11:11:17.047Z</time></trkpt><trkpt lat="42.9075298" lon="11.9142553"><ele>405.0</ele><time>2026-04-04T11:11:18.022Z</time></trkpt><trkpt lat="42.9075335" lon="11.9143681"><ele>405.0</ele><time>2026-04-04T11:11:19.041Z</time></trkpt><trkpt lat="42.9075436" lon="11.9144679"><ele>405.0</ele><time>2026-04-04T11:11:20.047Z</time></trkpt><trkpt lat="42.9075489" lon="11.9145696"><ele>404.99999999999994</ele><time>2026-04-04T11:11:21.037Z</time></trkpt><trkpt lat="42.9075445" lon="11.9146749"><ele>405.0</ele><time>2026-04-04T11:11:22.044Z</time></trkpt><trkpt lat="42.9075313" lon="11.9147803"><ele>404.1666666666667</ele><time>2026-04-04T11:11:23.031Z</time></trkpt><trkpt lat="42.9075197" lon="11.9148925"><ele>403.33333333333337</ele><time>2026-04-04T11:11:24.045Z</time></trkpt><trkpt lat="42.9075033" lon="11.9150075"><ele>402.5</ele><time>2026-04-04T11:11:25.072Z</time></trkpt><trkpt lat="42.9074815" lon="11.9151155"><ele>401.6666666666667</ele><time>2026-04-04T11:11:26.032Z</time></trkpt><trkpt lat="42.9074582" lon="11.9152319"><ele>400.83333333333337</ele><time>2026-04-04T11:11:27.047Z</time></trkpt><trkpt lat="42.9074368" lon="11.9153473"><ele>400.0</ele><time>2026-04-04T11:11:28.043Z</time></trkpt><trkpt lat="42.9074092" lon="11.915464"><ele>399.33333333333337</ele><time>2026-04-04T11:11:29.055Z</time></trkpt><trkpt lat="42.9073796" lon="11.9155796"><ele>398.6666666666667</ele><time>2026-04-04T11:11:30.074Z</time></trkpt><trkpt lat="42.9073489" lon="11.9156882"><ele>398.0</ele><time>2026-04-04T11:11:31.033Z</time></trkpt><trkpt lat="42.9073162" lon="11.9158071"><ele>397.33333333333337</ele><time>2026-04-04T11:11:32.073Z</time></trkpt><trkpt lat="42.9072835" lon="11.9159178"><ele>396.6666666666667</ele><time>2026-04-04T11:11:33.05Z</time></trkpt><trkpt lat="42.9072615" lon="11.9160368"><ele>396.0</ele><time>2026-04-04T11:11:34.04Z</time></trkpt><trkpt lat="42.9072583" lon="11.9161642"><ele>395.4</ele><time>2026-04-04T11:11:35.066Z</time></trkpt><trkpt lat="42.9072644" lon="11.9162837"><ele>394.8</ele><time>2026-04-04T11:11:36.027Z</time></trkpt><trkpt lat="42.9072666" lon="11.9164136"><ele>394.2</ele><time>2026-04-04T11:11:37.051Z</time></trkpt><trkpt lat="42.9072657" lon="11.9165442"><ele>393.59999999999997</ele><time>2026-04-04T11:11:38.065Z</time></trkpt><trkpt lat="42.9072658" lon="11.9166748"><ele>393.0</ele><time>2026-04-04T11:11:39.039Z</time></trkpt><trkpt lat="42.907256" lon="11.9168042"><ele>392.4</ele><time>2026-04-04T11:11:40.04Z</time></trkpt><trkpt lat="42.9072481" lon="11.9169395"><ele>391.79999999999995</ele><time>2026-04-04T11:11:41.034Z</time></trkpt><trkpt lat="42.9072518" lon="11.9170773"><ele>391.2</ele><time>2026-04-04T11:11:42.026Z</time></trkpt><trkpt lat="42.907252" lon="11.9172231"><ele>390.6</ele><time>2026-04-04T11:11:43.058Z</time></trkpt><trkpt lat="42.9072497" lon="11.9173611"><ele>390.0</ele><time>2026-04-04T11:11:44.035Z</time></trkpt><trkpt lat="42.9072549" lon="11.9174975"><ele>390.0</ele><time>2026-04-04T11:11:45.044Z</time></trkpt><trkpt lat="42.9072549" lon="11.9176315"><ele>390.0</ele><time>2026-04-04T11:11:46.059Z</time></trkpt><trkpt lat="42.9072559" lon="11.9177611"><ele>390.0</ele><time>2026-04-04T11:11:47.054Z</time></trkpt><trkpt lat="42.9072628" lon="11.9178868"><ele>390.0</ele><time>2026-04-04T11:11:48.034Z</time></trkpt><trkpt lat="42.9072668" lon="11.9180151"><ele>390.0</ele><time>2026-04-04T11:11:49.056Z</time></trkpt><trkpt lat="42.9072599" lon="11.9181379"><ele>390.0</ele><time>2026-04-04T11:11:50.037Z</time></trkpt><trkpt lat="42.907231" lon="11.918261"><ele>390.0</ele><time>2026-04-04T11:11:51.032Z</time></trkpt><trkpt lat="42.9071829" lon="11.9183742"><ele>390.0</ele><time>2026-04-04T11:11:52.024Z</time></trkpt><trkpt lat="42.907125" lon="11.9184906"><ele>390.0</ele><time>2026-04-04T11:11:53.042Z</time></trkpt><trkpt lat="42.9070728" lon="11.9186103"><ele>390.0</ele><time>2026-04-04T11:11:54.032Z</time></trkpt><trkpt lat="42.9070178" lon="11.918734"><ele>388.0</ele><time>2026-04-04T11:11:55.033Z</time></trkpt><trkpt lat="42.9069703" lon="11.9188425"><ele>386.0</ele><time>2026-04-04T11:11:56.056Z</time></trkpt><trkpt lat="42.9069283" lon="11.918945"><ele>384.0</ele><time>2026-04-04T11:11:57.04Z</time></trkpt><trkpt lat="42.9068859" lon="11.9190535"><ele>382.0</ele><time>2026-04-04T11:11:58.024Z</time></trkpt><trkpt lat="42.906839" lon="11.9191742"><ele>380.0</ele><time>2026-04-04T11:11:59.045Z</time></trkpt><trkpt lat="42.9067864" lon="11.9192841"><ele>379.6</ele><time>2026-04-04T11:12:00.031Z</time></trkpt><trkpt lat="42.9067431" lon="11.9194042"><ele>379.2</ele><time>2026-04-04T11:12:01.046Z</time></trkpt><trkpt lat="42.9067043" lon="11.919524"><ele>378.79999999999995</ele><time>2026-04-04T11:12:02.042Z</time></trkpt><trkpt lat="42.90668" lon="11.9196541"><ele>378.4</ele><time>2026-04-04T11:12:03.051Z</time></trkpt><trkpt lat="42.9066636" lon="11.9197796"><ele>378.0</ele><time>2026-04-04T11:12:04.037Z</time></trkpt><trkpt lat="42.9066535" lon="11.9199093"><ele>378.0</ele><time>2026-04-04T11:12:05.042Z</time></trkpt><trkpt lat="42.9066515" lon="11.9200441"><ele>378.0</ele><time>2026-04-04T11:12:06.047Z</time></trkpt><trkpt lat="42.9066469" lon="11.920175"><ele>378.0</ele><time>2026-04-04T11:12:07.033Z</time></trkpt><trkpt lat="42.9066356" lon="11.9203099"><ele>378.0</ele><time>2026-04-04T11:12:08.043Z</time></trkpt><trkpt lat="42.9066253" lon="11.9204438"><ele>378.0</ele><time>2026-04-04T11:12:09.029Z</time></trkpt><trkpt lat="42.9066134" lon="11.9205795"><ele>377.4</ele><time>2026-04-04T11:12:10.021Z</time></trkpt><trkpt lat="42.9065996" lon="11.9207221"><ele>376.79999999999995</ele><time>2026-04-04T11:12:11.058Z</time></trkpt><trkpt lat="42.9065811" lon="11.9208555"><ele>376.2</ele><time>2026-04-04T11:12:12.035Z</time></trkpt><trkpt lat="42.9065565" lon="11.9209976"><ele>375.6</ele><time>2026-04-04T11:12:13.076Z</time></trkpt><trkpt lat="42.9065314" lon="11.9211301"><ele>375.0</ele><time>2026-04-04T11:12:14.045Z</time></trkpt><trkpt lat="42.9065061" lon="11.9212669"><ele>373.8</ele><time>2026-04-04T11:12:15.065Z</time></trkpt><trkpt lat="42.9064659" lon="11.9214022"><ele>372.6</ele><time>2026-04-04T11:12:16.045Z</time></trkpt><trkpt lat="42.9064215" lon="11.9215412"><ele>371.4</ele><time>2026-04-04T11:12:17.063Z</time></trkpt><trkpt lat="42.9063806" lon="11.9216767"><ele>370.2</ele><time>2026-04-04T11:12:18.034Z</time></trkpt><trkpt lat="42.9063352" lon="11.9218186"><ele>369.0</ele><time>2026-04-04T11:12:19.046Z</time></trkpt><trkpt lat="42.906282" lon="11.9219584"><ele>367.2</ele><time>2026-04-04T11:12:20.058Z</time></trkpt><trkpt lat="42.9062401" lon="11.9220999"><ele>365.4</ele><time>2026-04-04T11:12:21.053Z</time></trkpt><trkpt lat="42.9061987" lon="11.9222397"><ele>363.6</ele><time>2026-04-04T11:12:22.039Z</time></trkpt><trkpt lat="42.9061623" lon="11.922386"><ele>361.8</ele><time>2026-04-04T11:12:23.06Z</time></trkpt><trkpt lat="42.9061272" lon="11.9225178"><ele>360.0</ele><time>2026-04-04T11:12:24.042Z</time></trkpt><trkpt lat="42.9060762" lon="11.9226538"><ele>360.6</ele><time>2026-04-04T11:12:25.058Z</time></trkpt><trkpt lat="42.9060246" lon="11.9227726"><ele>361.2</ele><time>2026-04-04T11:12:26.037Z</time></trkpt><trkpt lat="42.9059666" lon="11.9228921"><ele>361.79999999999995</ele><time>2026-04-04T11:12:27.063Z</time></trkpt><trkpt lat="42.9059221" lon="11.9230027"><ele>362.4</ele><time>2026-04-04T11:12:28.032Z</time></trkpt><trkpt lat="42.9058758" lon="11.923116"><ele>363.0</ele><time>2026-04-04T11:12:29.063Z</time></trkpt><trkpt lat="42.9058373" lon="11.9232265"><ele>363.0</ele><time>2026-04-04T11:12:30.037Z</time></trkpt><trkpt lat="42.9058092" lon="11.9233453"><ele>363.0</ele><time>2026-04-04T11:12:31.063Z</time></trkpt><trkpt lat="42.9057924" lon="11.9234592"><ele>363.0</ele><time>2026-04-04T11:12:32.052Z</time></trkpt><trkpt lat="42.9057836" lon="11.9235758"><ele>363.0</ele><time>2026-04-04T11:12:33.063Z</time></trkpt><trkpt lat="42.9057792" lon="11.9236864"><ele>363.0</ele><time>2026-04-04T11:12:34.061Z</time></trkpt><trkpt lat="42.9057799" lon="11.9237943"><ele>363.0</ele><time>2026-04-04T11:12:35.061Z</time></trkpt><trkpt lat="42.9057791" lon="11.923894"><ele>363.1428571428571</ele><time>2026-04-04T11:12:36.031Z</time></trkpt><trkpt lat="42.905781" lon="11.923997"><ele>363.2857142857143</ele><time>2026-04-04T11:12:37.046Z</time></trkpt><trkpt lat="42.9057818" lon="11.9240985"><ele>363.42857142857144</ele><time>2026-04-04T11:12:38.06Z</time></trkpt><trkpt lat="42.9057834" lon="11.9241966"><ele>363.57142857142856</ele><time>2026-04-04T11:12:39.068Z</time></trkpt><trkpt lat="42.9057858" lon="11.9242913"><ele>363.7142857142857</ele><time>2026-04-04T11:12:40.034Z</time></trkpt><trkpt lat="42.905786" lon="11.9243871"><ele>363.85714285714283</ele><time>2026-04-04T11:12:41.036Z</time></trkpt><trkpt lat="42.9057861" lon="11.9244838"><ele>364.0</ele><time>2026-04-04T11:12:42.058Z</time></trkpt><trkpt lat="42.9057832" lon="11.9245747"><ele>364.2857142857143</ele><time>2026-04-04T11:12:43.045Z</time></trkpt><trkpt lat="42.9057789" lon="11.924669"><ele>364.57142857142856</ele><time>2026-04-04T11:12:44.061Z</time></trkpt><trkpt lat="42.905772" lon="11.9247558"><ele>364.8571428571429</ele><time>2026-04-04T11:12:45.027Z</time></trkpt><trkpt lat="42.905766" lon="11.9248467"><ele>365.1428571428571</ele><time>2026-04-04T11:12:46.029Z</time></trkpt><trkpt lat="42.9057542" lon="11.9249395"><ele>365.42857142857144</ele><time>2026-04-04T11:12:47.066Z</time></trkpt><trkpt lat="42.9057321" lon="11.9250254"><ele>365.7142857142857</ele><time>2026-04-04T11:12:48.047Z</time></trkpt><trkpt lat="42.905704" lon="11.9251101"><ele>366.0</ele><time>2026-04-04T11:12:49.021Z</time></trkpt><trkpt lat="42.9056733" lon="11.9251971"><ele>364.6666666666667</ele><time>2026-04-04T11:12:50.035Z</time></trkpt><trkpt lat="42.9056418" lon="11.9252885"><ele>363.3333333333333</ele><time>2026-04-04T11:12:51.059Z</time></trkpt><trkpt lat="42.9056066" lon="11.9253818"><ele>362.0</ele><time>2026-04-04T11:12:52.074Z</time></trkpt><trkpt lat="42.9055743" lon="11.9254745"><ele>360.66666666666663</ele><time>2026-04-04T11:12:53.056Z</time></trkpt><trkpt lat="42.905538" lon="11.9255678"><ele>359.3333333333333</ele><time>2026-04-04T11:12:54.053Z</time></trkpt><trkpt lat="42.9055032" lon="11.9256682"><ele>358.0</ele><time>2026-04-04T11:12:55.045Z</time></trkpt><trkpt lat="42.9054656" lon="11.9257726"><ele>358.0</ele><time>2026-04-04T11:12:56.061Z</time></trkpt><trkpt lat="42.9054264" lon="11.9258735"><ele>358.0</ele><time>2026-04-04T11:12:57.072Z</time></trkpt><trkpt lat="42.9053897" lon="11.9259712"><ele>358.0</ele><time>2026-04-04T11:12:58.04Z</time></trkpt><trkpt lat="42.9053533" lon="11.9260734"><ele>358.0</ele><time>2026-04-04T11:12:59.045Z</time></trkpt><trkpt lat="42.9053157" lon="11.9261782"><ele>358.0</ele><time>2026-04-04T11:13:00.076Z</time></trkpt><trkpt lat="42.9052811" lon="11.9262764"><ele>358.0</ele><time>2026-04-04T11:13:01.046Z</time></trkpt><trkpt lat="42.905243" lon="11.9263799"><ele>357.8333333333333</ele><time>2026-04-04T11:13:02.071Z</time></trkpt><trkpt lat="42.9052111" lon="11.9264788"><ele>357.66666666666663</ele><time>2026-04-04T11:13:03.04Z</time></trkpt><trkpt lat="42.9051765" lon="11.9265815"><ele>357.5</ele><time>2026-04-04T11:13:04.063Z</time></trkpt><trkpt lat="42.9051469" lon="11.9266825"><ele>357.3333333333333</ele><time>2026-04-04T11:13:05.06Z</time></trkpt><trkpt lat="42.9051208" lon="11.9267816"><ele>357.1666666666667</ele><time>2026-04-04T11:13:06.035Z</time></trkpt><trkpt lat="42.9050969" lon="11.9268803"><ele>357.0</ele><time>2026-04-04T11:13:07.023Z</time></trkpt><trkpt lat="42.9050741" lon="11.9269807"><ele>357.0</ele><time>2026-04-04T11:13:08.04Z</time></trkpt><trkpt lat="42.9050531" lon="11.927083"><ele>357.0</ele><time>2026-04-04T11:13:09.052Z</time></trkpt><trkpt lat="42.9050353" lon="11.9271799"><ele>357.0</ele><time>2026-04-04T11:13:10.036Z</time></trkpt><trkpt lat="42.9050169" lon="11.9272754"><ele>357.0</ele><time>2026-04-04T11:13:11.018Z</time></trkpt><trkpt lat="42.9049995" lon="11.9273787"><ele>357.0</ele><time>2026-04-04T11:13:12.058Z</time></trkpt><trkpt lat="42.9049856" lon="11.9274707"><ele>357.0</ele><time>2026-04-04T11:13:13.025Z</time></trkpt><trkpt lat="42.904971" lon="11.9275685"><ele>357.0</ele><time>2026-04-04T11:13:14.046Z</time></trkpt><trkpt lat="42.9049583" lon="11.9276623"><ele>357.2857142857143</ele><time>2026-04-04T11:13:15.029Z</time></trkpt><trkpt lat="42.9049456" lon="11.9277568"><ele>357.57142857142856</ele><time>2026-04-04T11:13:16.031Z</time></trkpt><trkpt lat="42.9049351" lon="11.9278519"><ele>357.8571428571429</ele><time>2026-04-04T11:13:17.049Z</time></trkpt><trkpt lat="42.9049291" lon="11.9279448"><ele>358.1428571428571</ele><time>2026-04-04T11:13:18.058Z</time></trkpt><trkpt lat="42.9049231" lon="11.9280365"><ele>358.42857142857144</ele><time>2026-04-04T11:13:19.057Z</time></trkpt><trkpt lat="42.9049204" lon="11.9281265"><ele>358.7142857142857</ele><time>2026-04-04T11:13:20.045Z</time></trkpt><trkpt lat="42.9049212" lon="11.9282186"><ele>359.0</ele><time>2026-04-04T11:13:21.054Z</time></trkpt><trkpt lat="42.9049248" lon="11.9283074"><ele>359.2857142857143</ele><time>2026-04-04T11:13:22.037Z</time></trkpt><trkpt lat="42.9049341" lon="11.9284004"><ele>359.57142857142856</ele><time>2026-04-04T11:13:23.065Z</time></trkpt><trkpt lat="42.9049451" lon="11.9284904"><ele>359.8571428571429</ele><time>2026-04-04T11:13:24.06Z</time></trkpt><trkpt lat="42.9049578" lon="11.9285798"><ele>360.1428571428571</ele><time>2026-04-04T11:13:25.058Z</time></trkpt><trkpt lat="42.90497" lon="11.9286696"><ele>360.4285714285714</ele><time>2026-04-04T11:13:26.06Z</time></trkpt><trkpt lat="42.9049867" lon="11.9287569"><ele>360.7142857142857</ele><time>2026-04-04T11:13:27.051Z</time></trkpt><trkpt lat="42.9050037" lon="11.9288433"><ele>361.0</ele><time>2026-04-04T11:13:28.055Z</time></trkpt><trkpt lat="42.9050226" lon="11.9289278"><ele>361.0</ele><time>2026-04-04T11:13:29.03Z</time></trkpt><trkpt lat="42.9050462" lon="11.9290128"><ele>361.0</ele><time>2026-04-04T11:13:30.049Z</time></trkpt><trkpt lat="42.9050715" lon="11.929097"><ele>361.0</ele><time>2026-04-04T11:13:31.052Z</time></trkpt><trkpt lat="42.9050953" lon="11.9291849"><ele>361.0</ele><time>2026-04-04T11:13:32.05Z</time></trkpt><trkpt lat="42.9051234" lon="11.9292738"><ele>361.0</ele><time>2026-04-04T11:13:33.049Z</time></trkpt><trkpt lat="42.9051537" lon="11.9293668"><ele>361.0</ele><time>2026-04-04T11:13:34.068Z</time></trkpt><trkpt lat="42.9051802" lon="11.929464"><ele>361.0</ele><time>2026-04-04T11:13:35.072Z</time></trkpt><trkpt lat="42.9052038" lon="11.9295611"><ele>358.5</ele><time>2026-04-04T11:13:36.051Z</time></trkpt><trkpt lat="42.9052234" lon="11.9296676"><ele>356.0</ele><time>2026-04-04T11:13:37.062Z</time></trkpt><trkpt lat="42.9052335" lon="11.9297772"><ele>353.5</ele><time>2026-04-04T11:13:38.044Z</time></trkpt><trkpt lat="42.9052377" lon="11.929894"><ele>351.0</ele><time>2026-04-04T11:13:39.05Z</time></trkpt><trkpt lat="42.9052367" lon="11.9300119"><ele>348.5</ele><time>2026-04-04T11:13:40.048Z</time></trkpt><trkpt lat="42.9052304" lon="11.9301281"><ele>346.0</ele><time>2026-04-04T11:13:41.045Z</time></trkpt><trkpt lat="42.9052248" lon="11.9302393"><ele>346.0</ele><time>2026-04-04T11:13:42.052Z</time></trkpt><trkpt lat="42.9052183" lon="11.9303472"><ele>346.0</ele><time>2026-04-04T11:13:43.057Z</time></trkpt><trkpt lat="42.9052119" lon="11.9304471"><ele>346.0</ele><time>2026-04-04T11:13:44.05Z</time></trkpt><trkpt lat="42.9052052" lon="11.9305446"><ele>346.0</ele><time>2026-04-04T11:13:45.078Z</time></trkpt><trkpt lat="42.9051972" lon="11.930631"><ele>346.0</ele><time>2026-04-04T11:13:46.051Z</time></trkpt><trkpt lat="42.9051359" lon="11.9307763"><ele>346.0</ele><time>2026-04-04T11:13:48.031Z</time></trkpt><trkpt lat="42.9050861" lon="11.9308392"><ele>347.3333333333333</ele><time>2026-04-04T11:13:49.055Z</time></trkpt><trkpt lat="42.9050335" lon="11.9308978"><ele>348.66666666666663</ele><time>2026-04-04T11:13:50.036Z</time></trkpt><trkpt lat="42.9049782" lon="11.930964"><ele>350.0</ele><time>2026-04-04T11:13:51.06Z</time></trkpt><trkpt lat="42.904918" lon="11.9310293"><ele>351.3333333333333</ele><time>2026-04-04T11:13:52.081Z</time></trkpt><trkpt lat="42.9048669" lon="11.9311063"><ele>352.6666666666667</ele><time>2026-04-04T11:13:53.051Z</time></trkpt><trkpt lat="42.904808" lon="11.9311785"><ele>354.0</ele><time>2026-04-04T11:13:54.04Z</time></trkpt><trkpt lat="42.9047436" lon="11.931252"><ele>354.0</ele><time>2026-04-04T11:13:55.037Z</time></trkpt><trkpt lat="42.9046689" lon="11.9313156"><ele>354.0</ele><time>2026-04-04T11:13:56.054Z</time></trkpt><trkpt lat="42.9045851" lon="11.9313526"><ele>354.0</ele><time>2026-04-04T11:13:57.044Z</time></trkpt><trkpt lat="42.9044918" lon="11.931359"><ele>354.0</ele><time>2026-04-04T11:13:58.049Z</time></trkpt><trkpt lat="42.9043949" lon="11.9313392"><ele>354.0</ele><time>2026-04-04T11:13:59.058Z</time></trkpt><trkpt lat="42.9043019" lon="11.9312905"><ele>352.2</ele><time>2026-04-04T11:14:00.046Z</time></trkpt><trkpt lat="42.9042127" lon="11.931218"><ele>350.4</ele><time>2026-04-04T11:14:01.054Z</time></trkpt><trkpt lat="42.9041251" lon="11.9311423"><ele>348.6</ele><time>2026-04-04T11:14:02.056Z</time></trkpt><trkpt lat="42.9040355" lon="11.9310645"><ele>346.8</ele><time>2026-04-04T11:14:03.044Z</time></trkpt><trkpt lat="42.9039434" lon="11.9309852"><ele>345.0</ele><time>2026-04-04T11:14:04.053Z</time></trkpt><trkpt lat="42.9038478" lon="11.9309092"><ele>345.6</ele><time>2026-04-04T11:14:05.064Z</time></trkpt><trkpt lat="42.9037532" lon="11.9308338"><ele>346.2</ele><time>2026-04-04T11:14:06.064Z</time></trkpt><trkpt lat="42.9036629" lon="11.9307553"><ele>346.79999999999995</ele><time>2026-04-04T11:14:07.038Z</time></trkpt><trkpt lat="42.9035679" lon="11.9306739"><ele>347.4</ele><time>2026-04-04T11:14:08.041Z</time></trkpt><trkpt lat="42.903471" lon="11.9305945"><ele>348.0</ele><time>2026-04-04T11:14:09.041Z</time></trkpt><trkpt lat="42.9033714" lon="11.930515"><ele>345.25</ele><time>2026-04-04T11:14:10.055Z</time></trkpt><trkpt lat="42.9032769" lon="11.9304359"><ele>342.5</ele><time>2026-04-04T11:14:11.029Z</time></trkpt><trkpt lat="42.9031808" lon="11.9303536"><ele>339.75</ele><time>2026-04-04T11:14:12.016Z</time></trkpt><trkpt lat="42.9030823" lon="11.9302713"><ele>337.0</ele><time>2026-04-04T11:14:13.031Z</time></trkpt><trkpt lat="42.9029838" lon="11.9301892"><ele>337.0</ele><time>2026-04-04T11:14:14.052Z</time></trkpt><trkpt lat="42.9028925" lon="11.9301136"><ele>337.0</ele><time>2026-04-04T11:14:15.027Z</time></trkpt><trkpt lat="42.9027983" lon="11.9300418"><ele>337.0</ele><time>2026-04-04T11:14:16.058Z</time></trkpt><trkpt lat="42.9027132" lon="11.9299748"><ele>337.0</ele><time>2026-04-04T11:14:17.052Z</time></trkpt><trkpt lat="42.9026317" lon="11.9299084"><ele>337.0</ele><time>2026-04-04T11:14:18.075Z</time></trkpt><trkpt lat="42.9025595" lon="11.9298506"><ele>336.5</ele><time>2026-04-04T11:14:19.043Z</time></trkpt><trkpt lat="42.902485" lon="11.9297951"><ele>336.0</ele><time>2026-04-04T11:14:20.064Z</time></trkpt><trkpt lat="42.9024174" lon="11.9297397"><ele>335.5</ele><time>2026-04-04T11:14:21.065Z</time></trkpt><trkpt lat="42.9023548" lon="11.9296875"><ele>335.0</ele><time>2026-04-04T11:14:22.025Z</time></trkpt><trkpt lat="42.9022897" lon="11.9296368"><ele>334.5</ele><time>2026-04-04T11:14:23.048Z</time></trkpt><trkpt lat="42.9022278" lon="11.9295866"><ele>334.0</ele><time>2026-04-04T11:14:24.055Z</time></trkpt><trkpt lat="42.9021691" lon="11.9295414"><ele>334.0</ele><time>2026-04-04T11:14:25.034Z</time></trkpt><trkpt lat="42.902111" lon="11.9294977"><ele>334.0</ele><time>2026-04-04T11:14:26.024Z</time></trkpt><trkpt lat="42.9020531" lon="11.9294508"><ele>334.0</ele><time>2026-04-04T11:14:27.062Z</time></trkpt><trkpt lat="42.9019379" lon="11.9293977"><ele>334.0</ele><time>2026-04-04T11:14:29.045Z</time></trkpt><trkpt lat="42.9018745" lon="11.9293907"><ele>334.0</ele><time>2026-04-04T11:14:30.038Z</time></trkpt><trkpt lat="42.9018092" lon="11.9293975"><ele>334.0</ele><time>2026-04-04T11:14:31.053Z</time></trkpt><trkpt lat="42.901746" lon="11.929426"><ele>335.0</ele><time>2026-04-04T11:14:32.039Z</time></trkpt><trkpt lat="42.9016877" lon="11.9294772"><ele>336.0</ele><time>2026-04-04T11:14:33.057Z</time></trkpt><trkpt lat="42.9016348" lon="11.9295425"><ele>337.0</ele><time>2026-04-04T11:14:34.062Z</time></trkpt><trkpt lat="42.9015934" lon="11.929617"><ele>338.0</ele><time>2026-04-04T11:14:35.05Z</time></trkpt><trkpt lat="42.9015548" lon="11.9296961"><ele>339.0</ele><time>2026-04-04T11:14:36.06Z</time></trkpt><trkpt lat="42.9015183" lon="11.9297741"><ele>340.0</ele><time>2026-04-04T11:14:37.052Z</time></trkpt><trkpt lat="42.9014831" lon="11.9298516"><ele>341.0</ele><time>2026-04-04T11:14:38.024Z</time></trkpt><trkpt lat="42.9014494" lon="11.9299394"><ele>341.0</ele><time>2026-04-04T11:14:39.062Z</time></trkpt><trkpt lat="42.9014145" lon="11.9300199"><ele>341.0</ele><time>2026-04-04T11:14:40.038Z</time></trkpt><trkpt lat="42.9013818" lon="11.9301056"><ele>341.0</ele><time>2026-04-04T11:14:41.057Z</time></trkpt><trkpt lat="42.901349" lon="11.9301811"><ele>341.0</ele><time>2026-04-04T11:14:42.039Z</time></trkpt><trkpt lat="42.9013138" lon="11.930264"><ele>341.0</ele><time>2026-04-04T11:14:43.078Z</time></trkpt><trkpt lat="42.9012807" lon="11.9303375"><ele>341.0</ele><time>2026-04-04T11:14:44.048Z</time></trkpt><trkpt lat="42.9012486" lon="11.9304133"><ele>341.0</ele><time>2026-04-04T11:14:45.039Z</time></trkpt><trkpt lat="42.9012147" lon="11.930486"><ele>339.6666666666667</ele><time>2026-04-04T11:14:46.033Z</time></trkpt><trkpt lat="42.9011491" lon="11.9306288"><ele>338.33333333333337</ele><time>2026-04-04T11:14:48.055Z</time></trkpt><trkpt lat="42.9010895" lon="11.9307718"><ele>337.0</ele><time>2026-04-04T11:14:50.048Z</time></trkpt><trkpt lat="42.9010554" lon="11.9308493"><ele>335.6666666666667</ele><time>2026-04-04T11:14:51.071Z</time></trkpt><trkpt lat="42.9010204" lon="11.9309266"><ele>334.3333333333333</ele><time>2026-04-04T11:14:52.049Z</time></trkpt><trkpt lat="42.9009823" lon="11.931004"><ele>333.0</ele><time>2026-04-04T11:14:53.039Z</time></trkpt><trkpt lat="42.9009435" lon="11.9310825"><ele>333.0</ele><time>2026-04-04T11:14:54.055Z</time></trkpt><trkpt lat="42.9009065" lon="11.9311666"><ele>333.0</ele><time>2026-04-04T11:14:55.069Z</time></trkpt><trkpt lat="42.9008704" lon="11.9312447"><ele>333.0</ele><time>2026-04-04T11:14:56.055Z</time></trkpt><trkpt lat="42.9008377" lon="11.9313314"><ele>333.0</ele><time>2026-04-04T11:14:57.052Z</time></trkpt><trkpt lat="42.9007991" lon="11.9314167"><ele>333.0</ele><time>2026-04-04T11:14:58.066Z</time></trkpt><trkpt lat="42.900761" lon="11.9314939"><ele>333.0</ele><time>2026-04-04T11:14:59.054Z</time></trkpt><trkpt lat="42.9007254" lon="11.9315756"><ele>333.0</ele><time>2026-04-04T11:15:00.066Z</time></trkpt><trkpt lat="42.9006916" lon="11.9316572"><ele>332.7142857142857</ele><time>2026-04-04T11:15:01.037Z</time></trkpt><trkpt lat="42.9006539" lon="11.9317421"><ele>332.4285714285714</ele><time>2026-04-04T11:15:02.04Z</time></trkpt><trkpt lat="42.9006145" lon="11.9318298"><ele>332.1428571428571</ele><time>2026-04-04T11:15:03.05Z</time></trkpt><trkpt lat="42.9005777" lon="11.9319185"><ele>331.8571428571429</ele><time>2026-04-04T11:15:04.041Z</time></trkpt><trkpt lat="42.9005434" lon="11.9320038"><ele>331.57142857142856</ele><time>2026-04-04T11:15:05.027Z</time></trkpt><trkpt lat="42.9005109" lon="11.9320962"><ele>331.2857142857143</ele><time>2026-04-04T11:15:06.048Z</time></trkpt><trkpt lat="42.9004814" lon="11.9321898"><ele>331.0</ele><time>2026-04-04T11:15:07.047Z</time></trkpt><trkpt lat="42.9004538" lon="11.9322845"><ele>331.0</ele><time>2026-04-04T11:15:08.033Z</time></trkpt><trkpt lat="42.9004229" lon="11.9323859"><ele>331.0</ele><time>2026-04-04T11:15:09.059Z</time></trkpt><trkpt lat="42.9003965" lon="11.9324785"><ele>331.0</ele><time>2026-04-04T11:15:10.035Z</time></trkpt><trkpt lat="42.9003674" lon="11.9325787"><ele>331.0</ele><time>2026-04-04T11:15:11.055Z</time></trkpt><trkpt lat="42.9003378" lon="11.9326833"><ele>331.0</ele><time>2026-04-04T11:15:12.074Z</time></trkpt><trkpt lat="42.9003084" lon="11.932785"><ele>331.0</ele><time>2026-04-04T11:15:13.036Z</time></trkpt><trkpt lat="42.9002745" lon="11.9328937"><ele>330.66666666666663</ele><time>2026-04-04T11:15:14.056Z</time></trkpt><trkpt lat="42.9002419" lon="11.9330013"><ele>330.3333333333333</ele><time>2026-04-04T11:15:15.042Z</time></trkpt><trkpt lat="42.9002115" lon="11.93311"><ele>330.0</ele><time>2026-04-04T11:15:16.05Z</time></trkpt><trkpt lat="42.9001782" lon="11.933226"><ele>329.6666666666667</ele><time>2026-04-04T11:15:17.064Z</time></trkpt><trkpt lat="42.9001447" lon="11.9333383"><ele>329.33333333333337</ele><time>2026-04-04T11:15:18.044Z</time></trkpt><trkpt lat="42.9001111" lon="11.9334469"><ele>329.0</ele><time>2026-04-04T11:15:19.053Z</time></trkpt><trkpt lat="42.9000739" lon="11.9335563"><ele>329.0</ele><time>2026-04-04T11:15:20.055Z</time></trkpt><trkpt lat="42.9000337" lon="11.9336658"><ele>329.0</ele><time>2026-04-04T11:15:21.051Z</time></trkpt><trkpt lat="42.8999919" lon="11.9337707"><ele>329.0</ele><time>2026-04-04T11:15:22.07Z</time></trkpt><trkpt lat="42.8999478" lon="11.9338754"><ele>329.0</ele><time>2026-04-04T11:15:23.064Z</time></trkpt><trkpt lat="42.8999023" lon="11.9339751"><ele>329.0</ele><time>2026-04-04T11:15:24.052Z</time></trkpt><trkpt lat="42.8998558" lon="11.9340706"><ele>329.0</ele><time>2026-04-04T11:15:25.019Z</time></trkpt><trkpt lat="42.8998057" lon="11.9341707"><ele>328.1666666666667</ele><time>2026-04-04T11:15:26.032Z</time></trkpt><trkpt lat="42.8997533" lon="11.9342692"><ele>327.33333333333337</ele><time>2026-04-04T11:15:27.043Z</time></trkpt><trkpt lat="42.899698" lon="11.9343632"><ele>326.5</ele><time>2026-04-04T11:15:28.069Z</time></trkpt><trkpt lat="42.8996449" lon="11.93445"><ele>325.6666666666667</ele><time>2026-04-04T11:15:29.073Z</time></trkpt><trkpt lat="42.8995934" lon="11.9345284"><ele>324.8333333333333</ele><time>2026-04-04T11:15:30.037Z</time></trkpt><trkpt lat="42.8995362" lon="11.9346115"><ele>324.0</ele><time>2026-04-04T11:15:31.062Z</time></trkpt><trkpt lat="42.8994846" lon="11.93469"><ele>324.0</ele><time>2026-04-04T11:15:32.047Z</time></trkpt><trkpt lat="42.8994327" lon="11.9347679"><ele>324.0</ele><time>2026-04-04T11:15:33.071Z</time></trkpt><trkpt lat="42.8993828" lon="11.9348428"><ele>324.0</ele><time>2026-04-04T11:15:34.071Z</time></trkpt><trkpt lat="42.8993366" lon="11.9349152"><ele>324.0</ele><time>2026-04-04T11:15:35.037Z</time></trkpt><trkpt lat="42.8992855" lon="11.9349887"><ele>324.0</ele><time>2026-04-04T11:15:36.059Z</time></trkpt><trkpt lat="42.8992364" lon="11.9350554"><ele>324.0</ele><time>2026-04-04T11:15:37.044Z</time></trkpt><trkpt lat="42.8991859" lon="11.9351197"><ele>324.0</ele><time>2026-04-04T11:15:38.058Z</time></trkpt><trkpt lat="42.899136" lon="11.9351843"><ele>324.42857142857144</ele><time>2026-04-04T11:15:39.07Z</time></trkpt><trkpt lat="42.8990848" lon="11.9352419"><ele>324.85714285714283</ele><time>2026-04-04T11:15:40.059Z</time></trkpt><trkpt lat="42.8990319" lon="11.9352924"><ele>325.2857142857143</ele><time>2026-04-04T11:15:41.063Z</time></trkpt><trkpt lat="42.89898" lon="11.9353449"><ele>325.7142857142857</ele><time>2026-04-04T11:15:42.058Z</time></trkpt><trkpt lat="42.8989249" lon="11.9353957"><ele>326.14285714285717</ele><time>2026-04-04T11:15:43.052Z</time></trkpt><trkpt lat="42.8988727" lon="11.935447"><ele>326.57142857142856</ele><time>2026-04-04T11:15:44.052Z</time></trkpt><trkpt lat="42.8988204" lon="11.935497"><ele>327.0</ele><time>2026-04-04T11:15:45.062Z</time></trkpt><trkpt lat="42.8987165" lon="11.9355915"><ele>327.0</ele><time>2026-04-04T11:15:47.061Z</time></trkpt><trkpt lat="42.898619" lon="11.9356934"><ele>327.0</ele><time>2026-04-04T11:15:49.07Z</time></trkpt><trkpt lat="42.8985277" lon="11.9357844"><ele>327.0</ele><time>2026-04-04T11:15:51.022Z</time></trkpt><trkpt lat="42.8984385" lon="11.9358745"><ele>327.0</ele><time>2026-04-04T11:15:53.055Z</time></trkpt><trkpt lat="42.8983588" lon="11.9359555"><ele>327.0</ele><time>2026-04-04T11:15:55.031Z</time></trkpt><trkpt lat="42.8982828" lon="11.9360303"><ele>327.6666666666667</ele><time>2026-04-04T11:15:57.053Z</time></trkpt><trkpt lat="42.8982145" lon="11.9361018"><ele>328.3333333333333</ele><time>2026-04-04T11:15:59.026Z</time></trkpt><trkpt lat="42.8981447" lon="11.9361734"><ele>329.0</ele><time>2026-04-04T11:16:01.024Z</time></trkpt><trkpt lat="42.8980721" lon="11.936245"><ele>329.66666666666663</ele><time>2026-04-04T11:16:03.046Z</time></trkpt><trkpt lat="42.8979987" lon="11.9363121"><ele>330.3333333333333</ele><time>2026-04-04T11:16:05.026Z</time></trkpt><trkpt lat="42.8979269" lon="11.936381"><ele>331.0</ele><time>2026-04-04T11:16:07.023Z</time></trkpt><trkpt lat="42.8978563" lon="11.9364447"><ele>331.0</ele><time>2026-04-04T11:16:09.021Z</time></trkpt><trkpt lat="42.8977856" lon="11.9365012"><ele>331.0</ele><time>2026-04-04T11:16:11.019Z</time></trkpt><trkpt lat="42.8977155" lon="11.9365551"><ele>331.0</ele><time>2026-04-04T11:16:13.016Z</time></trkpt><trkpt lat="42.8976432" lon="11.9366097"><ele>331.0</ele><time>2026-04-04T11:16:15.043Z</time></trkpt><trkpt lat="42.8975739" lon="11.9366678"><ele>331.0</ele><time>2026-04-04T11:16:17.024Z</time></trkpt><trkpt lat="42.8975035" lon="11.9367258"><ele>331.0</ele><time>2026-04-04T11:16:19.043Z</time></trkpt><trkpt lat="42.8974308" lon="11.9367765"><ele>331.66666666666663</ele><time>2026-04-04T11:16:21.041Z</time></trkpt><trkpt lat="42.8973603" lon="11.9368291"><ele>332.3333333333333</ele><time>2026-04-04T11:16:23.039Z</time></trkpt><trkpt lat="42.8972921" lon="11.9368821"><ele>333.0</ele><time>2026-04-04T11:16:25.034Z</time></trkpt><trkpt lat="42.8972201" lon="11.9369281"><ele>333.6666666666667</ele><time>2026-04-04T11:16:27.037Z</time></trkpt><trkpt lat="42.8971491" lon="11.9369789"><ele>334.33333333333337</ele><time>2026-04-04T11:16:29.055Z</time></trkpt><trkpt lat="42.897076" lon="11.9370274"><ele>335.0</ele><time>2026-04-04T11:16:31.039Z</time></trkpt><trkpt lat="42.8970012" lon="11.9370784"><ele>335.0</ele><time>2026-04-04T11:16:33.032Z</time></trkpt><trkpt lat="42.896925" lon="11.9371333"><ele>335.0</ele><time>2026-04-04T11:16:35.031Z</time></trkpt><trkpt lat="42.896849" lon="11.9371943"><ele>335.0</ele><time>2026-04-04T11:16:37.035Z</time></trkpt><trkpt lat="42.8967676" lon="11.9372549"><ele>335.0</ele><time>2026-04-04T11:16:39.075Z</time></trkpt><trkpt lat="42.896687" lon="11.9373109"><ele>335.0</ele><time>2026-04-04T11:16:41.026Z</time></trkpt><trkpt lat="42.8966051" lon="11.9373789"><ele>335.0</ele><time>2026-04-04T11:16:43.058Z</time></trkpt><trkpt lat="42.8965212" lon="11.9374356"><ele>335.0</ele><time>2026-04-04T11:16:45.017Z</time></trkpt><trkpt lat="42.896425" lon="11.9374741"><ele>335.0</ele><time>2026-04-04T11:16:46.994Z</time></trkpt><trkpt lat="42.8963069" lon="11.93748"><ele>335.0</ele><time>2026-04-04T11:16:48.988Z</time></trkpt><trkpt lat="42.8962419" lon="11.9374668"><ele>335.0</ele><time>2026-04-04T11:16:50.002Z</time></trkpt><trkpt lat="42.8961802" lon="11.9374416"><ele>335.0</ele><time>2026-04-04T11:16:50.989Z</time></trkpt><trkpt lat="42.8961137" lon="11.9374104"><ele>335.0</ele><time>2026-04-04T11:16:52.011Z</time></trkpt><trkpt lat="42.8960448" lon="11.9373779"><ele>335.0</ele><time>2026-04-04T11:16:52.995Z</time></trkpt><trkpt lat="42.8959724" lon="11.9373482"><ele>335.0</ele><time>2026-04-04T11:16:54.003Z</time></trkpt><trkpt lat="42.8958988" lon="11.937316"><ele>335.0</ele><time>2026-04-04T11:16:54.994Z</time></trkpt><trkpt lat="42.895822" lon="11.9372799"><ele>335.0</ele><time>2026-04-04T11:16:55.998Z</time></trkpt><trkpt lat="42.8957402" lon="11.9372533"><ele>335.0</ele><time>2026-04-04T11:16:56.993Z</time></trkpt><trkpt lat="42.8956676" lon="11.9372257"><ele>334.71428571428567</ele><time>2026-04-04T11:16:57.994Z</time></trkpt><trkpt lat="42.8955871" lon="11.9372031"><ele>334.42857142857144</ele><time>2026-04-04T11:16:59.012Z</time></trkpt><trkpt lat="42.895512" lon="11.9371895"><ele>334.1428571428571</ele><time>2026-04-04T11:16:59.966Z</time></trkpt><trkpt lat="42.8954373" lon="11.9371901"><ele>333.85714285714283</ele><time>2026-04-04T11:17:00.968Z</time></trkpt><trkpt lat="42.895371" lon="11.9372067"><ele>333.57142857142856</ele><time>2026-04-04T11:17:01.953Z</time></trkpt><trkpt lat="42.8953002" lon="11.9372339"><ele>333.2857142857143</ele><time>2026-04-04T11:17:02.967Z</time></trkpt><trkpt lat="42.8952427" lon="11.9372934"><ele>333.0</ele><time>2026-04-04T11:17:03.977Z</time></trkpt><trkpt lat="42.8951938" lon="11.9373628"><ele>333.0</ele><time>2026-04-04T11:17:04.99Z</time></trkpt><trkpt lat="42.895157" lon="11.9374372"><ele>333.0</ele><time>2026-04-04T11:17:06.009Z</time></trkpt><trkpt lat="42.8950853" lon="11.9375592"><ele>333.0</ele><time>2026-04-04T11:17:07.996Z</time></trkpt><trkpt lat="42.8950384" lon="11.9377068"><ele>333.0</ele><time>2026-04-04T11:17:10.002Z</time></trkpt><trkpt lat="42.8950419" lon="11.9378614"><ele>333.0</ele><time>2026-04-04T11:17:12.003Z</time></trkpt><trkpt lat="42.8950641" lon="11.9379779"><ele>333.42857142857144</ele><time>2026-04-04T11:17:14.017Z</time></trkpt><trkpt lat="42.8950863" lon="11.9380897"><ele>333.85714285714283</ele><time>2026-04-04T11:17:16.015Z</time></trkpt><trkpt lat="42.8951222" lon="11.9381909"><ele>334.2857142857143</ele><time>2026-04-04T11:17:17.981Z</time></trkpt><trkpt lat="42.8951447" lon="11.9382795"><ele>334.7142857142857</ele><time>2026-04-04T11:17:19.97Z</time></trkpt><trkpt lat="42.8951644" lon="11.9383749"><ele>335.1428571428571</ele><time>2026-04-04T11:17:21.994Z</time></trkpt><trkpt lat="42.8951832" lon="11.9384585"><ele>335.57142857142856</ele><time>2026-04-04T11:17:23.997Z</time></trkpt><trkpt lat="42.8952017" lon="11.9385427"><ele>336.0</ele><time>2026-04-04T11:17:25.978Z</time></trkpt><trkpt lat="42.8952118" lon="11.9386474"><ele>334.8333333333333</ele><time>2026-04-04T11:17:27.985Z</time></trkpt><trkpt lat="42.8952149" lon="11.938745"><ele>333.6666666666667</ele><time>2026-04-04T11:17:29.981Z</time></trkpt><trkpt lat="42.895211" lon="11.9388367"><ele>332.5</ele><time>2026-04-04T11:17:31.971Z</time></trkpt><trkpt lat="42.8952153" lon="11.9389358"><ele>331.33333333333337</ele><time>2026-04-04T11:17:33.969Z</time></trkpt><trkpt lat="42.8952084" lon="11.9390253"><ele>330.1666666666667</ele><time>2026-04-04T11:17:35.975Z</time></trkpt><trkpt lat="42.895188" lon="11.9391365"><ele>329.0</ele><time>2026-04-04T11:17:38.969Z</time></trkpt><trkpt lat="42.895164" lon="11.9392543"><ele>328.85714285714283</ele><time>2026-04-04T11:17:42.009Z</time></trkpt><trkpt lat="42.8951434" lon="11.9393393"><ele>328.7142857142857</ele><time>2026-04-04T11:17:43.985Z</time></trkpt><trkpt lat="42.8951127" lon="11.9394357"><ele>328.57142857142856</ele><time>2026-04-04T11:17:46.97Z</time></trkpt><trkpt lat="42.8950852" lon="11.9395145"><ele>328.42857142857144</ele><time>2026-04-04T11:17:49.985Z</time></trkpt><trkpt lat="42.8950416" lon="11.9395836"><ele>328.2857142857143</ele><time>2026-04-04T11:17:52.993Z</time></trkpt><trkpt lat="42.894981" lon="11.9396359"><ele>328.1428571428571</ele><time>2026-04-04T11:17:55.986Z</time></trkpt><trkpt lat="42.8949243" lon="11.9396931"><ele>328.0</ele><time>2026-04-04T11:17:58.982Z</time></trkpt><trkpt lat="42.894858" lon="11.9397312"><ele>329.4285714285714</ele><time>2026-04-04T11:18:01.978Z</time></trkpt><trkpt lat="42.8947923" lon="11.9397295"><ele>330.85714285714283</ele><time>2026-04-04T11:18:04.986Z</time></trkpt><trkpt lat="42.894733" lon="11.9397005"><ele>332.2857142857143</ele><time>2026-04-04T11:18:08.004Z</time></trkpt><trkpt lat="42.8946727" lon="11.939638"><ele>333.71428571428567</ele><time>2026-04-04T11:18:12.002Z</time></trkpt><trkpt lat="42.8946286" lon="11.9395483"><ele>335.1428571428571</ele><time>2026-04-04T11:18:15.995Z</time></trkpt><trkpt lat="42.8946082" lon="11.9394414"><ele>336.57142857142856</ele><time>2026-04-04T11:18:19.981Z</time></trkpt><trkpt lat="42.8946015" lon="11.9393416"><ele>338.0</ele><time>2026-04-04T11:18:23.99Z</time></trkpt><trkpt lat="42.8946106" lon="11.9392423"><ele>338.2857142857143</ele><time>2026-04-04T11:18:27.99Z</time></trkpt><trkpt lat="42.8946275" lon="11.9391341"><ele>338.57142857142856</ele><time>2026-04-04T11:18:31.98Z</time></trkpt><trkpt lat="42.8946326" lon="11.9390419"><ele>338.8571428571429</ele><time>2026-04-04T11:18:35.973Z</time></trkpt><trkpt lat="42.894629" lon="11.9389483"><ele>339.1428571428571</ele><time>2026-04-04T11:18:39.981Z</time></trkpt><trkpt lat="42.8946203" lon="11.9388474"><ele>339.4285714285714</ele><time>2026-04-04T11:18:43.978Z</time></trkpt><trkpt lat="42.8945949" lon="11.9387352"><ele>339.7142857142857</ele><time>2026-04-04T11:18:49Z</time></trkpt><trkpt lat="42.8945687" lon="11.9386468"><ele>340.0</ele><time>2026-04-04T11:18:52.99Z</time></trkpt><trkpt lat="42.8945425" lon="11.9385674"><ele>340.0</ele><time>2026-04-04T11:18:56.013Z</time></trkpt><trkpt lat="42.8945195" lon="11.938466"><ele>340.0</ele><time>2026-04-04T11:18:59.989Z</time></trkpt><trkpt lat="42.8944893" lon="11.9383836"><ele>340.0</ele><time>2026-04-04T11:19:03.971Z</time></trkpt><trkpt lat="42.8944675" lon="11.9382947"><ele>340.0</ele><time>2026-04-04T11:19:08.005Z</time></trkpt><trkpt lat="42.8944389" lon="11.9382026"><ele>340.0</ele><time>2026-04-04T11:19:11.984Z</time></trkpt><trkpt lat="42.8944096" lon="11.9381131"><ele>340.0</ele><time>2026-04-04T11:19:16.992Z</time></trkpt><trkpt lat="42.8943485" lon="11.9380541"><ele>340.0</ele><time>2026-04-04T11:19:20.987Z</time></trkpt><trkpt lat="42.8942832" lon="11.9380035"><ele>342.14285714285717</ele><time>2026-04-04T11:19:24.977Z</time></trkpt><trkpt lat="42.8942234" lon="11.9379631"><ele>344.2857142857143</ele><time>2026-04-04T11:19:29.001Z</time></trkpt><trkpt lat="42.8941507" lon="11.9379263"><ele>346.42857142857144</ele><time>2026-04-04T11:19:32.991Z</time></trkpt><trkpt lat="42.8940811" lon="11.9379049"><ele>348.57142857142856</ele><time>2026-04-04T11:19:36.997Z</time></trkpt><trkpt lat="42.8940012" lon="11.9379003"><ele>350.7142857142857</ele><time>2026-04-04T11:19:40.981Z</time></trkpt><trkpt lat="42.8939363" lon="11.9378815"><ele>352.85714285714283</ele><time>2026-04-04T11:19:44.993Z</time></trkpt><trkpt lat="42.8938733" lon="11.9378808"><ele>355.0</ele><time>2026-04-04T11:19:47.971Z</time></trkpt><trkpt lat="42.8938059" lon="11.9378722"><ele>355.0</ele><time>2026-04-04T11:19:52.003Z</time></trkpt><trkpt lat="42.8937395" lon="11.9378745"><ele>355.0</ele><time>2026-04-04T11:19:56.001Z</time></trkpt><trkpt lat="42.893665" lon="11.9378718"><ele>355.0</ele><time>2026-04-04T11:19:59.999Z</time></trkpt><trkpt lat="42.8935879" lon="11.9378645"><ele>355.0</ele><time>2026-04-04T11:20:03.987Z</time></trkpt><trkpt lat="42.8935138" lon="11.9378568"><ele>355.0</ele><time>2026-04-04T11:20:08.001Z</time></trkpt><trkpt lat="42.8934402" lon="11.937846"><ele>355.0</ele><time>2026-04-04T11:20:11.991Z</time></trkpt><trkpt lat="42.8933676" lon="11.9378471"><ele>355.0</ele><time>2026-04-04T11:20:15.979Z</time></trkpt><trkpt lat="42.8932949" lon="11.9378444"><ele>356.1428571428571</ele><time>2026-04-04T11:20:20.012Z</time></trkpt><trkpt lat="42.8932147" lon="11.9378239"><ele>357.2857142857143</ele><time>2026-04-04T11:20:24.997Z</time></trkpt><trkpt lat="42.8931509" lon="11.9378159"><ele>358.42857142857144</ele><time>2026-04-04T11:20:28.975Z</time></trkpt><trkpt lat="42.8930862" lon="11.9378223"><ele>359.57142857142856</ele><time>2026-04-04T11:20:32.982Z</time></trkpt><trkpt lat="42.8930151" lon="11.9378016"><ele>360.7142857142857</ele><time>2026-04-04T11:20:36.978Z</time></trkpt><trkpt lat="42.8929386" lon="11.9377993"><ele>361.85714285714283</ele><time>2026-04-04T11:20:41.007Z</time></trkpt><trkpt lat="42.8928701" lon="11.9378079"><ele>363.0</ele><time>2026-04-04T11:20:44.991Z</time></trkpt><trkpt lat="42.892793" lon="11.9378215"><ele>362.99999999999994</ele><time>2026-04-04T11:20:48.993Z</time></trkpt><trkpt lat="42.892733" lon="11.9378535"><ele>363.0</ele><time>2026-04-04T11:20:52.99Z</time></trkpt><trkpt lat="42.8926709" lon="11.937908"><ele>363.0</ele><time>2026-04-04T11:20:56.988Z</time></trkpt><trkpt lat="42.8926031" lon="11.9379662"><ele>363.0</ele><time>2026-04-04T11:21:00.985Z</time></trkpt><trkpt lat="42.8925573" lon="11.9380285"><ele>363.0</ele><time>2026-04-04T11:21:04.011Z</time></trkpt><trkpt lat="42.892493" lon="11.9380733"><ele>362.99999999999994</ele><time>2026-04-04T11:21:07.999Z</time></trkpt><trkpt lat="42.8924268" lon="11.9381218"><ele>363.0</ele><time>2026-04-04T11:21:12.998Z</time></trkpt><trkpt lat="42.892366" lon="11.9381934"><ele>363.2857142857143</ele><time>2026-04-04T11:21:16.984Z</time></trkpt><trkpt lat="42.8922994" lon="11.9382382"><ele>363.57142857142856</ele><time>2026-04-04T11:21:20.992Z</time></trkpt><trkpt lat="42.8922344" lon="11.9382692"><ele>363.8571428571429</ele><time>2026-04-04T11:21:24.97Z</time></trkpt><trkpt lat="42.892174" lon="11.9383198"><ele>364.1428571428571</ele><time>2026-04-04T11:21:28.987Z</time></trkpt><trkpt lat="42.8921044" lon="11.9383601"><ele>364.42857142857144</ele><time>2026-04-04T11:21:32.988Z</time></trkpt><trkpt lat="42.8920354" lon="11.9383671"><ele>364.7142857142857</ele><time>2026-04-04T11:21:37.049Z</time></trkpt><trkpt lat="42.891965" lon="11.9383506"><ele>365.0</ele><time>2026-04-04T11:21:41.035Z</time></trkpt><trkpt lat="42.8919037" lon="11.9383189"><ele>365.00000000000006</ele><time>2026-04-04T11:21:45.042Z</time></trkpt><trkpt lat="42.8918476" lon="11.9382716"><ele>365.0</ele><time>2026-04-04T11:21:49.051Z</time></trkpt><trkpt lat="42.8917941" lon="11.9382167"><ele>365.0</ele><time>2026-04-04T11:21:53.073Z</time></trkpt><trkpt lat="42.8917448" lon="11.9381592"><ele>365.0</ele><time>2026-04-04T11:21:57.05Z</time></trkpt><trkpt lat="42.8917006" lon="11.9380911"><ele>365.0</ele><time>2026-04-04T11:22:01.063Z</time></trkpt><trkpt lat="42.8916544" lon="11.9380234"><ele>365.00000000000006</ele><time>2026-04-04T11:22:05.047Z</time></trkpt><trkpt lat="42.8916085" lon="11.9379565"><ele>365.0</ele><time>2026-04-04T11:22:09.034Z</time></trkpt><trkpt lat="42.891563" lon="11.9378917"><ele>365.8571428571429</ele><time>2026-04-04T11:22:13.055Z</time></trkpt><trkpt lat="42.891519" lon="11.9378247"><ele>366.7142857142857</ele><time>2026-04-04T11:22:17.072Z</time></trkpt><trkpt lat="42.8914782" lon="11.9377532"><ele>367.57142857142856</ele><time>2026-04-04T11:22:21.065Z</time></trkpt><trkpt lat="42.8914329" lon="11.9376889"><ele>368.42857142857144</ele><time>2026-04-04T11:22:25.044Z</time></trkpt><trkpt lat="42.8913633" lon="11.9377262"><ele>369.2857142857143</ele><time>2026-04-04T11:22:30.031Z</time></trkpt><trkpt lat="42.8913349" lon="11.9378105"><ele>370.14285714285717</ele><time>2026-04-04T11:22:34.052Z</time></trkpt><trkpt lat="42.8913254" lon="11.9379018"><ele>371.0</ele><time>2026-04-04T11:22:38.029Z</time></trkpt><trkpt lat="42.891315" lon="11.9379942"><ele>371.0</ele><time>2026-04-04T11:22:42.038Z</time></trkpt><trkpt lat="42.8913049" lon="11.9380834"><ele>371.0</ele><time>2026-04-04T11:22:46.051Z</time></trkpt><trkpt lat="42.8913016" lon="11.9381727"><ele>371.0</ele><time>2026-04-04T11:22:50.053Z</time></trkpt><trkpt lat="42.8913045" lon="11.9382689"><ele>371.0</ele><time>2026-04-04T11:22:54.029Z</time></trkpt><trkpt lat="42.891305" lon="11.9383701"><ele>371.0</ele><time>2026-04-04T11:22:58.04Z</time></trkpt><trkpt lat="42.8913049" lon="11.9384725"><ele>371.0</ele><time>2026-04-04T11:23:02.032Z</time></trkpt><trkpt lat="42.8913122" lon="11.9385768"><ele>371.0</ele><time>2026-04-04T11:23:06.028Z</time></trkpt><trkpt lat="42.8913222" lon="11.9386794"><ele>372.1666666666667</ele><time>2026-04-04T11:23:10.034Z</time></trkpt><trkpt lat="42.8913246" lon="11.9387786"><ele>373.33333333333337</ele><time>2026-04-04T11:23:14.045Z</time></trkpt><trkpt lat="42.8913279" lon="11.9388826"><ele>374.5</ele><time>2026-04-04T11:23:18.035Z</time></trkpt><trkpt lat="42.8913547" lon="11.9389792"><ele>375.6666666666667</ele><time>2026-04-04T11:23:22.065Z</time></trkpt><trkpt lat="42.8913978" lon="11.9390631"><ele>376.8333333333333</ele><time>2026-04-04T11:23:26.037Z</time></trkpt><trkpt lat="42.8914511" lon="11.9391463"><ele>378.0</ele><time>2026-04-04T11:23:30.035Z</time></trkpt><trkpt lat="42.891504" lon="11.9392225"><ele>378.2857142857143</ele><time>2026-04-04T11:23:34.022Z</time></trkpt><trkpt lat="42.8915578" lon="11.9393023"><ele>378.57142857142856</ele><time>2026-04-04T11:23:38.071Z</time></trkpt><trkpt lat="42.8916108" lon="11.939383"><ele>378.8571428571429</ele><time>2026-04-04T11:23:42.065Z</time></trkpt><trkpt lat="42.8916582" lon="11.9394625"><ele>379.1428571428571</ele><time>2026-04-04T11:23:46.046Z</time></trkpt><trkpt lat="42.8916977" lon="11.9395355"><ele>379.42857142857144</ele><time>2026-04-04T11:23:50.026Z</time></trkpt><trkpt lat="42.8917372" lon="11.9396032"><ele>379.7142857142857</ele><time>2026-04-04T11:23:54.038Z</time></trkpt><trkpt lat="42.8917762" lon="11.9396766"><ele>380.0</ele><time>2026-04-04T11:23:58.051Z</time></trkpt><trkpt lat="42.8918125" lon="11.9397525"><ele>380.14285714285717</ele><time>2026-04-04T11:24:02.041Z</time></trkpt><trkpt lat="42.8918594" lon="11.9398221"><ele>380.28571428571433</ele><time>2026-04-04T11:24:06.048Z</time></trkpt><trkpt lat="42.8918968" lon="11.9398965"><ele>380.42857142857144</ele><time>2026-04-04T11:24:10.043Z</time></trkpt><trkpt lat="42.8919407" lon="11.9399644"><ele>380.57142857142856</ele><time>2026-04-04T11:24:14.033Z</time></trkpt><trkpt lat="42.8919796" lon="11.9400406"><ele>380.7142857142857</ele><time>2026-04-04T11:24:18.075Z</time></trkpt><trkpt lat="42.8920248" lon="11.940116"><ele>380.85714285714283</ele><time>2026-04-04T11:24:22.063Z</time></trkpt><trkpt lat="42.892065" lon="11.9401939"><ele>381.0</ele><time>2026-04-04T11:24:26.054Z</time></trkpt><trkpt lat="42.8921107" lon="11.9402664"><ele>383.0</ele><time>2026-04-04T11:24:30.037Z</time></trkpt><trkpt lat="42.8921588" lon="11.9403495"><ele>383.0</ele><time>2026-04-04T11:24:34.065Z</time></trkpt><trkpt lat="42.8922019" lon="11.9404305"><ele>383.0</ele><time>2026-04-04T11:24:38.015Z</time></trkpt><trkpt lat="42.8922316" lon="11.9405105"><ele>383.0</ele><time>2026-04-04T11:24:42.029Z</time></trkpt></trkseg></trk></gpx>